PWSweather.com
Personal Weather Stations
Station Observations
VAJNORY
Vajnory, BratislavaSK 83107

VajnoryBratislavaSK 83107

Lat: 48.208, Lon: 17.202

Elevation: 434

Station Type: MeteoPi by eMeteo.sk

https://emeteo.sk/sk/meteostanica/vajnory

Latest ConditionsUpdated 6:40:00 PM GMT+01:01 Tuesday, Jan 22, 2019
Currently Today's Max Today's Min Today's Average
Temperature 20.1°F-6.6°C 45.1°F7.3°C 18.3°F-7.6°C 22.9°F-5.1°C
Dew Point 18.0°F-7.8°C 43.0°F6.1°C 17.0°F-8.3°C 20.5°F-6.4°C
Winds Calm Calm 10.9 mph -17.5 kmh - - 3.4 mph 5.5 kmh
Wind Gusts -- 17.9 mph28.8 kmh - -
Humidity 91% 96% 80% 91%
Pressure 29.84 in1010.5 mb 30.13 in1020.3 mb 29.84 in1010.5 mb -
Precipitation - 0.01 in0.3 mm - -
Hour Temp Dew Point Humidity Winds Wind Gusts Pressure Precip Precip Rate Daily Precip Total
06:40 PM 20.1°F-6.6°C 18.0°F-7.8°C 91% Calm Calm -- 29.84 in1010.5 mb 0.00 in0.0 mm 0.00 in0.0 mm 0.01 in0.3 mm
06:39 PM 20.1°F-6.6°C 18.0°F-7.8°C 91% 0.5 mph 0.8 kmh 0.7 mph1.1 kmh 29.84 in1010.5 mb 0.00 in0.0 mm 0.00 in0.0 mm 0.01 in0.3 mm
06:38 PM 20.1°F-6.6°C 18.0°F-7.8°C 91% 0.4 mph 0.6 kmh 0.5 mph0.8 kmh 29.84 in1010.5 mb 0.00 in0.0 mm 0.00 in0.0 mm 0.01 in0.3 mm
06:37 PM 20.1°F-6.6°C 18.0°F-7.8°C 91% 0.1 mph 0.2 kmh -- 29.84 in1010.5 mb 0.00 in0.0 mm 0.00 in0.0 mm 0.01 in0.3 mm
06:36 PM 20.1°F-6.6°C 18.0°F-7.8°C 91% 0.8 mph 1.3 kmh 1.1 mph1.8 kmh 29.84 in1010.5 mb 0.00 in0.0 mm 0.00 in0.0 mm 0.01 in0.3 mm
06:35 PM 20.3°F-6.5°C 18.0°F-7.8°C 91% 1.3 mph 2.1 kmh 2.1 mph3.4 kmh 29.84 in1010.5 mb 0.00 in0.0 mm 0.00 in0.0 mm 0.01 in0.3 mm
06:34 PM 20.3°F-6.5°C 18.0°F-7.8°C 91% 1.6 mph 2.6 kmh 2.4 mph3.9 kmh 29.84 in1010.5 mb 0.00 in0.0 mm 0.00 in0.0 mm 0.01 in0.3 mm
06:33 PM 20.5°F-6.4°C 18.0°F-7.8°C 91% 1.1 mph 1.8 kmh 1.6 mph2.6 kmh 29.84 in1010.5 mb 0.00 in0.0 mm 0.00 in0.0 mm 0.01 in0.3 mm
06:32 PM 20.5°F-6.4°C 18.0°F-7.8°C 91% 0.8 mph 1.3 kmh 1.2 mph1.9 kmh 29.84 in1010.5 mb 0.00 in0.0 mm 0.00 in0.0 mm 0.01 in0.3 mm
06:31 PM 20.5°F-6.4°C 18.0°F-7.8°C 91% 0.9 mph 1.4 kmh 1.4 mph2.3 kmh 29.85 in1010.8 mb 0.00 in0.0 mm 0.00 in0.0 mm 0.01 in0.3 mm
06:30 PM 20.5°F-6.4°C 18.0°F-7.8°C 91% 1.1 mph 1.8 kmh 1.8 mph2.9 kmh 29.85 in1010.8 mb 0.00 in0.0 mm 0.00 in0.0 mm 0.01 in0.3 mm
06:29 PM 20.5°F-6.4°C 18.0°F-7.8°C 91% Calm Calm -- 29.85 in1010.8 mb 0.00 in0.0 mm 0.00 in0.0 mm 0.01 in0.3 mm
06:28 PM 20.7°F-6.3°C 18.0°F-7.8°C 91% Calm Calm -- 29.85 in1010.8 mb 0.00 in0.0 mm 0.00 in0.0 mm 0.01 in0.3 mm
06:27 PM 20.7°F-6.3°C 18.0°F-7.8°C 91% Calm Calm -- 29.85 in1010.8 mb 0.00 in0.0 mm 0.00 in0.0 mm 0.01 in0.3 mm
06:26 PM 20.7°F-6.3°C 18.0°F-7.8°C 91% Calm Calm -- 29.85 in1010.8 mb 0.00 in0.0 mm 0.00 in0.0 mm 0.01 in0.3 mm
06:25 PM 20.7°F-6.3°C 19.0°F-7.2°C 91% 0.5 mph 0.8 kmh 0.8 mph1.3 kmh 29.85 in1010.8 mb 0.00 in0.0 mm 0.00 in0.0 mm 0.01 in0.3 mm
06:24 PM 20.8°F-6.2°C 19.0°F-7.2°C 91% 1.3 mph ENE2.1 kmh ENE 2.1 mph3.4 kmh 29.85 in1010.8 mb 0.00 in0.0 mm 0.00 in0.0 mm 0.01 in0.3 mm
06:23 PM 20.8°F-6.2°C 19.0°F-7.2°C 91% 1.8 mph SE2.9 kmh SE 2.7 mph4.3 kmh 29.85 in1010.8 mb 0.00 in0.0 mm 0.00 in0.0 mm 0.01 in0.3 mm
06:22 PM 20.8°F-6.2°C 19.0°F-7.2°C 91% 1.0 mph 1.6 kmh 1.6 mph2.6 kmh 29.85 in1010.8 mb 0.00 in0.0 mm 0.00 in0.0 mm 0.01 in0.3 mm
06:21 PM 20.8°F-6.2°C 19.0°F-7.2°C 91% Calm Calm -- 29.85 in1010.8 mb 0.00 in0.0 mm 0.00 in0.0 mm 0.01 in0.3 mm
06:20 PM 20.8°F-6.2°C 19.0°F-7.2°C 91% Calm Calm -- 29.85 in1010.8 mb 0.00 in0.0 mm 0.00 in0.0 mm 0.01 in0.3 mm
06:19 PM 21.0°F-6.1°C 19.0°F-7.2°C 91% Calm Calm -- 29.85 in1010.8 mb 0.00 in0.0 mm 0.00 in0.0 mm 0.01 in0.3 mm
06:18 PM 21.0°F-6.1°C 19.0°F-7.2°C 91% Calm Calm -- 29.85 in1010.8 mb 0.00 in0.0 mm 0.00 in0.0 mm 0.01 in0.3 mm
06:17 PM 21.0°F-6.1°C 19.0°F-7.2°C 91% Calm Calm -- 29.85 in1010.8 mb 0.00 in0.0 mm 0.00 in0.0 mm 0.01 in0.3 mm
06:16 PM 21.2°F-6.0°C 19.0°F-7.2°C 91% 0.0 mph 0.0 kmh -- 29.85 in1010.8 mb 0.00 in0.0 mm 0.00 in0.0 mm 0.01 in0.3 mm
06:15 PM 21.2°F-6.0°C 19.0°F-7.2°C 91% 0.1 mph 0.2 kmh 0.0 mph0.0 kmh 29.85 in1010.8 mb 0.00 in0.0 mm 0.00 in0.0 mm 0.01 in0.3 mm
06:14 PM 21.2°F-6.0°C 19.0°F-7.2°C 90% 0.1 mph 0.2 kmh 0.0 mph0.0 kmh 29.85 in1010.8 mb 0.00 in0.0 mm 0.00 in0.0 mm 0.01 in0.3 mm
06:13 PM 21.2°F-6.0°C 19.0°F-7.2°C 90% 0.4 mph 0.6 kmh 0.5 mph0.8 kmh 29.85 in1010.8 mb 0.00 in0.0 mm 0.00 in0.0 mm 0.01 in0.3 mm
06:12 PM 21.4°F-5.9°C 19.0°F-7.2°C 90% 0.9 mph 1.4 kmh 1.4 mph2.3 kmh 29.85 in1010.8 mb 0.00 in0.0 mm 0.00 in0.0 mm 0.01 in0.3 mm
06:11 PM 21.6°F-5.8°C 19.0°F-7.2°C 90% 1.4 mph 2.3 kmh 2.3 mph3.7 kmh 29.85 in1010.8 mb 0.00 in0.0 mm 0.00 in0.0 mm 0.01 in0.3 mm
06:10 PM 21.6°F-5.8°C 19.0°F-7.2°C 90% 1.5 mph 2.4 kmh 2.4 mph3.9 kmh 29.85 in1010.8 mb 0.00 in0.0 mm 0.00 in0.0 mm 0.01 in0.3 mm
06:09 PM 21.6°F-5.8°C 19.0°F-7.2°C 90% 1.5 mph 2.4 kmh 2.3 mph3.7 kmh 29.85 in1010.8 mb 0.00 in0.0 mm 0.00 in0.0 mm 0.01 in0.3 mm
06:08 PM 21.6°F-5.8°C 19.0°F-7.2°C 90% 1.2 mph 1.9 kmh 1.9 mph3.1 kmh 29.85 in1010.8 mb 0.00 in0.0 mm 0.00 in0.0 mm 0.01 in0.3 mm
06:07 PM 21.7°F-5.7°C 19.0°F-7.2°C 90% 1.5 mph 2.4 kmh 2.3 mph3.7 kmh 29.85 in1010.8 mb 0.00 in0.0 mm 0.00 in0.0 mm 0.01 in0.3 mm
06:06 PM 21.7°F-5.7°C 19.0°F-7.2°C 90% 1.2 mph 1.9 kmh 1.9 mph3.1 kmh 29.85 in1010.8 mb 0.00 in0.0 mm 0.00 in0.0 mm 0.01 in0.3 mm
06:05 PM 21.9°F-5.6°C 20.0°F-6.7°C 90% 1.1 mph 1.8 kmh 1.7 mph2.7 kmh 29.85 in1010.8 mb 0.00 in0.0 mm 0.00 in0.0 mm 0.01 in0.3 mm
06:04 PM 21.9°F-5.6°C 20.0°F-6.7°C 91% 0.8 mph 1.3 kmh 1.2 mph1.9 kmh 29.85 in1010.8 mb 0.00 in0.0 mm 0.00 in0.0 mm 0.01 in0.3 mm
06:03 PM 21.9°F-5.6°C 20.0°F-6.7°C 91% 0.9 mph 1.4 kmh 1.4 mph2.3 kmh 29.85 in1010.8 mb 0.00 in0.0 mm 0.00 in0.0 mm 0.01 in0.3 mm
06:02 PM 22.1°F-5.5°C 20.0°F-6.7°C 91% 1.1 mph 1.8 kmh 1.8 mph2.9 kmh 29.85 in1010.8 mb 0.00 in0.0 mm 0.00 in0.0 mm 0.01 in0.3 mm
06:01 PM 22.1°F-5.5°C 20.0°F-6.7°C 91% 1.5 mph 2.4 kmh 2.4 mph3.9 kmh 29.85 in1010.8 mb 0.00 in0.0 mm 0.00 in0.0 mm 0.01 in0.3 mm
06:00 PM 22.1°F-5.5°C 20.0°F-6.7°C 91% 1.7 mph 2.7 kmh 2.7 mph4.3 kmh 29.85 in1010.8 mb 0.00 in0.0 mm 0.00 in0.0 mm 0.01 in0.3 mm
05:59 PM 22.1°F-5.5°C 20.0°F-6.7°C 91% 2.2 mph 3.5 kmh 3.4 mph5.5 kmh 29.85 in1010.8 mb 0.00 in0.0 mm 0.00 in0.0 mm 0.01 in0.3 mm
05:58 PM 22.1°F-5.5°C 20.0°F-6.7°C 91% 2.0 mph 3.2 kmh 3.1 mph5.0 kmh 29.85 in1010.8 mb 0.00 in0.0 mm 0.00 in0.0 mm 0.01 in0.3 mm
05:57 PM 22.1°F-5.5°C 20.0°F-6.7°C 91% 1.7 mph 2.7 kmh 2.6 mph4.2 kmh 29.85 in1010.8 mb 0.00 in0.0 mm 0.00 in0.0 mm 0.01 in0.3 mm
05:56 PM 22.1°F-5.5°C 20.0°F-6.7°C 91% 1.4 mph 2.3 kmh 2.2 mph3.5 kmh 29.85 in1010.8 mb 0.00 in0.0 mm 0.00 in0.0 mm 0.01 in0.3 mm
05:55 PM 22.1°F-5.5°C 20.0°F-6.7°C 91% 2.6 mph 4.2 kmh 4.0 mph6.4 kmh 29.85 in1010.8 mb 0.00 in0.0 mm 0.00 in0.0 mm 0.01 in0.3 mm
05:54 PM 22.1°F-5.5°C 20.0°F-6.7°C 90% 1.5 mph 2.4 kmh 2.3 mph3.7 kmh 29.85 in1010.8 mb 0.00 in0.0 mm 0.00 in0.0 mm 0.01 in0.3 mm
05:53 PM 22.1°F-5.5°C 20.0°F-6.7°C 90% 1.3 mph 2.1 kmh 2.0 mph3.2 kmh 29.85 in1010.8 mb 0.00 in0.0 mm 0.00 in0.0 mm 0.01 in0.3 mm
05:52 PM 22.3°F-5.4°C 20.0°F-6.7°C 90% 1.2 mph 1.9 kmh 2.0 mph3.2 kmh 29.85 in1010.8 mb 0.00 in0.0 mm 0.00 in0.0 mm 0.01 in0.3 mm
05:51 PM 22.5°F-5.3°C 20.0°F-6.7°C 90% 1.8 mph 2.9 kmh 2.8 mph4.5 kmh 29.85 in1010.8 mb 0.00 in0.0 mm 0.00 in0.0 mm 0.01 in0.3 mm
05:50 PM 22.5°F-5.3°C 20.0°F-6.7°C 91% 2.1 mph 3.4 kmh 3.3 mph5.3 kmh 29.85 in1010.8 mb 0.00 in0.0 mm 0.00 in0.0 mm 0.01 in0.3 mm
05:49 PM 22.5°F-5.3°C 20.0°F-6.7°C 91% 1.7 mph 2.7 kmh 2.6 mph4.2 kmh 29.85 in1010.8 mb 0.00 in0.0 mm 0.00 in0.0 mm 0.01 in0.3 mm
05:48 PM 22.5°F-5.3°C 20.0°F-6.7°C 91% 2.0 mph 3.2 kmh 3.2 mph5.1 kmh 29.85 in1010.8 mb 0.00 in0.0 mm 0.00 in0.0 mm 0.01 in0.3 mm
05:47 PM 22.5°F-5.3°C 20.0°F-6.7°C 91% 1.5 mph 2.4 kmh 2.5 mph4.0 kmh 29.85 in1010.8 mb 0.00 in0.0 mm 0.00 in0.0 mm 0.01 in0.3 mm
05:46 PM 22.5°F-5.3°C 20.0°F-6.7°C 91% 1.4 mph 2.3 kmh 2.3 mph3.7 kmh 29.85 in1010.8 mb 0.00 in0.0 mm 0.00 in0.0 mm 0.01 in0.3 mm
05:45 PM 22.5°F-5.3°C 20.0°F-6.7°C 91% 1.1 mph 1.8 kmh 1.8 mph2.9 kmh 29.85 in1010.8 mb 0.00 in0.0 mm 0.00 in0.0 mm 0.01 in0.3 mm
05:44 PM 22.5°F-5.3°C 20.0°F-6.7°C 91% 0.6 mph 1.0 kmh 0.9 mph1.4 kmh 29.85 in1010.8 mb 0.00 in0.0 mm 0.00 in0.0 mm 0.01 in0.3 mm
05:43 PM 22.5°F-5.3°C 20.0°F-6.7°C 90% Calm Calm -- 29.85 in1010.8 mb 0.00 in0.0 mm 0.00 in0.0 mm 0.01 in0.3 mm
05:42 PM 22.6°F-5.2°C 20.0°F-6.7°C 90% Calm Calm -- 29.86 in1011.2 mb 0.00 in0.0 mm 0.00 in0.0 mm 0.01 in0.3 mm
05:41 PM 22.8°F-5.1°C 20.0°F-6.7°C 90% Calm Calm -- 29.86 in1011.2 mb 0.00 in0.0 mm 0.00 in0.0 mm 0.01 in0.3 mm
05:40 PM 22.8°F-5.1°C 20.0°F-6.7°C 90% Calm Calm -- 29.86 in1011.2 mb 0.00 in0.0 mm 0.00 in0.0 mm 0.01 in0.3 mm
05:39 PM 22.8°F-5.1°C 20.0°F-6.7°C 90% Calm Calm -- 29.86 in1011.2 mb 0.00 in0.0 mm 0.00 in0.0 mm 0.01 in0.3 mm
05:38 PM 23.0°F-5.0°C 21.0°F-6.1°C 90% Calm Calm -- 29.86 in1011.2 mb 0.00 in0.0 mm 0.00 in0.0 mm 0.01 in0.3 mm
05:37 PM 23.0°F-5.0°C 21.0°F-6.1°C 91% Calm Calm -- 29.86 in1011.2 mb 0.00 in0.0 mm 0.00 in0.0 mm 0.01 in0.3 mm
05:36 PM 23.0°F-5.0°C 21.0°F-6.1°C 91% Calm Calm -- 29.86 in1011.2 mb 0.00 in0.0 mm 0.00 in0.0 mm 0.01 in0.3 mm
05:35 PM 23.2°F-4.9°C 21.0°F-6.1°C 91% 1.3 mph 2.1 kmh 2.1 mph3.4 kmh 29.86 in1011.2 mb 0.00 in0.0 mm 0.00 in0.0 mm 0.01 in0.3 mm
05:34 PM 23.0°F-5.0°C 21.0°F-6.1°C 91% 1.1 mph 1.8 kmh 1.7 mph2.7 kmh 29.86 in1011.2 mb 0.00 in0.0 mm 0.00 in0.0 mm 0.01 in0.3 mm
05:33 PM 23.0°F-5.0°C 21.0°F-6.1°C 91% 0.5 mph 0.8 kmh 0.7 mph1.1 kmh 29.86 in1011.2 mb 0.00 in0.0 mm 0.00 in0.0 mm 0.01 in0.3 mm
05:32 PM 23.0°F-5.0°C 21.0°F-6.1°C 91% 1.1 mph 1.8 kmh 1.8 mph2.9 kmh 29.86 in1011.2 mb 0.00 in0.0 mm 0.00 in0.0 mm 0.01 in0.3 mm
05:31 PM 23.0°F-5.0°C 20.0°F-6.7°C 90% 1.5 mph 2.4 kmh 2.5 mph4.0 kmh 29.86 in1011.2 mb 0.00 in0.0 mm 0.00 in0.0 mm 0.01 in0.3 mm
05:30 PM 23.2°F-4.9°C 21.0°F-6.1°C 90% 1.3 mph 2.1 kmh 2.0 mph3.2 kmh 29.86 in1011.2 mb 0.00 in0.0 mm 0.00 in0.0 mm 0.01 in0.3 mm
05:28 PM 23.4°F-4.8°C 21.0°F-6.1°C 90% 2.3 mph 3.7 kmh 3.7 mph6.0 kmh 29.86 in1011.2 mb 0.00 in0.0 mm 0.00 in0.0 mm 0.01 in0.3 mm
05:27 PM 23.4°F-4.8°C 21.0°F-6.1°C 91% 3.0 mph 4.8 kmh 4.6 mph7.4 kmh 29.86 in1011.2 mb 0.00 in0.0 mm 0.00 in0.0 mm 0.01 in0.3 mm
05:26 PM 23.4°F-4.8°C 21.0°F-6.1°C 90% 2.8 mph 4.5 kmh 4.4 mph7.1 kmh 29.86 in1011.2 mb 0.00 in0.0 mm 0.00 in0.0 mm 0.01 in0.3 mm
05:25 PM 23.5°F-4.7°C 21.0°F-6.1°C 90% 2.9 mph 4.7 kmh 4.5 mph7.2 kmh 29.86 in1011.2 mb 0.00 in0.0 mm 0.00 in0.0 mm 0.01 in0.3 mm
05:24 PM 23.5°F-4.7°C 21.0°F-6.1°C 90% 2.7 mph 4.3 kmh 4.2 mph6.8 kmh 29.86 in1011.2 mb 0.00 in0.0 mm 0.00 in0.0 mm 0.01 in0.3 mm
05:23 PM 23.5°F-4.7°C 21.0°F-6.1°C 90% 3.4 mph 5.5 kmh 5.3 mph8.5 kmh 29.86 in1011.2 mb 0.00 in0.0 mm 0.00 in0.0 mm 0.01 in0.3 mm
05:22 PM 23.7°F-4.6°C 21.0°F-6.1°C 90% 3.4 mph 5.5 kmh 5.2 mph8.4 kmh 29.86 in1011.2 mb 0.00 in0.0 mm 0.00 in0.0 mm 0.01 in0.3 mm
05:21 PM 23.7°F-4.6°C 21.0°F-6.1°C 89% 2.9 mph 4.7 kmh 4.6 mph7.4 kmh 29.86 in1011.2 mb 0.00 in0.0 mm 0.00 in0.0 mm 0.01 in0.3 mm
05:20 PM 23.7°F-4.6°C 21.0°F-6.1°C 89% 2.0 mph 3.2 kmh 3.0 mph4.8 kmh 29.86 in1011.2 mb 0.00 in0.0 mm 0.00 in0.0 mm 0.01 in0.3 mm
05:19 PM 23.9°F-4.5°C 21.0°F-6.1°C 90% 2.0 mph 3.2 kmh 3.1 mph5.0 kmh 29.86 in1011.2 mb 0.00 in0.0 mm 0.00 in0.0 mm 0.01 in0.3 mm
05:18 PM 23.9°F-4.5°C 21.0°F-6.1°C 90% 1.9 mph N3.1 kmh N 2.9 mph4.7 kmh 29.86 in1011.2 mb 0.00 in0.0 mm 0.00 in0.0 mm 0.01 in0.3 mm
05:17 PM 23.9°F-4.5°C 21.0°F-6.1°C 90% 1.4 mph ESE2.3 kmh ESE 2.2 mph3.5 kmh 29.86 in1011.2 mb 0.00 in0.0 mm 0.00 in0.0 mm 0.01 in0.3 mm
05:16 PM 23.9°F-4.5°C 21.0°F-6.1°C 90% Calm Calm -- 29.86 in1011.2 mb 0.00 in0.0 mm 0.00 in0.0 mm 0.01 in0.3 mm
05:15 PM 23.7°F-4.6°C 21.0°F-6.1°C 90% Calm Calm -- 29.86 in1011.2 mb 0.00 in0.0 mm 0.00 in0.0 mm 0.01 in0.3 mm
05:14 PM 23.7°F-4.6°C 21.0°F-6.1°C 90% Calm Calm -- 29.86 in1011.2 mb 0.00 in0.0 mm 0.00 in0.0 mm 0.01 in0.3 mm
05:13 PM 23.7°F-4.6°C 21.0°F-6.1°C 90% Calm Calm -- 29.86 in1011.2 mb 0.00 in0.0 mm 0.00 in0.0 mm 0.01 in0.3 mm
05:12 PM 23.7°F-4.6°C 21.0°F-6.1°C 90% Calm Calm -- 29.86 in1011.2 mb 0.00 in0.0 mm 0.00 in0.0 mm 0.01 in0.3 mm
05:11 PM 23.7°F-4.6°C 21.0°F-6.1°C 90% Calm Calm -- 29.86 in1011.2 mb 0.00 in0.0 mm 0.00 in0.0 mm 0.01 in0.3 mm
05:10 PM 23.7°F-4.6°C 21.0°F-6.1°C 89% Calm Calm -- 29.86 in1011.2 mb 0.00 in0.0 mm 0.00 in0.0 mm 0.01 in0.3 mm
05:09 PM 23.7°F-4.6°C 21.0°F-6.1°C 89% Calm Calm -- 29.86 in1011.2 mb 0.00 in0.0 mm 0.00 in0.0 mm 0.01 in0.3 mm
05:08 PM 23.7°F-4.6°C 21.0°F-6.1°C 89% Calm Calm -- 29.87 in1011.5 mb 0.00 in0.0 mm 0.00 in0.0 mm 0.01 in0.3 mm
05:07 PM 23.7°F-4.6°C 21.0°F-6.1°C 88% 0.2 mph ENE0.3 kmh ENE 0.3 mph0.5 kmh 29.86 in1011.2 mb 0.00 in0.0 mm 0.00 in0.0 mm 0.01 in0.3 mm
05:06 PM 23.9°F-4.5°C 21.0°F-6.1°C 88% 0.8 mph N1.3 kmh N 1.3 mph2.1 kmh 29.87 in1011.5 mb 0.00 in0.0 mm 0.00 in0.0 mm 0.01 in0.3 mm
05:05 PM 23.9°F-4.5°C 21.0°F-6.1°C 89% 0.7 mph NNE1.1 kmh NNE 1.0 mph1.6 kmh 29.87 in1011.5 mb 0.00 in0.0 mm 0.00 in0.0 mm 0.01 in0.3 mm
05:04 PM 24.1°F-4.4°C 21.0°F-6.1°C 89% 1.2 mph N1.9 kmh N 2.0 mph3.2 kmh 29.86 in1011.2 mb 0.00 in0.0 mm 0.00 in0.0 mm 0.01 in0.3 mm
05:03 PM 24.1°F-4.4°C 21.0°F-6.1°C 88% 0.3 mph E0.5 kmh E 0.4 mph0.6 kmh 29.87 in1011.5 mb 0.00 in0.0 mm 0.00 in0.0 mm 0.01 in0.3 mm
05:02 PM 24.1°F-4.4°C 21.0°F-6.1°C 88% Calm Calm -- 29.87 in1011.5 mb 0.00 in0.0 mm 0.00 in0.0 mm 0.01 in0.3 mm
05:01 PM 24.3°F-4.3°C 21.0°F-6.1°C 88% 0.2 mph ENE0.3 kmh ENE 0.2 mph0.3 kmh 29.86 in1011.2 mb 0.00 in0.0 mm 0.00 in0.0 mm 0.01 in0.3 mm
05:00 PM 24.3°F-4.3°C 21.0°F-6.1°C 88% 1.0 mph E1.6 kmh E 1.5 mph2.4 kmh 29.86 in1011.2 mb 0.00 in0.0 mm 0.00 in0.0 mm 0.01 in0.3 mm
04:59 PM 24.3°F-4.3°C 21.0°F-6.1°C 88% 0.8 mph NE1.3 kmh NE 1.3 mph2.1 kmh 29.87 in1011.5 mb 0.00 in0.0 mm 0.00 in0.0 mm 0.01 in0.3 mm
04:58 PM 24.4°F-4.2°C 21.0°F-6.1°C 88% 0.7 mph E1.1 kmh E 0.9 mph1.4 kmh 29.87 in1011.5 mb 0.00 in0.0 mm 0.00 in0.0 mm 0.01 in0.3 mm
04:57 PM 24.4°F-4.2°C 21.0°F-6.1°C 88% 2.1 mph E3.4 kmh E 3.3 mph5.3 kmh 29.87 in1011.5 mb 0.00 in0.0 mm 0.00 in0.0 mm 0.01 in0.3 mm
04:56 PM 24.4°F-4.2°C 21.0°F-6.1°C 88% 2.6 mph ENE4.2 kmh ENE 4.0 mph6.4 kmh 29.87 in1011.5 mb 0.00 in0.0 mm 0.00 in0.0 mm 0.01 in0.3 mm
04:55 PM 24.6°F-4.1°C 21.0°F-6.1°C 87% 2.9 mph NNE4.7 kmh NNE 4.4 mph7.1 kmh 29.87 in1011.5 mb 0.00 in0.0 mm 0.00 in0.0 mm 0.01 in0.3 mm
04:54 PM 24.6°F-4.1°C 21.0°F-6.1°C 87% 3.4 mph ENE5.5 kmh ENE 5.1 mph8.2 kmh 29.87 in1011.5 mb 0.00 in0.0 mm 0.00 in0.0 mm 0.01 in0.3 mm
04:53 PM 24.8°F-4.0°C 22.0°F-5.6°C 87% 2.4 mph NNE3.9 kmh NNE 3.7 mph6.0 kmh 29.87 in1011.5 mb 0.00 in0.0 mm 0.00 in0.0 mm 0.01 in0.3 mm
04:52 PM 24.8°F-4.0°C 22.0°F-5.6°C 88% 3.0 mph NE4.8 kmh NE 4.6 mph7.4 kmh 29.87 in1011.5 mb 0.00 in0.0 mm 0.00 in0.0 mm 0.01 in0.3 mm
04:51 PM 24.8°F-4.0°C 22.0°F-5.6°C 88% 2.8 mph NNE4.5 kmh NNE 4.4 mph7.1 kmh 29.87 in1011.5 mb 0.00 in0.0 mm 0.00 in0.0 mm 0.01 in0.3 mm
04:50 PM 39.2°F4.0°C 36.0°F2.2°C 88% 1.7 mph NE2.7 kmh NE 2.8 mph4.5 kmh 29.87 in1011.5 mb 0.00 in0.0 mm 0.00 in0.0 mm 0.01 in0.3 mm
04:49 PM 24.8°F-4.0°C 22.0°F-5.6°C 87% 1.6 mph NE2.6 kmh NE 2.5 mph4.0 kmh 29.87 in1011.5 mb 0.00 in0.0 mm 0.00 in0.0 mm 0.01 in0.3 mm
04:48 PM 24.8°F-4.0°C 22.0°F-5.6°C 87% 0.7 mph ENE1.1 kmh ENE 1.1 mph1.8 kmh 29.87 in1011.5 mb 0.00 in0.0 mm 0.00 in0.0 mm 0.01 in0.3 mm
04:47 PM 24.8°F-4.0°C 21.0°F-6.1°C 87% 1.0 mph SE1.6 kmh SE 1.6 mph2.6 kmh 29.87 in1011.5 mb 0.00 in0.0 mm 0.00 in0.0 mm 0.01 in0.3 mm
04:46 PM 25.0°F-3.9°C 22.0°F-5.6°C 87% 1.2 mph ENE1.9 kmh ENE 1.8 mph2.9 kmh 29.87 in1011.5 mb 0.00 in0.0 mm 0.00 in0.0 mm 0.01 in0.3 mm
04:45 PM 25.0°F-3.9°C 22.0°F-5.6°C 87% 2.3 mph ENE3.7 kmh ENE 3.4 mph5.5 kmh 29.87 in1011.5 mb 0.00 in0.0 mm 0.00 in0.0 mm 0.01 in0.3 mm
04:44 PM 25.0°F-3.9°C 22.0°F-5.6°C 87% 2.8 mph NE4.5 kmh NE 4.3 mph6.9 kmh 29.87 in1011.5 mb 0.00 in0.0 mm 0.00 in0.0 mm 0.01 in0.3 mm
04:43 PM 25.2°F-3.8°C 22.0°F-5.6°C 86% 1.6 mph NNE2.6 kmh NNE 2.5 mph4.0 kmh 29.87 in1011.5 mb 0.00 in0.0 mm 0.00 in0.0 mm 0.01 in0.3 mm
04:42 PM 25.2°F-3.8°C 21.0°F-6.1°C 86% 1.9 mph NE3.1 kmh NE 2.9 mph4.7 kmh 29.87 in1011.5 mb 0.00 in0.0 mm 0.00 in0.0 mm 0.01 in0.3 mm
04:41 PM 25.2°F-3.8°C 22.0°F-5.6°C 86% 3.1 mph ENE5.0 kmh ENE 4.7 mph7.6 kmh 29.87 in1011.5 mb 0.00 in0.0 mm 0.00 in0.0 mm 0.01 in0.3 mm
04:40 PM 25.3°F-3.7°C 22.0°F-5.6°C 86% 3.0 mph N4.8 kmh N 4.6 mph7.4 kmh 29.87 in1011.5 mb 0.00 in0.0 mm 0.00 in0.0 mm 0.01 in0.3 mm
04:39 PM 25.2°F-3.8°C 22.0°F-5.6°C 86% 1.9 mph NNE3.1 kmh NNE 3.0 mph4.8 kmh 29.87 in1011.5 mb 0.00 in0.0 mm 0.00 in0.0 mm 0.01 in0.3 mm
04:38 PM 25.2°F-3.8°C 22.0°F-5.6°C 86% 1.6 mph NE2.6 kmh NE 2.5 mph4.0 kmh 29.87 in1011.5 mb 0.00 in0.0 mm 0.00 in0.0 mm 0.01 in0.3 mm
04:37 PM 25.3°F-3.7°C 22.0°F-5.6°C 86% 2.8 mph NE4.5 kmh NE 4.4 mph7.1 kmh 29.87 in1011.5 mb 0.00 in0.0 mm 0.00 in0.0 mm 0.01 in0.3 mm
04:36 PM 25.3°F-3.7°C 21.0°F-6.1°C 85% 2.7 mph NNE4.3 kmh NNE 4.3 mph6.9 kmh 29.87 in1011.5 mb 0.00 in0.0 mm 0.00 in0.0 mm 0.01 in0.3 mm
04:35 PM 25.3°F-3.7°C 21.0°F-6.1°C 85% 2.8 mph ENE4.5 kmh ENE 4.5 mph7.2 kmh 29.87 in1011.5 mb 0.00 in0.0 mm 0.00 in0.0 mm 0.01 in0.3 mm
04:34 PM 25.5°F-3.6°C 22.0°F-5.6°C 85% 2.2 mph ENE3.5 kmh ENE 3.4 mph5.5 kmh 29.87 in1011.5 mb 0.00 in0.0 mm 0.00 in0.0 mm 0.01 in0.3 mm
04:33 PM 25.5°F-3.6°C 22.0°F-5.6°C 85% 2.1 mph N3.4 kmh N 3.2 mph5.1 kmh 29.87 in1011.5 mb 0.00 in0.0 mm 0.00 in0.0 mm 0.01 in0.3 mm
04:32 PM 25.7°F-3.5°C 22.0°F-5.6°C 85% 2.6 mph ENE4.2 kmh ENE 4.1 mph6.6 kmh 29.87 in1011.5 mb 0.00 in0.0 mm 0.00 in0.0 mm 0.01 in0.3 mm
04:31 PM 25.7°F-3.5°C 22.0°F-5.6°C 85% 2.9 mph NE4.7 kmh NE 4.4 mph7.1 kmh 29.87 in1011.5 mb 0.00 in0.0 mm 0.00 in0.0 mm 0.01 in0.3 mm
04:30 PM 25.9°F-3.4°C 22.0°F-5.6°C 84% 3.1 mph NE5.0 kmh NE 4.8 mph7.7 kmh 29.87 in1011.5 mb 0.00 in0.0 mm 0.00 in0.0 mm 0.01 in0.3 mm
04:29 PM 25.9°F-3.4°C 22.0°F-5.6°C 84% 3.7 mph NNE6.0 kmh NNE 5.9 mph9.5 kmh 29.87 in1011.5 mb 0.00 in0.0 mm 0.00 in0.0 mm 0.01 in0.3 mm
04:28 PM 25.9°F-3.4°C 22.0°F-5.6°C 84% 4.3 mph NE6.9 kmh NE 6.7 mph10.8 kmh 29.87 in1011.5 mb 0.00 in0.0 mm 0.00 in0.0 mm 0.01 in0.3 mm
04:27 PM 26.1°F-3.3°C 22.0°F-5.6°C 84% 3.3 mph NE5.3 kmh NE 5.1 mph8.2 kmh 29.87 in1011.5 mb 0.00 in0.0 mm 0.00 in0.0 mm 0.01 in0.3 mm
04:26 PM 25.9°F-3.4°C 22.0°F-5.6°C 84% 4.1 mph ENE6.6 kmh ENE 6.5 mph10.5 kmh 29.87 in1011.5 mb 0.00 in0.0 mm 0.00 in0.0 mm 0.01 in0.3 mm
04:25 PM 26.1°F-3.3°C 22.0°F-5.6°C 84% 4.3 mph NE6.9 kmh NE 6.9 mph11.1 kmh 29.87 in1011.5 mb 0.00 in0.0 mm 0.00 in0.0 mm 0.01 in0.3 mm
04:24 PM 26.1°F-3.3°C 22.0°F-5.6°C 84% 4.5 mph E7.2 kmh E 6.9 mph11.1 kmh 29.87 in1011.5 mb 0.00 in0.0 mm 0.00 in0.0 mm 0.01 in0.3 mm
04:23 PM 26.2°F-3.2°C 22.0°F-5.6°C 83% 4.0 mph ENE6.4 kmh ENE 6.6 mph10.6 kmh 29.87 in1011.5 mb 0.00 in0.0 mm 0.00 in0.0 mm 0.01 in0.3 mm
04:22 PM 26.2°F-3.2°C 22.0°F-5.6°C 83% 3.2 mph NE5.1 kmh NE 5.0 mph8.0 kmh 29.87 in1011.5 mb 0.00 in0.0 mm 0.00 in0.0 mm 0.01 in0.3 mm
04:21 PM 26.2°F-3.2°C 22.0°F-5.6°C 83% 4.4 mph NE7.1 kmh NE 7.0 mph11.3 kmh 29.87 in1011.5 mb 0.00 in0.0 mm 0.00 in0.0 mm 0.01 in0.3 mm
04:20 PM 26.2°F-3.2°C 22.0°F-5.6°C 83% 3.5 mph NNE5.6 kmh NNE 5.4 mph8.7 kmh 29.87 in1011.5 mb 0.00 in0.0 mm 0.00 in0.0 mm 0.01 in0.3 mm
04:19 PM 26.4°F-3.1°C 22.0°F-5.6°C 83% 3.9 mph ENE6.3 kmh ENE 6.4 mph10.3 kmh 29.87 in1011.5 mb 0.00 in0.0 mm 0.00 in0.0 mm 0.01 in0.3 mm
04:18 PM 26.4°F-3.1°C 22.0°F-5.6°C 83% 2.8 mph E4.5 kmh E 4.6 mph7.4 kmh 29.87 in1011.5 mb 0.00 in0.0 mm 0.00 in0.0 mm 0.01 in0.3 mm
04:17 PM 26.4°F-3.1°C 22.0°F-5.6°C 83% 2.8 mph ENE4.5 kmh ENE 4.5 mph7.2 kmh 29.87 in1011.5 mb 0.00 in0.0 mm 0.00 in0.0 mm 0.01 in0.3 mm
04:16 PM 26.4°F-3.1°C 22.0°F-5.6°C 83% 2.6 mph E4.2 kmh E 4.2 mph6.8 kmh 29.88 in1011.9 mb 0.00 in0.0 mm 0.00 in0.0 mm 0.01 in0.3 mm
04:15 PM 26.6°F-3.0°C 22.0°F-5.6°C 83% 3.7 mph NNE6.0 kmh NNE 5.8 mph9.3 kmh 29.88 in1011.9 mb 0.00 in0.0 mm 0.00 in0.0 mm 0.01 in0.3 mm
04:14 PM 26.6°F-3.0°C 22.0°F-5.6°C 82% 3.5 mph ENE5.6 kmh ENE 5.6 mph9.0 kmh 29.87 in1011.5 mb 0.00 in0.0 mm 0.00 in0.0 mm 0.01 in0.3 mm
04:13 PM 26.6°F-3.0°C 22.0°F-5.6°C 82% 4.0 mph N6.4 kmh N 6.4 mph10.3 kmh 29.87 in1011.5 mb 0.00 in0.0 mm 0.00 in0.0 mm 0.01 in0.3 mm
04:12 PM 26.6°F-3.0°C 22.0°F-5.6°C 82% 2.7 mph NE4.3 kmh NE 4.3 mph6.9 kmh 29.88 in1011.9 mb 0.00 in0.0 mm 0.00 in0.0 mm 0.01 in0.3 mm
04:11 PM 26.6°F-3.0°C 22.0°F-5.6°C 82% 2.9 mph NE4.7 kmh NE 4.6 mph7.4 kmh 29.88 in1011.9 mb 0.00 in0.0 mm 0.00 in0.0 mm 0.01 in0.3 mm
04:10 PM 26.8°F-2.9°C 22.0°F-5.6°C 82% 2.1 mph NE3.4 kmh NE 3.4 mph5.5 kmh 29.88 in1011.9 mb 0.00 in0.0 mm 0.00 in0.0 mm 0.01 in0.3 mm
04:09 PM 26.8°F-2.9°C 22.0°F-5.6°C 82% 3.7 mph N6.0 kmh N 5.8 mph9.3 kmh 29.88 in1011.9 mb 0.00 in0.0 mm 0.00 in0.0 mm 0.01 in0.3 mm
04:08 PM 26.8°F-2.9°C 22.0°F-5.6°C 81% 3.0 mph ENE4.8 kmh ENE 4.8 mph7.7 kmh 29.88 in1011.9 mb 0.00 in0.0 mm 0.00 in0.0 mm 0.01 in0.3 mm
04:06 PM 27.0°F-2.8°C 22.0°F-5.6°C 81% 2.9 mph N4.7 kmh N 4.4 mph7.1 kmh 29.88 in1011.9 mb 0.00 in0.0 mm 0.00 in0.0 mm 0.01 in0.3 mm
04:05 PM 27.0°F-2.8°C 22.0°F-5.6°C 81% 3.7 mph NNE6.0 kmh NNE 5.8 mph9.3 kmh 29.88 in1011.9 mb 0.00 in0.0 mm 0.00 in0.0 mm 0.01 in0.3 mm
04:04 PM 27.0°F-2.8°C 22.0°F-5.6°C 81% 1.7 mph NE2.7 kmh NE 2.6 mph4.2 kmh 29.88 in1011.9 mb 0.00 in0.0 mm 0.00 in0.0 mm 0.01 in0.3 mm
04:03 PM 27.0°F-2.8°C 22.0°F-5.6°C 81% 0.9 mph 1.4 kmh 1.4 mph2.3 kmh 29.88 in1011.9 mb 0.00 in0.0 mm 0.00 in0.0 mm 0.01 in0.3 mm
04:02 PM 27.1°F-2.7°C 22.0°F-5.6°C 81% 1.0 mph 1.6 kmh 1.7 mph2.7 kmh 29.88 in1011.9 mb 0.00 in0.0 mm 0.00 in0.0 mm 0.01 in0.3 mm
04:01 PM 27.1°F-2.7°C 22.0°F-5.6°C 81% 2.4 mph NNE3.9 kmh NNE 3.7 mph6.0 kmh 29.88 in1011.9 mb 0.00 in0.0 mm 0.00 in0.0 mm 0.01 in0.3 mm
04:00 PM 27.1°F-2.7°C 22.0°F-5.6°C 81% 3.4 mph E5.5 kmh E 5.5 mph8.9 kmh 29.88 in1011.9 mb 0.00 in0.0 mm 0.00 in0.0 mm 0.01 in0.3 mm
03:59 PM 27.1°F-2.7°C 22.0°F-5.6°C 81% 3.6 mph SE5.8 kmh SE 5.8 mph9.3 kmh 29.88 in1011.9 mb 0.00 in0.0 mm 0.00 in0.0 mm 0.01 in0.3 mm
03:58 PM 27.3°F-2.6°C 22.0°F-5.6°C 81% 4.1 mph E6.6 kmh E 6.5 mph10.5 kmh 29.88 in1011.9 mb 0.00 in0.0 mm 0.00 in0.0 mm 0.01 in0.3 mm
03:57 PM 27.3°F-2.6°C 22.0°F-5.6°C 81% 2.5 mph NE4.0 kmh NE 4.0 mph6.4 kmh 29.88 in1011.9 mb 0.00 in0.0 mm 0.00 in0.0 mm 0.01 in0.3 mm
03:56 PM 27.3°F-2.6°C 22.0°F-5.6°C 81% 5.4 mph NE8.7 kmh NE 8.6 mph13.8 kmh 29.88 in1011.9 mb 0.00 in0.0 mm 0.00 in0.0 mm 0.01 in0.3 mm
03:55 PM 27.5°F-2.5°C 22.0°F-5.6°C 81% 3.9 mph NE6.3 kmh NE 6.4 mph10.3 kmh 29.88 in1011.9 mb 0.00 in0.0 mm 0.00 in0.0 mm 0.01 in0.3 mm
03:54 PM 27.5°F-2.5°C 22.0°F-5.6°C 81% 2.6 mph ENE4.2 kmh ENE 4.1 mph6.6 kmh 29.88 in1011.9 mb 0.00 in0.0 mm 0.00 in0.0 mm 0.01 in0.3 mm
03:53 PM 27.5°F-2.5°C 22.0°F-5.6°C 81% 3.4 mph 5.5 kmh 5.4 mph8.7 kmh 29.88 in1011.9 mb 0.00 in0.0 mm 0.00 in0.0 mm 0.01 in0.3 mm
03:52 PM 27.5°F-2.5°C 22.0°F-5.6°C 81% 4.8 mph NE7.7 kmh NE 7.6 mph12.2 kmh 29.88 in1011.9 mb 0.00 in0.0 mm 0.00 in0.0 mm 0.01 in0.3 mm
03:51 PM 27.7°F-2.4°C 23.0°F-5.0°C 81% 7.3 mph N11.7 kmh N 11.5 mph18.5 kmh 29.88 in1011.9 mb 0.00 in0.0 mm 0.00 in0.0 mm 0.01 in0.3 mm
03:50 PM 27.7°F-2.4°C 22.0°F-5.6°C 81% 7.1 mph ENE11.4 kmh ENE 11.5 mph18.5 kmh 29.88 in1011.9 mb 0.00 in0.0 mm 0.00 in0.0 mm 0.01 in0.3 mm
03:49 PM 27.7°F-2.4°C 22.0°F-5.6°C 81% 3.8 mph NNE6.1 kmh NNE 6.4 mph10.3 kmh 29.88 in1011.9 mb 0.00 in0.0 mm 0.00 in0.0 mm 0.01 in0.3 mm
03:48 PM 27.7°F-2.4°C 22.0°F-5.6°C 81% 3.5 mph N5.6 kmh N 5.5 mph8.9 kmh 29.88 in1011.9 mb 0.00 in0.0 mm 0.00 in0.0 mm 0.01 in0.3 mm
03:47 PM 27.7°F-2.4°C 22.0°F-5.6°C 80% 2.7 mph NNE4.3 kmh NNE 4.2 mph6.8 kmh 29.88 in1011.9 mb 0.00 in0.0 mm 0.00 in0.0 mm 0.01 in0.3 mm
03:46 PM 27.7°F-2.4°C 22.0°F-5.6°C 81% 3.8 mph N6.1 kmh N 6.2 mph10.0 kmh 29.88 in1011.9 mb 0.00 in0.0 mm 0.00 in0.0 mm 0.01 in0.3 mm
03:45 PM 27.7°F-2.4°C 22.0°F-5.6°C 81% 3.3 mph NNE5.3 kmh NNE 5.2 mph8.4 kmh 29.88 in1011.9 mb 0.00 in0.0 mm 0.00 in0.0 mm 0.01 in0.3 mm
03:44 PM 27.7°F-2.4°C 23.0°F-5.0°C 82% 4.5 mph 7.2 kmh 7.1 mph11.4 kmh 29.88 in1011.9 mb 0.00 in0.0 mm 0.00 in0.0 mm 0.01 in0.3 mm
03:43 PM 27.7°F-2.4°C 23.0°F-5.0°C 81% 2.1 mph 3.4 kmh 3.4 mph5.5 kmh 29.88 in1011.9 mb 0.00 in0.0 mm 0.00 in0.0 mm 0.01 in0.3 mm
03:42 PM 27.7°F-2.4°C 22.0°F-5.6°C 81% 2.5 mph NE4.0 kmh NE 4.1 mph6.6 kmh 29.89 in1012.2 mb 0.00 in0.0 mm 0.00 in0.0 mm 0.01 in0.3 mm
03:41 PM 27.7°F-2.4°C 23.0°F-5.0°C 81% 2.2 mph 3.5 kmh 3.4 mph5.5 kmh 29.89 in1012.2 mb 0.00 in0.0 mm 0.00 in0.0 mm 0.01 in0.3 mm
03:40 PM 27.7°F-2.4°C 23.0°F-5.0°C 81% 3.4 mph NNE5.5 kmh NNE 5.4 mph8.7 kmh 29.89 in1012.2 mb 0.00 in0.0 mm 0.00 in0.0 mm 0.01 in0.3 mm
03:39 PM 27.7°F-2.4°C 23.0°F-5.0°C 82% 5.6 mph ENE9.0 kmh ENE 8.7 mph14.0 kmh 29.89 in1012.2 mb 0.00 in0.0 mm 0.00 in0.0 mm 0.01 in0.3 mm
03:38 PM 27.5°F-2.5°C 22.0°F-5.6°C 81% 3.4 mph NE5.5 kmh NE 5.5 mph8.9 kmh 29.89 in1012.2 mb 0.00 in0.0 mm 0.00 in0.0 mm 0.01 in0.3 mm
03:37 PM 27.7°F-2.4°C 23.0°F-5.0°C 82% 3.9 mph NE6.3 kmh NE 6.3 mph10.1 kmh 29.89 in1012.2 mb 0.00 in0.0 mm 0.00 in0.0 mm 0.01 in0.3 mm
03:36 PM 27.7°F-2.4°C 23.0°F-5.0°C 82% 7.2 mph NE11.6 kmh NE 11.5 mph18.5 kmh 29.89 in1012.2 mb 0.00 in0.0 mm 0.00 in0.0 mm 0.01 in0.3 mm
03:35 PM 27.7°F-2.4°C 23.0°F-5.0°C 82% 2.5 mph N4.0 kmh N 4.2 mph6.8 kmh 29.89 in1012.2 mb 0.00 in0.0 mm 0.00 in0.0 mm 0.01 in0.3 mm
03:34 PM 27.5°F-2.5°C 23.0°F-5.0°C 82% 3.7 mph NE6.0 kmh NE 5.9 mph9.5 kmh 29.89 in1012.2 mb 0.00 in0.0 mm 0.00 in0.0 mm 0.01 in0.3 mm
03:33 PM 27.5°F-2.5°C 23.0°F-5.0°C 82% 4.1 mph NE6.6 kmh NE 6.3 mph10.1 kmh 29.89 in1012.2 mb 0.00 in0.0 mm 0.00 in0.0 mm 0.01 in0.3 mm
03:32 PM 27.5°F-2.5°C 23.0°F-5.0°C 82% 2.4 mph ESE3.9 kmh ESE 3.9 mph6.3 kmh 29.89 in1012.2 mb 0.00 in0.0 mm 0.00 in0.0 mm 0.01 in0.3 mm
03:31 PM 27.5°F-2.5°C 23.0°F-5.0°C 83% 0.1 mph ESE0.2 kmh ESE 0.2 mph0.3 kmh 29.89 in1012.2 mb 0.00 in0.0 mm 0.00 in0.0 mm 0.01 in0.3 mm
03:30 PM 27.5°F-2.5°C 23.0°F-5.0°C 83% 0.7 mph ENE1.1 kmh ENE 1.2 mph1.9 kmh 29.89 in1012.2 mb 0.00 in0.0 mm 0.00 in0.0 mm 0.01 in0.3 mm
03:29 PM 27.3°F-2.6°C 23.0°F-5.0°C 83% 1.0 mph SE1.6 kmh SE 1.4 mph2.3 kmh 29.89 in1012.2 mb 0.00 in0.0 mm 0.00 in0.0 mm 0.01 in0.3 mm
03:28 PM 27.3°F-2.6°C 22.0°F-5.6°C 82% 4.7 mph E7.6 kmh E 7.4 mph11.9 kmh 29.89 in1012.2 mb 0.00 in0.0 mm 0.00 in0.0 mm 0.01 in0.3 mm
03:27 PM 27.3°F-2.6°C 23.0°F-5.0°C 82% 3.7 mph SE6.0 kmh SE 5.8 mph9.3 kmh 29.89 in1012.2 mb 0.00 in0.0 mm 0.00 in0.0 mm 0.01 in0.3 mm
03:26 PM 27.5°F-2.5°C 23.0°F-5.0°C 83% 2.5 mph NE4.0 kmh NE 3.9 mph6.3 kmh 29.89 in1012.2 mb 0.00 in0.0 mm 0.00 in0.0 mm 0.01 in0.3 mm
03:25 PM 27.5°F-2.5°C 23.0°F-5.0°C 83% 2.9 mph ENE4.7 kmh ENE 4.6 mph7.4 kmh 29.89 in1012.2 mb 0.00 in0.0 mm 0.00 in0.0 mm 0.01 in0.3 mm
03:24 PM 27.5°F-2.5°C 23.0°F-5.0°C 83% 2.8 mph ESE4.5 kmh ESE 4.4 mph7.1 kmh 29.89 in1012.2 mb 0.00 in0.0 mm 0.00 in0.0 mm 0.01 in0.3 mm
03:23 PM 27.5°F-2.5°C 23.0°F-5.0°C 82% 2.2 mph SE3.5 kmh SE 3.5 mph5.6 kmh 29.90 in1012.5 mb 0.00 in0.0 mm 0.00 in0.0 mm 0.01 in0.3 mm
03:22 PM 27.5°F-2.5°C 23.0°F-5.0°C 83% 2.4 mph SE3.9 kmh SE 3.6 mph5.8 kmh 29.89 in1012.2 mb 0.00 in0.0 mm 0.00 in0.0 mm 0.01 in0.3 mm
03:21 PM 27.5°F-2.5°C 23.0°F-5.0°C 82% 3.6 mph E5.8 kmh E 5.6 mph9.0 kmh 29.90 in1012.5 mb 0.00 in0.0 mm 0.00 in0.0 mm 0.01 in0.3 mm
03:20 PM 27.5°F-2.5°C 23.0°F-5.0°C 83% 2.5 mph 4.0 kmh 4.0 mph6.4 kmh 29.90 in1012.5 mb 0.00 in0.0 mm 0.00 in0.0 mm 0.01 in0.3 mm
03:19 PM 27.5°F-2.5°C 23.0°F-5.0°C 83% 2.5 mph E4.0 kmh E 4.1 mph6.6 kmh 29.90 in1012.5 mb 0.00 in0.0 mm 0.00 in0.0 mm 0.01 in0.3 mm
03:18 PM 27.5°F-2.5°C 23.0°F-5.0°C 83% 3.1 mph SE5.0 kmh SE 4.9 mph7.9 kmh 29.90 in1012.5 mb 0.00 in0.0 mm 0.00 in0.0 mm 0.01 in0.3 mm
03:17 PM 27.3°F-2.6°C 23.0°F-5.0°C 83% 2.3 mph ESE3.7 kmh ESE 3.6 mph5.8 kmh 29.90 in1012.5 mb 0.00 in0.0 mm 0.00 in0.0 mm 0.01 in0.3 mm
03:16 PM 27.3°F-2.6°C 23.0°F-5.0°C 83% 2.0 mph ESE3.2 kmh ESE 3.1 mph5.0 kmh 29.90 in1012.5 mb 0.00 in0.0 mm 0.00 in0.0 mm 0.01 in0.3 mm
03:15 PM 27.3°F-2.6°C 23.0°F-5.0°C 83% 2.5 mph SE4.0 kmh SE 4.0 mph6.4 kmh 29.90 in1012.5 mb 0.00 in0.0 mm 0.00 in0.0 mm 0.01 in0.3 mm
03:14 PM 27.5°F-2.5°C 23.0°F-5.0°C 83% 1.7 mph SE2.7 kmh SE 2.7 mph4.3 kmh 29.90 in1012.5 mb 0.00 in0.0 mm 0.00 in0.0 mm 0.01 in0.3 mm
03:13 PM 27.5°F-2.5°C 23.0°F-5.0°C 83% 1.9 mph ESE3.1 kmh ESE 3.1 mph5.0 kmh 29.90 in1012.5 mb 0.00 in0.0 mm 0.00 in0.0 mm 0.01 in0.3 mm
03:12 PM 27.3°F-2.6°C 23.0°F-5.0°C 83% 2.9 mph SE4.7 kmh SE 4.6 mph7.4 kmh 29.90 in1012.5 mb 0.00 in0.0 mm 0.00 in0.0 mm 0.01 in0.3 mm
03:11 PM 27.5°F-2.5°C 23.0°F-5.0°C 83% 3.4 mph SE5.5 kmh SE 5.7 mph9.2 kmh 29.90 in1012.5 mb 0.00 in0.0 mm 0.00 in0.0 mm 0.01 in0.3 mm
03:10 PM 27.5°F-2.5°C 23.0°F-5.0°C 83% 2.6 mph SE4.2 kmh SE 4.3 mph6.9 kmh 29.90 in1012.5 mb 0.00 in0.0 mm 0.00 in0.0 mm 0.01 in0.3 mm
03:09 PM 27.5°F-2.5°C 23.0°F-5.0°C 83% 2.9 mph SE4.7 kmh SE 4.6 mph7.4 kmh 29.90 in1012.5 mb 0.00 in0.0 mm 0.00 in0.0 mm 0.01 in0.3 mm
03:08 PM 27.5°F-2.5°C 23.0°F-5.0°C 82% 3.8 mph SE6.1 kmh SE 6.2 mph10.0 kmh 29.90 in1012.5 mb 0.00 in0.0 mm 0.00 in0.0 mm 0.01 in0.3 mm
03:07 PM 27.5°F-2.5°C 23.0°F-5.0°C 82% 2.6 mph SE4.2 kmh SE 4.0 mph6.4 kmh 29.90 in1012.5 mb 0.00 in0.0 mm 0.00 in0.0 mm 0.01 in0.3 mm
03:06 PM 27.7°F-2.4°C 23.0°F-5.0°C 82% 3.7 mph SE6.0 kmh SE 6.1 mph9.8 kmh 29.90 in1012.5 mb 0.00 in0.0 mm 0.00 in0.0 mm 0.01 in0.3 mm
03:05 PM 27.5°F-2.5°C 23.0°F-5.0°C 82% 2.8 mph NE4.5 kmh NE 4.3 mph6.9 kmh 29.90 in1012.5 mb 0.00 in0.0 mm 0.00 in0.0 mm 0.01 in0.3 mm
03:04 PM 27.5°F-2.5°C 23.0°F-5.0°C 82% 3.6 mph ESE5.8 kmh ESE 5.7 mph9.2 kmh 29.90 in1012.5 mb 0.00 in0.0 mm 0.00 in0.0 mm 0.01 in0.3 mm
03:03 PM 27.5°F-2.5°C 23.0°F-5.0°C 83% 2.4 mph ESE3.9 kmh ESE 3.8 mph6.1 kmh 29.90 in1012.5 mb 0.00 in0.0 mm 0.00 in0.0 mm 0.01 in0.3 mm
03:02 PM 27.7°F-2.4°C 23.0°F-5.0°C 83% 2.9 mph SE4.7 kmh SE 4.6 mph7.4 kmh 29.90 in1012.5 mb 0.00 in0.0 mm 0.00 in0.0 mm 0.01 in0.3 mm
03:01 PM 27.5°F-2.5°C 23.0°F-5.0°C 83% 4.4 mph ESE7.1 kmh ESE 7.0 mph11.3 kmh 29.90 in1012.5 mb 0.00 in0.0 mm 0.00 in0.0 mm 0.01 in0.3 mm
03:00 PM 27.5°F-2.5°C 23.0°F-5.0°C 83% 3.6 mph E5.8 kmh E 6.0 mph9.7 kmh 29.90 in1012.5 mb 0.00 in0.0 mm 0.00 in0.0 mm 0.01 in0.3 mm
02:59 PM 27.5°F-2.5°C 23.0°F-5.0°C 82% 3.0 mph SE4.8 kmh SE 4.8 mph7.7 kmh 29.90 in1012.5 mb 0.00 in0.0 mm 0.00 in0.0 mm 0.01 in0.3 mm
02:58 PM 27.5°F-2.5°C 23.0°F-5.0°C 82% 3.8 mph E6.1 kmh E 6.1 mph9.8 kmh 29.91 in1012.9 mb 0.00 in0.0 mm 0.00 in0.0 mm 0.01 in0.3 mm
02:57 PM 27.5°F-2.5°C 23.0°F-5.0°C 83% 2.8 mph SE4.5 kmh SE 4.4 mph7.1 kmh 29.91 in1012.9 mb 0.00 in0.0 mm 0.00 in0.0 mm 0.01 in0.3 mm
02:56 PM 27.5°F-2.5°C 23.0°F-5.0°C 83% 3.5 mph SE5.6 kmh SE 5.9 mph9.5 kmh 29.91 in1012.9 mb 0.00 in0.0 mm 0.00 in0.0 mm 0.01 in0.3 mm
02:55 PM 27.5°F-2.5°C 23.0°F-5.0°C 83% 3.5 mph SE5.6 kmh SE 5.6 mph9.0 kmh 29.91 in1012.9 mb 0.00 in0.0 mm 0.00 in0.0 mm 0.01 in0.3 mm
02:54 PM 27.7°F-2.4°C 23.0°F-5.0°C 82% 2.9 mph SE4.7 kmh SE 4.7 mph7.6 kmh 29.91 in1012.9 mb 0.00 in0.0 mm 0.00 in0.0 mm 0.01 in0.3 mm
02:53 PM 27.7°F-2.4°C 23.0°F-5.0°C 82% 4.0 mph SE6.4 kmh SE 6.5 mph10.5 kmh 29.91 in1012.9 mb 0.00 in0.0 mm 0.00 in0.0 mm 0.01 in0.3 mm
02:52 PM 27.7°F-2.4°C 23.0°F-5.0°C 83% 3.4 mph SE5.5 kmh SE 5.4 mph8.7 kmh 29.91 in1012.9 mb 0.00 in0.0 mm 0.00 in0.0 mm 0.01 in0.3 mm
02:51 PM 27.7°F-2.4°C 23.0°F-5.0°C 83% 3.3 mph SE5.3 kmh SE 5.3 mph8.5 kmh 29.91 in1012.9 mb 0.00 in0.0 mm 0.00 in0.0 mm 0.01 in0.3 mm
02:50 PM 27.7°F-2.4°C 23.0°F-5.0°C 82% 3.9 mph SE6.3 kmh SE 6.6 mph10.6 kmh 29.91 in1012.9 mb 0.00 in0.0 mm 0.00 in0.0 mm 0.01 in0.3 mm
02:49 PM 27.7°F-2.4°C 23.0°F-5.0°C 82% 4.1 mph SE6.6 kmh SE 6.6 mph10.6 kmh 29.91 in1012.9 mb 0.00 in0.0 mm 0.00 in0.0 mm 0.01 in0.3 mm
02:48 PM 27.9°F-2.3°C 23.0°F-5.0°C 82% 3.4 mph SE5.5 kmh SE 5.5 mph8.9 kmh 29.91 in1012.9 mb 0.00 in0.0 mm 0.00 in0.0 mm 0.01 in0.3 mm
02:47 PM 27.9°F-2.3°C 23.0°F-5.0°C 83% 2.4 mph SE3.9 kmh SE 3.9 mph6.3 kmh 29.91 in1012.9 mb 0.00 in0.0 mm 0.00 in0.0 mm 0.01 in0.3 mm
02:46 PM 27.7°F-2.4°C 23.0°F-5.0°C 83% 2.3 mph NE3.7 kmh NE 3.7 mph6.0 kmh 29.91 in1012.9 mb 0.00 in0.0 mm 0.00 in0.0 mm 0.01 in0.3 mm
02:45 PM 27.7°F-2.4°C 23.0°F-5.0°C 83% 2.9 mph SE4.7 kmh SE 4.5 mph7.2 kmh 29.91 in1012.9 mb 0.00 in0.0 mm 0.00 in0.0 mm 0.01 in0.3 mm
02:44 PM 27.7°F-2.4°C 23.0°F-5.0°C 83% 2.8 mph ENE4.5 kmh ENE 4.6 mph7.4 kmh 29.91 in1012.9 mb 0.00 in0.0 mm 0.00 in0.0 mm 0.01 in0.3 mm
02:43 PM 27.7°F-2.4°C 23.0°F-5.0°C 83% 5.0 mph E8.0 kmh E 8.1 mph13.0 kmh 29.91 in1012.9 mb 0.00 in0.0 mm 0.00 in0.0 mm 0.01 in0.3 mm
02:42 PM 27.7°F-2.4°C 23.0°F-5.0°C 83% 5.7 mph SE9.2 kmh SE 9.0 mph14.5 kmh 29.91 in1012.9 mb 0.00 in0.0 mm 0.00 in0.0 mm 0.01 in0.3 mm
02:41 PM 27.5°F-2.5°C 23.0°F-5.0°C 83% 8.2 mph SE13.2 kmh SE 13.2 mph21.2 kmh 29.91 in1012.9 mb 0.00 in0.0 mm 0.00 in0.0 mm 0.01 in0.3 mm
02:40 PM 27.7°F-2.4°C 23.0°F-5.0°C 83% 4.0 mph SE6.4 kmh SE 6.7 mph10.8 kmh 29.91 in1012.9 mb 0.00 in0.0 mm 0.00 in0.0 mm 0.01 in0.3 mm
02:39 PM 27.5°F-2.5°C 23.0°F-5.0°C 83% 5.0 mph SE8.0 kmh SE 8.3 mph13.4 kmh 29.91 in1012.9 mb 0.00 in0.0 mm 0.00 in0.0 mm 0.01 in0.3 mm
02:38 PM 27.7°F-2.4°C 23.0°F-5.0°C 82% 4.8 mph SE7.7 kmh SE 7.8 mph12.6 kmh 29.91 in1012.9 mb 0.00 in0.0 mm 0.00 in0.0 mm 0.01 in0.3 mm
02:37 PM 27.9°F-2.3°C 23.0°F-5.0°C 82% 4.4 mph SE7.1 kmh SE 7.3 mph11.7 kmh 29.91 in1012.9 mb 0.00 in0.0 mm 0.00 in0.0 mm 0.01 in0.3 mm
02:36 PM 27.9°F-2.3°C 23.0°F-5.0°C 82% 3.8 mph SE6.1 kmh SE 6.0 mph9.7 kmh 29.91 in1012.9 mb 0.00 in0.0 mm 0.00 in0.0 mm 0.01 in0.3 mm
02:35 PM 27.9°F-2.3°C 23.0°F-5.0°C 82% 5.7 mph SE9.2 kmh SE 9.6 mph15.4 kmh 29.91 in1012.9 mb 0.00 in0.0 mm 0.00 in0.0 mm 0.01 in0.3 mm
02:34 PM 27.9°F-2.3°C 23.0°F-5.0°C 83% 2.6 mph SE4.2 kmh SE 4.3 mph6.9 kmh 29.91 in1012.9 mb 0.00 in0.0 mm 0.00 in0.0 mm 0.01 in0.3 mm
02:33 PM 27.9°F-2.3°C 23.0°F-5.0°C 82% 2.4 mph SE3.9 kmh SE 3.8 mph6.1 kmh 29.91 in1012.9 mb 0.00 in0.0 mm 0.00 in0.0 mm 0.01 in0.3 mm
02:32 PM 27.9°F-2.3°C 23.0°F-5.0°C 82% 2.4 mph SE3.9 kmh SE 3.8 mph6.1 kmh 29.91 in1012.9 mb 0.00 in0.0 mm 0.00 in0.0 mm 0.01 in0.3 mm
02:31 PM 28.0°F-2.2°C 24.0°F-4.4°C 83% 2.6 mph SE4.2 kmh SE 4.0 mph6.4 kmh 29.91 in1012.9 mb 0.00 in0.0 mm 0.00 in0.0 mm 0.01 in0.3 mm
02:30 PM 27.9°F-2.3°C 23.0°F-5.0°C 83% 3.6 mph ESE5.8 kmh ESE 5.7 mph9.2 kmh 29.91 in1012.9 mb 0.00 in0.0 mm 0.00 in0.0 mm 0.01 in0.3 mm
02:29 PM 27.9°F-2.3°C 23.0°F-5.0°C 83% 3.9 mph E6.3 kmh E 6.1 mph9.8 kmh 29.91 in1012.9 mb 0.00 in0.0 mm 0.00 in0.0 mm 0.01 in0.3 mm
02:28 PM 27.9°F-2.3°C 23.0°F-5.0°C 83% 5.4 mph E8.7 kmh E 8.6 mph13.8 kmh 29.91 in1012.9 mb 0.00 in0.0 mm 0.00 in0.0 mm 0.01 in0.3 mm
02:27 PM 27.9°F-2.3°C 23.0°F-5.0°C 83% 5.6 mph ESE9.0 kmh ESE 8.9 mph14.3 kmh 29.92 in1013.2 mb 0.00 in0.0 mm 0.00 in0.0 mm 0.01 in0.3 mm
02:26 PM 27.9°F-2.3°C 23.0°F-5.0°C 82% 4.1 mph SE6.6 kmh SE 6.9 mph11.1 kmh 29.91 in1012.9 mb 0.00 in0.0 mm 0.00 in0.0 mm 0.01 in0.3 mm
02:25 PM 27.7°F-2.4°C 23.0°F-5.0°C 83% 5.0 mph SE8.0 kmh SE 8.3 mph13.4 kmh 29.92 in1013.2 mb 0.00 in0.0 mm 0.00 in0.0 mm 0.01 in0.3 mm
02:24 PM 27.7°F-2.4°C 23.0°F-5.0°C 82% 3.8 mph SE6.1 kmh SE 6.2 mph10.0 kmh 29.92 in1013.2 mb 0.00 in0.0 mm 0.00 in0.0 mm 0.01 in0.3 mm
02:23 PM 27.9°F-2.3°C 23.0°F-5.0°C 82% 2.6 mph E4.2 kmh E 4.2 mph6.8 kmh 29.92 in1013.2 mb 0.00 in0.0 mm 0.00 in0.0 mm 0.01 in0.3 mm
02:22 PM 27.9°F-2.3°C 23.0°F-5.0°C 82% 5.9 mph SE9.5 kmh SE 9.3 mph15.0 kmh 29.92 in1013.2 mb 0.00 in0.0 mm 0.00 in0.0 mm 0.01 in0.3 mm
02:21 PM 27.9°F-2.3°C 23.0°F-5.0°C 82% 7.5 mph SE12.1 kmh SE 12.4 mph20.0 kmh 29.92 in1013.2 mb 0.00 in0.0 mm 0.00 in0.0 mm 0.01 in0.3 mm
02:20 PM 28.0°F-2.2°C 23.0°F-5.0°C 82% 5.7 mph SE9.2 kmh SE 9.2 mph14.8 kmh 29.92 in1013.2 mb 0.00 in0.0 mm 0.00 in0.0 mm 0.01 in0.3 mm
02:19 PM 28.2°F-2.1°C 24.0°F-4.4°C 82% 3.0 mph SE4.8 kmh SE 4.7 mph7.6 kmh 29.92 in1013.2 mb 0.00 in0.0 mm 0.00 in0.0 mm 0.01 in0.3 mm
02:18 PM 28.2°F-2.1°C 24.0°F-4.4°C 83% 3.7 mph SE6.0 kmh SE 6.4 mph10.3 kmh 29.92 in1013.2 mb 0.00 in0.0 mm 0.00 in0.0 mm 0.01 in0.3 mm
02:17 PM 28.2°F-2.1°C 23.0°F-5.0°C 82% 2.3 mph ESE3.7 kmh ESE 3.7 mph6.0 kmh 29.92 in1013.2 mb 0.00 in0.0 mm 0.00 in0.0 mm 0.01 in0.3 mm
02:16 PM 28.2°F-2.1°C 23.0°F-5.0°C 82% 2.4 mph ESE3.9 kmh ESE 3.7 mph6.0 kmh 29.92 in1013.2 mb 0.00 in0.0 mm 0.00 in0.0 mm 0.01 in0.3 mm
02:15 PM 28.2°F-2.1°C 24.0°F-4.4°C 82% 3.6 mph ENE5.8 kmh ENE 6.0 mph9.7 kmh 29.92 in1013.2 mb 0.00 in0.0 mm 0.00 in0.0 mm 0.01 in0.3 mm
02:14 PM 28.0°F-2.2°C 23.0°F-5.0°C 82% 4.0 mph NE6.4 kmh NE 6.7 mph10.8 kmh 29.92 in1013.2 mb 0.00 in0.0 mm 0.00 in0.0 mm 0.01 in0.3 mm
02:13 PM 28.0°F-2.2°C 23.0°F-5.0°C 82% 2.4 mph SE3.9 kmh SE 3.8 mph6.1 kmh 29.92 in1013.2 mb 0.00 in0.0 mm 0.00 in0.0 mm 0.01 in0.3 mm
02:12 PM 28.0°F-2.2°C 23.0°F-5.0°C 83% 3.2 mph SE5.1 kmh SE 5.2 mph8.4 kmh 29.92 in1013.2 mb 0.00 in0.0 mm 0.00 in0.0 mm 0.01 in0.3 mm
02:11 PM 27.9°F-2.3°C 23.0°F-5.0°C 83% 2.8 mph ENE4.5 kmh ENE 4.6 mph7.4 kmh 29.92 in1013.2 mb 0.00 in0.0 mm 0.00 in0.0 mm 0.01 in0.3 mm
02:10 PM 27.9°F-2.3°C 23.0°F-5.0°C 83% 4.9 mph SE7.9 kmh SE 8.0 mph12.9 kmh 29.92 in1013.2 mb 0.00 in0.0 mm 0.00 in0.0 mm 0.01 in0.3 mm
02:09 PM 28.0°F-2.2°C 23.0°F-5.0°C 83% 4.2 mph SE6.8 kmh SE 6.8 mph10.9 kmh 29.92 in1013.2 mb 0.00 in0.0 mm 0.00 in0.0 mm 0.01 in0.3 mm
02:08 PM 28.0°F-2.2°C 23.0°F-5.0°C 82% 3.8 mph SE6.1 kmh SE 6.1 mph9.8 kmh 29.92 in1013.2 mb 0.00 in0.0 mm 0.00 in0.0 mm 0.01 in0.3 mm
02:07 PM 28.0°F-2.2°C 23.0°F-5.0°C 82% 3.3 mph SE5.3 kmh SE 5.3 mph8.5 kmh 29.92 in1013.2 mb 0.00 in0.0 mm 0.00 in0.0 mm 0.01 in0.3 mm
02:06 PM 28.0°F-2.2°C 23.0°F-5.0°C 83% 2.7 mph SE4.3 kmh SE 4.3 mph6.9 kmh 29.92 in1013.2 mb 0.00 in0.0 mm 0.00 in0.0 mm 0.01 in0.3 mm
02:05 PM 28.0°F-2.2°C 23.0°F-5.0°C 82% 2.9 mph SE4.7 kmh SE 4.9 mph7.9 kmh 29.92 in1013.2 mb 0.00 in0.0 mm 0.00 in0.0 mm 0.01 in0.3 mm
02:04 PM 28.0°F-2.2°C 23.0°F-5.0°C 82% 3.4 mph SE5.5 kmh SE 5.4 mph8.7 kmh 29.92 in1013.2 mb 0.00 in0.0 mm 0.00 in0.0 mm 0.01 in0.3 mm
02:03 PM 28.0°F-2.2°C 23.0°F-5.0°C 82% 3.2 mph SE5.1 kmh SE 5.2 mph8.4 kmh 29.93 in1013.5 mb 0.00 in0.0 mm 0.00 in0.0 mm 0.01 in0.3 mm
02:02 PM 28.0°F-2.2°C 23.0°F-5.0°C 82% 4.2 mph ESE6.8 kmh ESE 7.0 mph11.3 kmh 29.92 in1013.2 mb 0.00 in0.0 mm 0.00 in0.0 mm 0.01 in0.3 mm
02:01 PM 28.0°F-2.2°C 23.0°F-5.0°C 83% 3.6 mph SE5.8 kmh SE 6.0 mph9.7 kmh 29.93 in1013.5 mb 0.00 in0.0 mm 0.00 in0.0 mm 0.01 in0.3 mm
02:00 PM 27.9°F-2.3°C 23.0°F-5.0°C 82% 2.8 mph SE4.5 kmh SE 4.5 mph7.2 kmh 29.93 in1013.5 mb 0.00 in0.0 mm 0.00 in0.0 mm 0.01 in0.3 mm
01:59 PM 28.0°F-2.2°C 23.0°F-5.0°C 82% 4.2 mph SE6.8 kmh SE 6.9 mph11.1 kmh 29.93 in1013.5 mb 0.00 in0.0 mm 0.00 in0.0 mm 0.01 in0.3 mm
01:58 PM 27.9°F-2.3°C 23.0°F-5.0°C 82% 4.3 mph ESE6.9 kmh ESE 6.8 mph10.9 kmh 29.93 in1013.5 mb 0.00 in0.0 mm 0.00 in0.0 mm 0.01 in0.3 mm
01:57 PM 27.9°F-2.3°C 23.0°F-5.0°C 83% 2.7 mph E4.3 kmh E 4.6 mph7.4 kmh 29.93 in1013.5 mb 0.00 in0.0 mm 0.00 in0.0 mm 0.01 in0.3 mm
01:56 PM 27.9°F-2.3°C 23.0°F-5.0°C 83% 4.2 mph E6.8 kmh E 6.8 mph10.9 kmh 29.93 in1013.5 mb 0.00 in0.0 mm 0.00 in0.0 mm 0.01 in0.3 mm
01:55 PM 27.7°F-2.4°C 23.0°F-5.0°C 83% 2.8 mph SE4.5 kmh SE 4.5 mph7.2 kmh 29.93 in1013.5 mb 0.00 in0.0 mm 0.00 in0.0 mm 0.01 in0.3 mm
01:54 PM 27.5°F-2.5°C 23.0°F-5.0°C 83% 3.8 mph SE6.1 kmh SE 6.1 mph9.8 kmh 29.93 in1013.5 mb 0.00 in0.0 mm 0.00 in0.0 mm 0.01 in0.3 mm
01:53 PM 27.5°F-2.5°C 23.0°F-5.0°C 83% 3.4 mph SE5.5 kmh SE 5.6 mph9.0 kmh 29.93 in1013.5 mb 0.00 in0.0 mm 0.00 in0.0 mm 0.01 in0.3 mm
01:52 PM 27.7°F-2.4°C 23.0°F-5.0°C 82% 4.4 mph SE7.1 kmh SE 7.1 mph11.4 kmh 29.93 in1013.5 mb 0.00 in0.0 mm 0.00 in0.0 mm 0.01 in0.3 mm
01:51 PM 27.9°F-2.3°C 23.0°F-5.0°C 82% 4.7 mph SE7.6 kmh SE 7.8 mph12.6 kmh 29.93 in1013.5 mb 0.00 in0.0 mm 0.00 in0.0 mm 0.01 in0.3 mm
01:50 PM 27.9°F-2.3°C 23.0°F-5.0°C 83% 3.6 mph SE5.8 kmh SE 5.9 mph9.5 kmh 29.93 in1013.5 mb 0.00 in0.0 mm 0.00 in0.0 mm 0.01 in0.3 mm
01:49 PM 27.7°F-2.4°C 23.0°F-5.0°C 83% 3.1 mph SE5.0 kmh SE 5.2 mph8.4 kmh 29.93 in1013.5 mb 0.00 in0.0 mm 0.00 in0.0 mm 0.01 in0.3 mm
01:48 PM 27.7°F-2.4°C 23.0°F-5.0°C 83% 5.5 mph ESE8.9 kmh ESE 8.8 mph14.2 kmh 29.93 in1013.5 mb 0.00 in0.0 mm 0.00 in0.0 mm 0.01 in0.3 mm
01:47 PM 27.7°F-2.4°C 23.0°F-5.0°C 83% 4.9 mph SE7.9 kmh SE 7.9 mph12.7 kmh 29.93 in1013.5 mb 0.00 in0.0 mm 0.00 in0.0 mm 0.01 in0.3 mm
01:46 PM 27.7°F-2.4°C 23.0°F-5.0°C 83% 3.8 mph SE6.1 kmh SE 6.5 mph10.5 kmh 29.93 in1013.5 mb 0.00 in0.0 mm 0.00 in0.0 mm 0.01 in0.3 mm
01:45 PM 27.7°F-2.4°C 23.0°F-5.0°C 83% 2.3 mph E3.7 kmh E 3.9 mph6.3 kmh 29.93 in1013.5 mb 0.00 in0.0 mm 0.00 in0.0 mm 0.01 in0.3 mm
01:44 PM 27.7°F-2.4°C 23.0°F-5.0°C 82% 2.1 mph NE3.4 kmh NE 3.3 mph5.3 kmh 29.93 in1013.5 mb 0.00 in0.0 mm 0.00 in0.0 mm 0.01 in0.3 mm
01:43 PM 27.7°F-2.4°C 23.0°F-5.0°C 83% 4.2 mph E6.8 kmh E 6.9 mph11.1 kmh 29.93 in1013.5 mb 0.00 in0.0 mm 0.00 in0.0 mm 0.01 in0.3 mm
01:42 PM 27.5°F-2.5°C 23.0°F-5.0°C 83% 5.4 mph SE8.7 kmh SE 8.8 mph14.2 kmh 29.93 in1013.5 mb 0.00 in0.0 mm 0.00 in0.0 mm 0.01 in0.3 mm
01:40 PM 27.7°F-2.4°C 23.0°F-5.0°C 82% 4.7 mph ESE7.6 kmh ESE 7.5 mph12.1 kmh 29.94 in1013.9 mb 0.00 in0.0 mm 0.00 in0.0 mm 0.01 in0.3 mm
01:39 PM 27.7°F-2.4°C 23.0°F-5.0°C 82% 5.5 mph E8.9 kmh E 9.6 mph15.4 kmh 29.93 in1013.5 mb 0.00 in0.0 mm 0.00 in0.0 mm 0.01 in0.3 mm
01:38 PM 27.7°F-2.4°C 23.0°F-5.0°C 82% 3.6 mph E5.8 kmh E 6.0 mph9.7 kmh 29.93 in1013.5 mb 0.00 in0.0 mm 0.00 in0.0 mm 0.01 in0.3 mm
01:37 PM 27.9°F-2.3°C 23.0°F-5.0°C 82% 2.2 mph E3.5 kmh E 3.4 mph5.5 kmh 29.93 in1013.5 mb 0.00 in0.0 mm 0.00 in0.0 mm 0.01 in0.3 mm
01:36 PM 27.7°F-2.4°C 23.0°F-5.0°C 82% 5.1 mph SE8.2 kmh SE 8.5 mph13.7 kmh 29.93 in1013.5 mb 0.00 in0.0 mm 0.00 in0.0 mm 0.01 in0.3 mm
01:35 PM 27.7°F-2.4°C 23.0°F-5.0°C 82% 8.5 mph E13.7 kmh E 14.0 mph22.5 kmh 29.93 in1013.5 mb 0.00 in0.0 mm 0.00 in0.0 mm 0.01 in0.3 mm
01:34 PM 27.7°F-2.4°C 23.0°F-5.0°C 82% 6.7 mph ENE10.8 kmh ENE 10.8 mph17.4 kmh 29.94 in1013.9 mb 0.00 in0.0 mm 0.00 in0.0 mm 0.01 in0.3 mm
01:33 PM 27.7°F-2.4°C 23.0°F-5.0°C 82% 8.0 mph E12.9 kmh E 13.8 mph22.2 kmh 29.94 in1013.9 mb 0.00 in0.0 mm 0.00 in0.0 mm 0.01 in0.3 mm
01:32 PM 27.7°F-2.4°C 23.0°F-5.0°C 83% 6.3 mph ESE10.1 kmh ESE 10.4 mph16.7 kmh 29.94 in1013.9 mb 0.00 in0.0 mm 0.00 in0.0 mm 0.01 in0.3 mm
01:31 PM 27.7°F-2.4°C 23.0°F-5.0°C 82% 5.1 mph ENE8.2 kmh ENE 8.5 mph13.7 kmh 29.94 in1013.9 mb 0.00 in0.0 mm 0.00 in0.0 mm 0.01 in0.3 mm
01:30 PM 27.9°F-2.3°C 23.0°F-5.0°C 82% 7.0 mph SE11.3 kmh SE 11.2 mph18.0 kmh 29.94 in1013.9 mb 0.00 in0.0 mm 0.00 in0.0 mm 0.01 in0.3 mm
01:29 PM 27.9°F-2.3°C 23.0°F-5.0°C 82% 6.1 mph SE9.8 kmh SE 10.1 mph16.3 kmh 29.94 in1013.9 mb 0.00 in0.0 mm 0.00 in0.0 mm 0.01 in0.3 mm
01:28 PM 27.9°F-2.3°C 23.0°F-5.0°C 83% 5.7 mph SE9.2 kmh SE 9.8 mph15.8 kmh 29.94 in1013.9 mb 0.00 in0.0 mm 0.00 in0.0 mm 0.01 in0.3 mm
01:27 PM 27.9°F-2.3°C 23.0°F-5.0°C 82% 5.9 mph E9.5 kmh E 10.4 mph16.7 kmh 29.94 in1013.9 mb 0.00 in0.0 mm 0.00 in0.0 mm 0.01 in0.3 mm
01:26 PM 27.7°F-2.4°C 23.0°F-5.0°C 82% 4.2 mph ESE6.8 kmh ESE 6.6 mph10.6 kmh 29.94 in1013.9 mb 0.00 in0.0 mm 0.00 in0.0 mm 0.01 in0.3 mm
01:25 PM 27.9°F-2.3°C 23.0°F-5.0°C 82% 4.1 mph SE6.6 kmh SE 6.8 mph10.9 kmh 29.94 in1013.9 mb 0.00 in0.0 mm 0.00 in0.0 mm 0.01 in0.3 mm
01:24 PM 27.7°F-2.4°C 23.0°F-5.0°C 82% 5.7 mph N9.2 kmh N 9.1 mph14.6 kmh 29.94 in1013.9 mb 0.00 in0.0 mm 0.00 in0.0 mm 0.01 in0.3 mm
01:23 PM 27.7°F-2.4°C 23.0°F-5.0°C 83% 8.6 mph E13.8 kmh E 13.7 mph22.0 kmh 29.94 in1013.9 mb 0.00 in0.0 mm 0.00 in0.0 mm 0.01 in0.3 mm
01:22 PM 27.7°F-2.4°C 23.0°F-5.0°C 83% 7.3 mph ESE11.7 kmh ESE 11.9 mph19.2 kmh 29.94 in1013.9 mb 0.00 in0.0 mm 0.00 in0.0 mm 0.01 in0.3 mm
01:21 PM 27.3°F-2.6°C 23.0°F-5.0°C 83% 5.0 mph ENE8.0 kmh ENE 7.8 mph12.6 kmh 29.94 in1013.9 mb 0.00 in0.0 mm 0.00 in0.0 mm 0.01 in0.3 mm
01:20 PM 27.3°F-2.6°C 23.0°F-5.0°C 83% 7.9 mph SE12.7 kmh SE 13.2 mph21.2 kmh 29.94 in1013.9 mb 0.00 in0.0 mm 0.00 in0.0 mm 0.01 in0.3 mm
01:19 PM 27.5°F-2.5°C 23.0°F-5.0°C 83% 6.7 mph SE10.8 kmh SE 11.1 mph17.9 kmh 29.94 in1013.9 mb 0.00 in0.0 mm 0.00 in0.0 mm 0.01 in0.3 mm
01:18 PM 27.5°F-2.5°C 23.0°F-5.0°C 83% 5.1 mph ESE8.2 kmh ESE 8.5 mph13.7 kmh 29.94 in1013.9 mb 0.00 in0.0 mm 0.00 in0.0 mm 0.01 in0.3 mm
01:17 PM 27.5°F-2.5°C 23.0°F-5.0°C 83% 6.3 mph SE10.1 kmh SE 10.3 mph16.6 kmh 29.94 in1013.9 mb 0.00 in0.0 mm 0.00 in0.0 mm 0.01 in0.3 mm
01:16 PM 27.5°F-2.5°C 23.0°F-5.0°C 83% 8.0 mph SE12.9 kmh SE 13.3 mph21.4 kmh 29.94 in1013.9 mb 0.00 in0.0 mm 0.00 in0.0 mm 0.01 in0.3 mm
01:15 PM 27.5°F-2.5°C 23.0°F-5.0°C 83% 3.7 mph E6.0 kmh E 5.9 mph9.5 kmh 29.94 in1013.9 mb 0.00 in0.0 mm 0.00 in0.0 mm 0.01 in0.3 mm
01:14 PM 27.5°F-2.5°C 23.0°F-5.0°C 83% 7.4 mph SE11.9 kmh SE 12.3 mph19.8 kmh 29.94 in1013.9 mb 0.00 in0.0 mm 0.00 in0.0 mm 0.01 in0.3 mm
01:12 PM 27.9°F-2.3°C 23.0°F-5.0°C 82% 5.9 mph E9.5 kmh E 9.5 mph15.3 kmh 29.94 in1013.9 mb 0.00 in0.0 mm 0.00 in0.0 mm 0.01 in0.3 mm
01:11 PM 27.9°F-2.3°C 23.0°F-5.0°C 82% 5.6 mph ENE9.0 kmh ENE 9.4 mph15.1 kmh 29.95 in1014.2 mb 0.00 in0.0 mm 0.00 in0.0 mm 0.01 in0.3 mm
01:10 PM 27.9°F-2.3°C 23.0°F-5.0°C 83% 6.6 mph SE10.6 kmh SE 10.2 mph16.4 kmh 29.95 in1014.2 mb 0.00 in0.0 mm 0.00 in0.0 mm 0.01 in0.3 mm
01:09 PM 27.7°F-2.4°C 23.0°F-5.0°C 82% 9.1 mph SE14.6 kmh SE 15.1 mph24.3 kmh 29.95 in1014.2 mb 0.00 in0.0 mm 0.00 in0.0 mm 0.01 in0.3 mm
01:08 PM 27.5°F-2.5°C 23.0°F-5.0°C 83% 7.7 mph ENE12.4 kmh ENE 13.0 mph20.9 kmh 29.95 in1014.2 mb 0.00 in0.0 mm 0.00 in0.0 mm 0.01 in0.3 mm
01:07 PM 27.5°F-2.5°C 23.0°F-5.0°C 83% 8.5 mph N13.7 kmh N 13.6 mph21.9 kmh 29.95 in1014.2 mb 0.00 in0.0 mm 0.00 in0.0 mm 0.01 in0.3 mm
01:06 PM 27.5°F-2.5°C 23.0°F-5.0°C 82% 9.1 mph NNE14.6 kmh NNE 14.7 mph23.7 kmh 29.95 in1014.2 mb 0.00 in0.0 mm 0.00 in0.0 mm 0.01 in0.3 mm
01:05 PM 27.5°F-2.5°C 23.0°F-5.0°C 83% 8.7 mph E14.0 kmh E 14.7 mph23.7 kmh 29.95 in1014.2 mb 0.00 in0.0 mm 0.00 in0.0 mm 0.01 in0.3 mm
01:04 PM 27.5°F-2.5°C 23.0°F-5.0°C 83% 6.4 mph NE10.3 kmh NE 10.6 mph17.1 kmh 29.95 in1014.2 mb 0.00 in0.0 mm 0.00 in0.0 mm 0.01 in0.3 mm
01:03 PM 27.5°F-2.5°C 23.0°F-5.0°C 83% 6.1 mph ENE9.8 kmh ENE 9.5 mph15.3 kmh 29.95 in1014.2 mb 0.00 in0.0 mm 0.00 in0.0 mm 0.01 in0.3 mm
01:02 PM 27.5°F-2.5°C 23.0°F-5.0°C 82% 7.0 mph SE11.3 kmh SE 11.3 mph18.2 kmh 29.95 in1014.2 mb 0.00 in0.0 mm 0.00 in0.0 mm 0.01 in0.3 mm
01:01 PM 27.5°F-2.5°C 23.0°F-5.0°C 83% 6.9 mph SE11.1 kmh SE 11.7 mph18.8 kmh 29.95 in1014.2 mb 0.00 in0.0 mm 0.00 in0.0 mm 0.01 in0.3 mm
01:00 PM 27.5°F-2.5°C 23.0°F-5.0°C 84% 4.0 mph E6.4 kmh E 6.6 mph10.6 kmh 29.95 in1014.2 mb 0.00 in0.0 mm 0.00 in0.0 mm 0.01 in0.3 mm
12:59 PM 27.5°F-2.5°C 23.0°F-5.0°C 83% 3.6 mph ESE5.8 kmh ESE 5.9 mph9.5 kmh 29.95 in1014.2 mb 0.00 in0.0 mm 0.00 in0.0 mm 0.01 in0.3 mm
12:58 PM 27.5°F-2.5°C 23.0°F-5.0°C 83% 6.8 mph ESE10.9 kmh ESE 11.1 mph17.9 kmh 29.95 in1014.2 mb 0.00 in0.0 mm 0.00 in0.0 mm 0.01 in0.3 mm
12:57 PM 27.5°F-2.5°C 23.0°F-5.0°C 84% 7.4 mph ENE11.9 kmh ENE 12.2 mph19.6 kmh 29.95 in1014.2 mb 0.00 in0.0 mm 0.00 in0.0 mm 0.01 in0.3 mm
12:56 PM 27.3°F-2.6°C 23.0°F-5.0°C 84% 6.5 mph SE10.5 kmh SE 11.3 mph18.2 kmh 29.95 in1014.2 mb 0.00 in0.0 mm 0.00 in0.0 mm 0.01 in0.3 mm
12:55 PM 27.3°F-2.6°C 23.0°F-5.0°C 83% 6.2 mph ESE10.0 kmh ESE 10.4 mph16.7 kmh 29.96 in1014.6 mb 0.00 in0.0 mm 0.00 in0.0 mm 0.01 in0.3 mm
12:54 PM 27.1°F-2.7°C 23.0°F-5.0°C 83% 7.6 mph E12.2 kmh E 12.5 mph20.1 kmh 29.95 in1014.2 mb 0.00 in0.0 mm 0.00 in0.0 mm 0.01 in0.3 mm
12:53 PM 27.1°F-2.7°C 23.0°F-5.0°C 84% 7.4 mph E11.9 kmh E 12.3 mph19.8 kmh 29.96 in1014.6 mb 0.00 in0.0 mm 0.00 in0.0 mm 0.01 in0.3 mm
12:52 PM 27.1°F-2.7°C 23.0°F-5.0°C 84% 7.5 mph NE12.1 kmh NE 12.8 mph20.6 kmh 29.96 in1014.6 mb 0.00 in0.0 mm 0.00 in0.0 mm 0.01 in0.3 mm
12:51 PM 27.0°F-2.8°C 23.0°F-5.0°C 84% 5.5 mph E8.9 kmh E 8.8 mph14.2 kmh 29.96 in1014.6 mb 0.00 in0.0 mm 0.00 in0.0 mm 0.01 in0.3 mm
12:50 PM 27.1°F-2.7°C 23.0°F-5.0°C 83% 3.9 mph ESE6.3 kmh ESE 6.6 mph10.6 kmh 29.96 in1014.6 mb 0.00 in0.0 mm 0.00 in0.0 mm 0.01 in0.3 mm
12:49 PM 27.1°F-2.7°C 23.0°F-5.0°C 84% 4.7 mph ENE7.6 kmh ENE 7.8 mph12.6 kmh 29.96 in1014.6 mb 0.00 in0.0 mm 0.00 in0.0 mm 0.01 in0.3 mm
12:48 PM 27.1°F-2.7°C 23.0°F-5.0°C 84% 5.9 mph E9.5 kmh E 9.7 mph15.6 kmh 29.96 in1014.6 mb 0.00 in0.0 mm 0.00 in0.0 mm 0.01 in0.3 mm
12:47 PM 27.0°F-2.8°C 23.0°F-5.0°C 84% 5.4 mph SE8.7 kmh SE 8.8 mph14.2 kmh 29.96 in1014.6 mb 0.00 in0.0 mm 0.00 in0.0 mm 0.01 in0.3 mm
12:46 PM 26.8°F-2.9°C 23.0°F-5.0°C 84% 4.0 mph ENE6.4 kmh ENE 6.4 mph10.3 kmh 29.96 in1014.6 mb 0.00 in0.0 mm 0.00 in0.0 mm 0.01 in0.3 mm
12:45 PM 27.0°F-2.8°C 23.0°F-5.0°C 85% 6.7 mph E10.8 kmh E 11.1 mph17.9 kmh 29.96 in1014.6 mb 0.00 in0.0 mm 0.00 in0.0 mm 0.01 in0.3 mm
12:44 PM 26.8°F-2.9°C 23.0°F-5.0°C 84% 6.9 mph SE11.1 kmh SE 11.9 mph19.2 kmh 29.96 in1014.6 mb 0.00 in0.0 mm 0.00 in0.0 mm 0.01 in0.3 mm
12:43 PM 26.8°F-2.9°C 23.0°F-5.0°C 85% 6.2 mph ESE10.0 kmh ESE 10.6 mph17.1 kmh 29.96 in1014.6 mb 0.00 in0.0 mm 0.00 in0.0 mm 0.01 in0.3 mm
12:42 PM 27.0°F-2.8°C 23.0°F-5.0°C 85% 4.6 mph ESE7.4 kmh ESE 7.4 mph11.9 kmh 29.96 in1014.6 mb 0.00 in0.0 mm 0.00 in0.0 mm 0.01 in0.3 mm
12:41 PM 26.8°F-2.9°C 23.0°F-5.0°C 85% 3.2 mph ENE5.1 kmh ENE 5.1 mph8.2 kmh 29.96 in1014.6 mb 0.00 in0.0 mm 0.00 in0.0 mm 0.01 in0.3 mm
12:40 PM 26.6°F-3.0°C 23.0°F-5.0°C 85% 5.7 mph SE9.2 kmh SE 9.8 mph15.8 kmh 29.96 in1014.6 mb 0.00 in0.0 mm 0.00 in0.0 mm 0.01 in0.3 mm
12:39 PM 26.6°F-3.0°C 23.0°F-5.0°C 85% 2.9 mph SE4.7 kmh SE 4.6 mph7.4 kmh 29.96 in1014.6 mb 0.00 in0.0 mm 0.00 in0.0 mm 0.01 in0.3 mm
12:38 PM 26.4°F-3.1°C 22.0°F-5.6°C 85% 5.2 mph SE8.4 kmh SE 8.5 mph13.7 kmh 29.97 in1014.9 mb 0.00 in0.0 mm 0.00 in0.0 mm 0.01 in0.3 mm
12:37 PM 26.6°F-3.0°C 23.0°F-5.0°C 85% 5.7 mph SE9.2 kmh SE 9.2 mph14.8 kmh 29.97 in1014.9 mb 0.00 in0.0 mm 0.00 in0.0 mm 0.01 in0.3 mm
12:36 PM 26.6°F-3.0°C 23.0°F-5.0°C 85% 7.4 mph SE11.9 kmh SE 12.4 mph20.0 kmh 29.97 in1014.9 mb 0.00 in0.0 mm 0.00 in0.0 mm 0.01 in0.3 mm
12:35 PM 26.6°F-3.0°C 23.0°F-5.0°C 86% 4.4 mph SE7.1 kmh SE 7.2 mph11.6 kmh 29.97 in1014.9 mb 0.00 in0.0 mm 0.00 in0.0 mm 0.01 in0.3 mm
12:33 PM 26.4°F-3.1°C 23.0°F-5.0°C 86% 5.8 mph NNE9.3 kmh NNE 11.3 mph18.2 kmh 29.97 in1014.9 mb 0.00 in0.0 mm 0.00 in0.0 mm 0.01 in0.3 mm
12:32 PM 26.4°F-3.1°C 23.0°F-5.0°C 86% 5.8 mph SE9.3 kmh SE 9.8 mph15.8 kmh 29.97 in1014.9 mb 0.00 in0.0 mm 0.00 in0.0 mm 0.01 in0.3 mm
12:31 PM 26.4°F-3.1°C 23.0°F-5.0°C 86% 8.0 mph E12.9 kmh E 13.7 mph22.0 kmh 29.97 in1014.9 mb 0.00 in0.0 mm 0.00 in0.0 mm 0.01 in0.3 mm
12:30 PM 26.4°F-3.1°C 23.0°F-5.0°C 86% 10.5 mph SE16.9 kmh SE 17.9 mph28.8 kmh 29.97 in1014.9 mb 0.00 in0.0 mm 0.00 in0.0 mm 0.01 in0.3 mm
12:29 PM 26.4°F-3.1°C 23.0°F-5.0°C 86% 9.0 mph ENE14.5 kmh ENE 15.5 mph24.9 kmh 29.97 in1014.9 mb 0.00 in0.0 mm 0.00 in0.0 mm 0.01 in0.3 mm
12:28 PM 26.4°F-3.1°C 23.0°F-5.0°C 86% 7.6 mph ENE12.2 kmh ENE 12.9 mph20.8 kmh 29.97 in1014.9 mb 0.00 in0.0 mm 0.00 in0.0 mm 0.01 in0.3 mm
12:27 PM 26.6°F-3.0°C 23.0°F-5.0°C 86% 8.6 mph ESE13.8 kmh ESE 14.2 mph22.9 kmh 29.97 in1014.9 mb 0.00 in0.0 mm 0.00 in0.0 mm 0.01 in0.3 mm
12:26 PM 26.6°F-3.0°C 23.0°F-5.0°C 86% 10.0 mph ENE16.1 kmh ENE 16.5 mph26.6 kmh 29.97 in1014.9 mb 0.00 in0.0 mm 0.00 in0.0 mm 0.01 in0.3 mm
12:25 PM 26.4°F-3.1°C 23.0°F-5.0°C 87% 8.6 mph ESE13.8 kmh ESE 14.5 mph23.3 kmh 29.97 in1014.9 mb 0.00 in0.0 mm 0.00 in0.0 mm 0.01 in0.3 mm
12:24 PM 26.2°F-3.2°C 23.0°F-5.0°C 87% 7.9 mph ESE12.7 kmh ESE 12.9 mph20.8 kmh 29.97 in1014.9 mb 0.00 in0.0 mm 0.00 in0.0 mm 0.01 in0.3 mm
12:23 PM 26.2°F-3.2°C 23.0°F-5.0°C 87% 8.5 mph E13.7 kmh E 14.2 mph22.9 kmh 29.97 in1014.9 mb 0.00 in0.0 mm 0.00 in0.0 mm 0.01 in0.3 mm
12:22 PM 26.2°F-3.2°C 23.0°F-5.0°C 87% 8.3 mph E13.4 kmh E 14.0 mph22.5 kmh 29.97 in1014.9 mb 0.00 in0.0 mm 0.00 in0.0 mm 0.01 in0.3 mm
12:19 PM 26.2°F-3.2°C 23.0°F-5.0°C 87% 10.3 mph E16.6 kmh E 16.9 mph27.2 kmh 29.97 in1014.9 mb 0.00 in0.0 mm 0.00 in0.0 mm 0.01 in0.3 mm
12:18 PM 26.2°F-3.2°C 23.0°F-5.0°C 87% 7.4 mph ENE11.9 kmh ENE 12.1 mph19.5 kmh 29.98 in1015.2 mb 0.00 in0.0 mm 0.00 in0.0 mm 0.01 in0.3 mm
12:17 PM 26.2°F-3.2°C 23.0°F-5.0°C 87% 10.9 mph ENE17.5 kmh ENE 17.8 mph28.6 kmh 29.98 in1015.2 mb 0.00 in0.0 mm 0.00 in0.0 mm 0.01 in0.3 mm
12:16 PM 26.2°F-3.2°C 23.0°F-5.0°C 88% 6.8 mph NNE10.9 kmh NNE 10.9 mph17.5 kmh 29.98 in1015.2 mb 0.00 in0.0 mm 0.00 in0.0 mm 0.01 in0.3 mm
12:15 PM 26.2°F-3.2°C 23.0°F-5.0°C 88% 8.4 mph E13.5 kmh E 13.8 mph22.2 kmh 29.98 in1015.2 mb 0.00 in0.0 mm 0.00 in0.0 mm 0.01 in0.3 mm
12:14 PM 26.1°F-3.3°C 23.0°F-5.0°C 88% 7.9 mph E12.7 kmh E 13.3 mph21.4 kmh 29.98 in1015.2 mb 0.00 in0.0 mm 0.00 in0.0 mm 0.01 in0.3 mm
12:13 PM 26.2°F-3.2°C 23.0°F-5.0°C 88% 7.2 mph E11.6 kmh E 11.7 mph18.8 kmh 29.98 in1015.2 mb 0.00 in0.0 mm 0.00 in0.0 mm 0.01 in0.3 mm
12:12 PM 26.2°F-3.2°C 23.0°F-5.0°C 88% 5.6 mph NE9.0 kmh NE 8.9 mph14.3 kmh 29.98 in1015.2 mb 0.00 in0.0 mm 0.00 in0.0 mm 0.01 in0.3 mm
12:11 PM 26.1°F-3.3°C 23.0°F-5.0°C 88% 9.2 mph E14.8 kmh E 14.4 mph23.2 kmh 29.98 in1015.2 mb 0.00 in0.0 mm 0.00 in0.0 mm 0.01 in0.3 mm
12:10 PM 26.1°F-3.3°C 23.0°F-5.0°C 88% 10.2 mph E16.4 kmh E 16.7 mph26.9 kmh 29.98 in1015.2 mb 0.00 in0.0 mm 0.00 in0.0 mm 0.01 in0.3 mm
12:09 PM 26.1°F-3.3°C 23.0°F-5.0°C 89% 7.6 mph E12.2 kmh E 12.7 mph20.4 kmh 29.98 in1015.2 mb 0.00 in0.0 mm 0.00 in0.0 mm 0.01 in0.3 mm
12:08 PM 26.2°F-3.2°C 23.0°F-5.0°C 89% 9.9 mph E15.9 kmh E 16.4 mph26.4 kmh 29.98 in1015.2 mb 0.00 in0.0 mm 0.00 in0.0 mm 0.01 in0.3 mm
12:07 PM 26.2°F-3.2°C 23.0°F-5.0°C 89% 8.4 mph NE13.5 kmh NE 14.1 mph22.7 kmh 29.98 in1015.2 mb 0.00 in0.0 mm 0.00 in0.0 mm 0.01 in0.3 mm
12:06 PM 26.1°F-3.3°C 23.0°F-5.0°C 89% 7.3 mph SE11.7 kmh SE 11.7 mph18.8 kmh 29.98 in1015.2 mb 0.00 in0.0 mm 0.00 in0.0 mm 0.01 in0.3 mm
12:05 PM 26.1°F-3.3°C 23.0°F-5.0°C 89% 9.4 mph ESE15.1 kmh ESE 14.8 mph23.8 kmh 29.98 in1015.2 mb 0.00 in0.0 mm 0.00 in0.0 mm 0.01 in0.3 mm
12:04 PM 25.9°F-3.4°C 23.0°F-5.0°C 90% 10.7 mph E17.2 kmh E 17.7 mph28.5 kmh 29.98 in1015.2 mb 0.00 in0.0 mm 0.00 in0.0 mm 0.01 in0.3 mm
12:03 PM 25.9°F-3.4°C 23.0°F-5.0°C 89% 7.0 mph NE11.3 kmh NE 11.7 mph18.8 kmh 29.98 in1015.2 mb 0.00 in0.0 mm 0.00 in0.0 mm 0.01 in0.3 mm
12:02 PM 25.7°F-3.5°C 23.0°F-5.0°C 89% 8.6 mph ENE13.8 kmh ENE 14.2 mph22.9 kmh 29.98 in1015.2 mb 0.00 in0.0 mm 0.00 in0.0 mm 0.01 in0.3 mm
12:01 PM 25.7°F-3.5°C 23.0°F-5.0°C 90% 6.9 mph ENE11.1 kmh ENE 11.6 mph18.7 kmh 29.98 in1015.2 mb 0.00 in0.0 mm 0.00 in0.0 mm 0.01 in0.3 mm
12:00 PM 25.5°F-3.6°C 23.0°F-5.0°C 89% 8.5 mph NE13.7 kmh NE 13.9 mph22.4 kmh 29.98 in1015.2 mb 0.00 in0.0 mm 0.00 in0.0 mm 0.01 in0.3 mm
11:59 AM 25.7°F-3.5°C 23.0°F-5.0°C 89% 8.9 mph E14.3 kmh E 14.8 mph23.8 kmh 29.98 in1015.2 mb 0.00 in0.0 mm 0.00 in0.0 mm 0.01 in0.3 mm
11:58 AM 25.5°F-3.6°C 23.0°F-5.0°C 90% 6.1 mph ENE9.8 kmh ENE 9.9 mph15.9 kmh 29.98 in1015.2 mb 0.00 in0.0 mm 0.00 in0.0 mm 0.01 in0.3 mm
11:57 AM 25.5°F-3.6°C 23.0°F-5.0°C 90% 7.8 mph ESE12.6 kmh ESE 12.6 mph20.3 kmh 29.98 in1015.2 mb 0.00 in0.0 mm 0.00 in0.0 mm 0.01 in0.3 mm
11:56 AM 25.5°F-3.6°C 23.0°F-5.0°C 90% 10.0 mph E16.1 kmh E 16.3 mph26.2 kmh 29.98 in1015.2 mb 0.00 in0.0 mm 0.00 in0.0 mm 0.01 in0.3 mm
11:55 AM 25.5°F-3.6°C 23.0°F-5.0°C 90% 8.2 mph ESE13.2 kmh ESE 13.6 mph21.9 kmh 29.98 in1015.2 mb 0.00 in0.0 mm 0.00 in0.0 mm 0.01 in0.3 mm
11:54 AM 25.5°F-3.6°C 23.0°F-5.0°C 90% 8.4 mph ESE13.5 kmh ESE 13.5 mph21.7 kmh 29.99 in1015.6 mb 0.00 in0.0 mm 0.00 in0.0 mm 0.01 in0.3 mm
11:53 AM 25.5°F-3.6°C 23.0°F-5.0°C 90% 6.6 mph E10.6 kmh E 11.1 mph17.9 kmh 29.98 in1015.2 mb 0.00 in0.0 mm 0.00 in0.0 mm 0.01 in0.3 mm
11:52 AM 25.3°F-3.7°C 23.0°F-5.0°C 90% 5.7 mph SE9.2 kmh SE 9.6 mph15.4 kmh 29.99 in1015.6 mb 0.00 in0.0 mm 0.00 in0.0 mm 0.01 in0.3 mm
11:51 AM 25.3°F-3.7°C 23.0°F-5.0°C 90% 4.5 mph E7.2 kmh E 7.4 mph11.9 kmh 29.99 in1015.6 mb 0.00 in0.0 mm 0.00 in0.0 mm 0.01 in0.3 mm
11:50 AM 25.5°F-3.6°C 23.0°F-5.0°C 90% 3.8 mph SE6.1 kmh SE 6.2 mph10.0 kmh 29.99 in1015.6 mb 0.00 in0.0 mm 0.00 in0.0 mm 0.01 in0.3 mm
11:49 AM 25.3°F-3.7°C 23.0°F-5.0°C 90% 4.7 mph SE7.6 kmh SE 7.8 mph12.6 kmh 29.99 in1015.6 mb 0.00 in0.0 mm 0.00 in0.0 mm 0.01 in0.3 mm
11:48 AM 25.3°F-3.7°C 23.0°F-5.0°C 90% 4.4 mph E7.1 kmh E 7.0 mph11.3 kmh 29.99 in1015.6 mb 0.00 in0.0 mm 0.00 in0.0 mm 0.01 in0.3 mm
11:47 AM 25.3°F-3.7°C 23.0°F-5.0°C 90% 6.8 mph SE10.9 kmh SE 11.2 mph18.0 kmh 29.99 in1015.6 mb 0.00 in0.0 mm 0.00 in0.0 mm 0.01 in0.3 mm
11:46 AM 25.3°F-3.7°C 23.0°F-5.0°C 90% 4.9 mph E7.9 kmh E 7.7 mph12.4 kmh 29.99 in1015.6 mb 0.00 in0.0 mm 0.00 in0.0 mm 0.01 in0.3 mm
11:45 AM 25.3°F-3.7°C 23.0°F-5.0°C 91% 5.9 mph ESE9.5 kmh ESE 9.6 mph15.4 kmh 29.99 in1015.6 mb 0.00 in0.0 mm 0.00 in0.0 mm 0.01 in0.3 mm
11:44 AM 25.2°F-3.8°C 23.0°F-5.0°C 90% 4.4 mph E7.1 kmh E 7.2 mph11.6 kmh 29.99 in1015.6 mb 0.00 in0.0 mm 0.00 in0.0 mm 0.01 in0.3 mm
11:43 AM 25.2°F-3.8°C 23.0°F-5.0°C 90% 3.0 mph ESE4.8 kmh ESE 5.0 mph8.0 kmh 29.99 in1015.6 mb 0.00 in0.0 mm 0.00 in0.0 mm 0.01 in0.3 mm
11:42 AM 25.2°F-3.8°C 23.0°F-5.0°C 90% 4.4 mph SE7.1 kmh SE 7.2 mph11.6 kmh 29.99 in1015.6 mb 0.00 in0.0 mm 0.00 in0.0 mm 0.01 in0.3 mm
11:41 AM 25.2°F-3.8°C 23.0°F-5.0°C 90% 4.9 mph ESE7.9 kmh ESE 8.1 mph13.0 kmh 29.99 in1015.6 mb 0.00 in0.0 mm 0.00 in0.0 mm 0.01 in0.3 mm
11:40 AM 25.2°F-3.8°C 23.0°F-5.0°C 91% 5.0 mph SE8.0 kmh SE 8.3 mph13.4 kmh 29.99 in1015.6 mb 0.00 in0.0 mm 0.00 in0.0 mm 0.01 in0.3 mm
11:39 AM 25.2°F-3.8°C 23.0°F-5.0°C 91% 4.4 mph ENE7.1 kmh ENE 7.2 mph11.6 kmh 29.99 in1015.6 mb 0.00 in0.0 mm 0.00 in0.0 mm 0.01 in0.3 mm
11:38 AM 25.2°F-3.8°C 23.0°F-5.0°C 90% 1.4 mph SE2.3 kmh SE 2.2 mph3.5 kmh 30.00 in1015.9 mb 0.00 in0.0 mm 0.00 in0.0 mm 0.01 in0.3 mm
11:37 AM 25.2°F-3.8°C 23.0°F-5.0°C 90% 3.1 mph ESE5.0 kmh ESE 5.0 mph8.0 kmh 30.00 in1015.9 mb 0.00 in0.0 mm 0.00 in0.0 mm 0.01 in0.3 mm
11:36 AM 25.2°F-3.8°C 23.0°F-5.0°C 91% 3.4 mph ENE5.5 kmh ENE 5.5 mph8.9 kmh 30.00 in1015.9 mb 0.00 in0.0 mm 0.00 in0.0 mm 0.01 in0.3 mm
11:35 AM 25.0°F-3.9°C 22.0°F-5.6°C 90% 3.6 mph SE5.8 kmh SE 5.9 mph9.5 kmh 30.00 in1015.9 mb 0.00 in0.0 mm 0.00 in0.0 mm 0.01 in0.3 mm
11:34 AM 25.2°F-3.8°C 23.0°F-5.0°C 91% 4.1 mph E6.6 kmh E 6.6 mph10.6 kmh 30.00 in1015.9 mb 0.00 in0.0 mm 0.00 in0.0 mm 0.01 in0.3 mm
11:33 AM 25.2°F-3.8°C 23.0°F-5.0°C 91% 4.1 mph E6.6 kmh E 6.7 mph10.8 kmh 30.00 in1015.9 mb 0.00 in0.0 mm 0.00 in0.0 mm 0.01 in0.3 mm
11:32 AM 25.2°F-3.8°C 23.0°F-5.0°C 91% 4.5 mph ENE7.2 kmh ENE 7.2 mph11.6 kmh 30.00 in1015.9 mb 0.00 in0.0 mm 0.00 in0.0 mm 0.01 in0.3 mm
11:31 AM 25.2°F-3.8°C 23.0°F-5.0°C 91% 4.7 mph NNE7.6 kmh NNE 7.5 mph12.1 kmh 30.00 in1015.9 mb 0.00 in0.0 mm 0.00 in0.0 mm 0.01 in0.3 mm
11:30 AM 25.0°F-3.9°C 23.0°F-5.0°C 91% 4.7 mph E7.6 kmh E 7.8 mph12.6 kmh 30.00 in1015.9 mb 0.00 in0.0 mm 0.00 in0.0 mm 0.01 in0.3 mm
11:29 AM 25.0°F-3.9°C 23.0°F-5.0°C 91% 2.4 mph SE3.9 kmh SE 3.9 mph6.3 kmh 30.00 in1015.9 mb 0.00 in0.0 mm 0.00 in0.0 mm 0.01 in0.3 mm
11:28 AM 25.0°F-3.9°C 23.0°F-5.0°C 91% 1.4 mph SE2.3 kmh SE 2.3 mph3.7 kmh 30.00 in1015.9 mb 0.00 in0.0 mm 0.00 in0.0 mm 0.01 in0.3 mm
11:27 AM 25.0°F-3.9°C 23.0°F-5.0°C 91% 2.5 mph SE4.0 kmh SE 4.0 mph6.4 kmh 30.00 in1015.9 mb 0.00 in0.0 mm 0.00 in0.0 mm 0.01 in0.3 mm
11:26 AM 25.0°F-3.9°C 22.0°F-5.6°C 90% 4.3 mph SE6.9 kmh SE 6.7 mph10.8 kmh 30.00 in1015.9 mb 0.00 in0.0 mm 0.00 in0.0 mm 0.01 in0.3 mm
11:25 AM 25.0°F-3.9°C 23.0°F-5.0°C 91% 3.5 mph SE5.6 kmh SE 5.6 mph9.0 kmh 30.00 in1015.9 mb 0.00 in0.0 mm 0.00 in0.0 mm 0.01 in0.3 mm
11:24 AM 25.0°F-3.9°C 22.0°F-5.6°C 90% 2.8 mph SE4.5 kmh SE 4.4 mph7.1 kmh 30.00 in1015.9 mb 0.00 in0.0 mm 0.00 in0.0 mm 0.01 in0.3 mm
11:23 AM 25.0°F-3.9°C 22.0°F-5.6°C 90% 3.1 mph SE5.0 kmh SE 5.1 mph8.2 kmh 30.00 in1015.9 mb 0.00 in0.0 mm 0.00 in0.0 mm 0.01 in0.3 mm
11:22 AM 25.0°F-3.9°C 22.0°F-5.6°C 90% 2.7 mph SE4.3 kmh SE 4.5 mph7.2 kmh 30.00 in1015.9 mb 0.00 in0.0 mm 0.00 in0.0 mm 0.01 in0.3 mm
11:21 AM 25.0°F-3.9°C 23.0°F-5.0°C 91% 2.3 mph SE3.7 kmh SE 3.5 mph5.6 kmh 30.01 in1016.3 mb 0.00 in0.0 mm 0.00 in0.0 mm 0.01 in0.3 mm
11:20 AM 25.0°F-3.9°C 23.0°F-5.0°C 91% 5.2 mph E8.4 kmh E 8.4 mph13.5 kmh 30.01 in1016.3 mb 0.00 in0.0 mm 0.00 in0.0 mm 0.01 in0.3 mm
11:19 AM 24.8°F-4.0°C 22.0°F-5.6°C 90% 3.5 mph E5.6 kmh E 5.7 mph9.2 kmh 30.01 in1016.3 mb 0.00 in0.0 mm 0.00 in0.0 mm 0.01 in0.3 mm
11:18 AM 24.8°F-4.0°C 22.0°F-5.6°C 90% 4.8 mph SE7.7 kmh SE 7.6 mph12.2 kmh 30.00 in1015.9 mb 0.00 in0.0 mm 0.00 in0.0 mm 0.01 in0.3 mm
11:17 AM 24.8°F-4.0°C 22.0°F-5.6°C 90% 5.1 mph SE8.2 kmh SE 8.3 mph13.4 kmh 30.00 in1015.9 mb 0.00 in0.0 mm 0.00 in0.0 mm 0.01 in0.3 mm
11:16 AM 24.8°F-4.0°C 22.0°F-5.6°C 91% 4.0 mph SE6.4 kmh SE 6.6 mph10.6 kmh 30.01 in1016.3 mb 0.00 in0.0 mm 0.00 in0.0 mm 0.01 in0.3 mm
11:15 AM 24.8°F-4.0°C 22.0°F-5.6°C 90% 3.3 mph SE5.3 kmh SE 5.3 mph8.5 kmh 30.01 in1016.3 mb 0.00 in0.0 mm 0.00 in0.0 mm 0.01 in0.3 mm
11:14 AM 24.8°F-4.0°C 22.0°F-5.6°C 91% 4.1 mph ESE6.6 kmh ESE 6.6 mph10.6 kmh 30.01 in1016.3 mb 0.00 in0.0 mm 0.00 in0.0 mm 0.01 in0.3 mm
11:13 AM 24.8°F-4.0°C 22.0°F-5.6°C 91% 3.1 mph E5.0 kmh E 5.4 mph8.7 kmh 30.01 in1016.3 mb 0.00 in0.0 mm 0.00 in0.0 mm 0.01 in0.3 mm
11:12 AM 24.6°F-4.1°C 22.0°F-5.6°C 90% 2.7 mph ESE4.3 kmh ESE 4.3 mph6.9 kmh 30.01 in1016.3 mb 0.00 in0.0 mm 0.00 in0.0 mm 0.01 in0.3 mm
11:11 AM 24.6°F-4.1°C 22.0°F-5.6°C 90% 3.5 mph SE5.6 kmh SE 5.7 mph9.2 kmh 30.01 in1016.3 mb 0.00 in0.0 mm 0.00 in0.0 mm 0.01 in0.3 mm
11:10 AM 24.6°F-4.1°C 22.0°F-5.6°C 90% 3.0 mph SE4.8 kmh SE 4.7 mph7.6 kmh 30.01 in1016.3 mb 0.00 in0.0 mm 0.00 in0.0 mm 0.01 in0.3 mm
11:09 AM 24.6°F-4.1°C 22.0°F-5.6°C 90% 3.2 mph SE5.1 kmh SE 5.1 mph8.2 kmh 30.01 in1016.3 mb 0.00 in0.0 mm 0.00 in0.0 mm 0.01 in0.3 mm
11:08 AM 24.6°F-4.1°C 22.0°F-5.6°C 90% 4.2 mph SE6.8 kmh SE 7.0 mph11.3 kmh 30.01 in1016.3 mb 0.00 in0.0 mm 0.00 in0.0 mm 0.01 in0.3 mm
11:07 AM 24.6°F-4.1°C 22.0°F-5.6°C 90% 4.2 mph SE6.8 kmh SE 6.7 mph10.8 kmh 30.01 in1016.3 mb 0.00 in0.0 mm 0.00 in0.0 mm 0.01 in0.3 mm
11:06 AM 24.8°F-4.0°C 22.0°F-5.6°C 90% 4.3 mph SE6.9 kmh SE 7.5 mph12.1 kmh 30.01 in1016.3 mb 0.00 in0.0 mm 0.00 in0.0 mm 0.01 in0.3 mm
11:05 AM 24.8°F-4.0°C 22.0°F-5.6°C 91% 3.6 mph SE5.8 kmh SE 5.6 mph9.0 kmh 30.01 in1016.3 mb 0.00 in0.0 mm 0.00 in0.0 mm 0.01 in0.3 mm
11:04 AM 24.8°F-4.0°C 22.0°F-5.6°C 90% 3.9 mph SE6.3 kmh SE 6.0 mph9.7 kmh 30.01 in1016.3 mb 0.00 in0.0 mm 0.00 in0.0 mm 0.01 in0.3 mm
11:03 AM 24.8°F-4.0°C 22.0°F-5.6°C 91% 2.8 mph SE4.5 kmh SE 4.5 mph7.2 kmh 30.01 in1016.3 mb 0.00 in0.0 mm 0.00 in0.0 mm 0.01 in0.3 mm
11:02 AM 24.8°F-4.0°C 22.0°F-5.6°C 90% 4.6 mph SE7.4 kmh SE 7.6 mph12.2 kmh 30.01 in1016.3 mb 0.00 in0.0 mm 0.00 in0.0 mm 0.01 in0.3 mm
11:01 AM 25.0°F-3.9°C 23.0°F-5.0°C 91% 2.7 mph NE4.3 kmh NE 4.3 mph6.9 kmh 30.01 in1016.3 mb 0.00 in0.0 mm 0.00 in0.0 mm 0.01 in0.3 mm
11:00 AM 25.0°F-3.9°C 23.0°F-5.0°C 91% 3.1 mph NE5.0 kmh NE 5.0 mph8.0 kmh 30.01 in1016.3 mb 0.00 in0.0 mm 0.00 in0.0 mm 0.01 in0.3 mm
10:59 AM 24.8°F-4.0°C 23.0°F-5.0°C 91% 3.1 mph NE5.0 kmh NE 5.0 mph8.0 kmh 30.01 in1016.3 mb 0.00 in0.0 mm 0.00 in0.0 mm 0.01 in0.3 mm
10:58 AM 24.8°F-4.0°C 23.0°F-5.0°C 91% 5.3 mph ENE8.5 kmh ENE 8.6 mph13.8 kmh 30.01 in1016.3 mb 0.00 in0.0 mm 0.00 in0.0 mm 0.01 in0.3 mm
10:57 AM 24.8°F-4.0°C 23.0°F-5.0°C 92% 4.7 mph E7.6 kmh E 7.5 mph12.1 kmh 30.01 in1016.3 mb 0.00 in0.0 mm 0.00 in0.0 mm 0.01 in0.3 mm
10:56 AM 24.6°F-4.1°C 22.0°F-5.6°C 91% 2.3 mph SE3.7 kmh SE 3.6 mph5.8 kmh 30.01 in1016.3 mb 0.00 in0.0 mm 0.00 in0.0 mm 0.01 in0.3 mm
10:55 AM 24.6°F-4.1°C 23.0°F-5.0°C 92% 3.1 mph E5.0 kmh E 4.9 mph7.9 kmh 30.01 in1016.3 mb 0.00 in0.0 mm 0.00 in0.0 mm 0.01 in0.3 mm
10:54 AM 24.6°F-4.1°C 22.0°F-5.6°C 92% 4.9 mph NE7.9 kmh NE 8.1 mph13.0 kmh 30.01 in1016.3 mb 0.00 in0.0 mm 0.00 in0.0 mm 0.01 in0.3 mm
10:53 AM 24.4°F-4.2°C 22.0°F-5.6°C 91% 2.9 mph ESE4.7 kmh ESE 4.7 mph7.6 kmh 30.02 in1016.6 mb 0.00 in0.0 mm 0.00 in0.0 mm 0.01 in0.3 mm
10:52 AM 24.4°F-4.2°C 22.0°F-5.6°C 91% 3.6 mph E5.8 kmh E 5.6 mph9.0 kmh 30.02 in1016.6 mb 0.00 in0.0 mm 0.00 in0.0 mm 0.01 in0.3 mm
10:51 AM 24.4°F-4.2°C 22.0°F-5.6°C 91% 3.3 mph E5.3 kmh E 5.3 mph8.5 kmh 30.02 in1016.6 mb 0.00 in0.0 mm 0.00 in0.0 mm 0.01 in0.3 mm
10:50 AM 24.4°F-4.2°C 22.0°F-5.6°C 91% 2.7 mph ENE4.3 kmh ENE 4.2 mph6.8 kmh 30.02 in1016.6 mb 0.00 in0.0 mm 0.00 in0.0 mm 0.01 in0.3 mm
10:49 AM 24.4°F-4.2°C 22.0°F-5.6°C 91% 1.9 mph SE3.1 kmh SE 3.0 mph4.8 kmh 30.02 in1016.6 mb 0.00 in0.0 mm 0.00 in0.0 mm 0.01 in0.3 mm
10:48 AM 24.3°F-4.3°C 22.0°F-5.6°C 91% 2.4 mph SE3.9 kmh SE 3.9 mph6.3 kmh 30.02 in1016.6 mb 0.00 in0.0 mm 0.00 in0.0 mm 0.01 in0.3 mm
10:47 AM 24.4°F-4.2°C 22.0°F-5.6°C 92% 3.0 mph ESE4.8 kmh ESE 4.7 mph7.6 kmh 30.02 in1016.6 mb 0.00 in0.0 mm 0.00 in0.0 mm 0.01 in0.3 mm
10:46 AM 24.3°F-4.3°C 22.0°F-5.6°C 91% 3.7 mph ENE6.0 kmh ENE 5.9 mph9.5 kmh 30.02 in1016.6 mb 0.00 in0.0 mm 0.00 in0.0 mm 0.01 in0.3 mm
10:45 AM 24.3°F-4.3°C 22.0°F-5.6°C 91% 2.2 mph SE3.5 kmh SE 3.6 mph5.8 kmh 30.02 in1016.6 mb 0.00 in0.0 mm 0.00 in0.0 mm 0.01 in0.3 mm
10:44 AM 24.3°F-4.3°C 22.0°F-5.6°C 92% 3.7 mph NE6.0 kmh NE 6.3 mph10.1 kmh 30.02 in1016.6 mb 0.00 in0.0 mm 0.00 in0.0 mm 0.01 in0.3 mm
10:43 AM 24.1°F-4.4°C 22.0°F-5.6°C 92% 4.0 mph NE6.4 kmh NE 6.4 mph10.3 kmh 30.02 in1016.6 mb 0.00 in0.0 mm 0.00 in0.0 mm 0.01 in0.3 mm
10:42 AM 24.1°F-4.4°C 22.0°F-5.6°C 92% 3.0 mph E4.8 kmh E 4.8 mph7.7 kmh 30.02 in1016.6 mb 0.00 in0.0 mm 0.00 in0.0 mm 0.01 in0.3 mm
10:41 AM 24.1°F-4.4°C 22.0°F-5.6°C 92% 3.4 mph E5.5 kmh E 5.4 mph8.7 kmh 30.02 in1016.6 mb 0.00 in0.0 mm 0.00 in0.0 mm 0.01 in0.3 mm
10:40 AM 23.9°F-4.5°C 22.0°F-5.6°C 92% 4.3 mph SE6.9 kmh SE 6.8 mph10.9 kmh 30.02 in1016.6 mb 0.00 in0.0 mm 0.00 in0.0 mm 0.01 in0.3 mm
10:39 AM 24.1°F-4.4°C 22.0°F-5.6°C 92% 4.4 mph SE7.1 kmh SE 6.9 mph11.1 kmh 30.02 in1016.6 mb 0.00 in0.0 mm 0.00 in0.0 mm 0.01 in0.3 mm
10:38 AM 24.1°F-4.4°C 22.0°F-5.6°C 92% 4.0 mph E6.4 kmh E 6.4 mph10.3 kmh 30.02 in1016.6 mb 0.00 in0.0 mm 0.00 in0.0 mm 0.01 in0.3 mm
10:37 AM 24.1°F-4.4°C 22.0°F-5.6°C 92% 4.2 mph ESE6.8 kmh ESE 6.8 mph10.9 kmh 30.02 in1016.6 mb 0.00 in0.0 mm 0.00 in0.0 mm 0.01 in0.3 mm
10:36 AM 24.1°F-4.4°C 22.0°F-5.6°C 92% 3.9 mph SE6.3 kmh SE 6.6 mph10.6 kmh 30.02 in1016.6 mb 0.00 in0.0 mm 0.00 in0.0 mm 0.01 in0.3 mm
10:35 AM 24.1°F-4.4°C 22.0°F-5.6°C 92% 4.4 mph E7.1 kmh E 7.1 mph11.4 kmh 30.02 in1016.6 mb 0.00 in0.0 mm 0.00 in0.0 mm 0.01 in0.3 mm
10:34 AM 24.3°F-4.3°C 22.0°F-5.6°C 92% 3.0 mph ESE4.8 kmh ESE 4.8 mph7.7 kmh 30.02 in1016.6 mb 0.00 in0.0 mm 0.00 in0.0 mm 0.01 in0.3 mm
10:33 AM 24.3°F-4.3°C 22.0°F-5.6°C 93% 3.7 mph E6.0 kmh E 5.8 mph9.3 kmh 30.02 in1016.6 mb 0.00 in0.0 mm 0.00 in0.0 mm 0.01 in0.3 mm
10:32 AM 24.1°F-4.4°C 22.0°F-5.6°C 92% 3.1 mph NE5.0 kmh NE 5.1 mph8.2 kmh 30.02 in1016.6 mb 0.00 in0.0 mm 0.00 in0.0 mm 0.01 in0.3 mm
10:31 AM 24.1°F-4.4°C 22.0°F-5.6°C 92% 2.9 mph E4.7 kmh E 4.6 mph7.4 kmh 30.02 in1016.6 mb 0.00 in0.0 mm 0.00 in0.0 mm 0.01 in0.3 mm
10:30 AM 24.1°F-4.4°C 22.0°F-5.6°C 93% 4.5 mph ENE7.2 kmh ENE 7.4 mph11.9 kmh 30.02 in1016.6 mb 0.00 in0.0 mm 0.00 in0.0 mm 0.01 in0.3 mm
10:29 AM 23.9°F-4.5°C 22.0°F-5.6°C 93% 4.2 mph E6.8 kmh E 6.7 mph10.8 kmh 30.02 in1016.6 mb 0.00 in0.0 mm 0.00 in0.0 mm 0.01 in0.3 mm
10:28 AM 23.9°F-4.5°C 22.0°F-5.6°C 92% 2.8 mph ENE4.5 kmh ENE 4.4 mph7.1 kmh 30.02 in1016.6 mb 0.00 in0.0 mm 0.00 in0.0 mm 0.01 in0.3 mm
10:27 AM 23.7°F-4.6°C 22.0°F-5.6°C 92% 5.4 mph SE8.7 kmh SE 9.3 mph15.0 kmh 30.02 in1016.6 mb 0.00 in0.0 mm 0.00 in0.0 mm 0.01 in0.3 mm
10:26 AM 23.9°F-4.5°C 22.0°F-5.6°C 92% 3.2 mph SE5.1 kmh SE 5.3 mph8.5 kmh 30.02 in1016.6 mb 0.00 in0.0 mm 0.00 in0.0 mm 0.01 in0.3 mm
10:25 AM 23.9°F-4.5°C 22.0°F-5.6°C 92% 3.6 mph ESE5.8 kmh ESE 5.9 mph9.5 kmh 30.02 in1016.6 mb 0.00 in0.0 mm 0.00 in0.0 mm 0.01 in0.3 mm
10:24 AM 23.9°F-4.5°C 22.0°F-5.6°C 92% 2.3 mph SE3.7 kmh SE 3.5 mph5.6 kmh 30.02 in1016.6 mb 0.00 in0.0 mm 0.00 in0.0 mm 0.01 in0.3 mm
10:23 AM 23.9°F-4.5°C 22.0°F-5.6°C 92% 3.4 mph ESE5.5 kmh ESE 5.5 mph8.9 kmh 30.02 in1016.6 mb 0.00 in0.0 mm 0.00 in0.0 mm 0.01 in0.3 mm
10:22 AM 23.9°F-4.5°C 22.0°F-5.6°C 92% 3.9 mph ESE6.3 kmh ESE 6.5 mph10.5 kmh 30.02 in1016.6 mb 0.00 in0.0 mm 0.00 in0.0 mm 0.01 in0.3 mm
10:21 AM 23.9°F-4.5°C 22.0°F-5.6°C 92% 4.1 mph ESE6.6 kmh ESE 7.2 mph11.6 kmh 30.02 in1016.6 mb 0.00 in0.0 mm 0.00 in0.0 mm 0.01 in0.3 mm
10:20 AM 23.9°F-4.5°C 22.0°F-5.6°C 92% 4.4 mph ENE7.1 kmh ENE 7.3 mph11.7 kmh 30.02 in1016.6 mb 0.00 in0.0 mm 0.00 in0.0 mm 0.01 in0.3 mm
10:19 AM 23.7°F-4.6°C 22.0°F-5.6°C 93% 4.7 mph E7.6 kmh E 7.4 mph11.9 kmh 30.03 in1016.9 mb 0.00 in0.0 mm 0.00 in0.0 mm 0.01 in0.3 mm
10:18 AM 23.7°F-4.6°C 22.0°F-5.6°C 93% 3.3 mph SE5.3 kmh SE 5.3 mph8.5 kmh 30.02 in1016.6 mb 0.00 in0.0 mm 0.00 in0.0 mm 0.01 in0.3 mm
10:17 AM 23.9°F-4.5°C 22.0°F-5.6°C 92% 3.7 mph SE6.0 kmh SE 6.2 mph10.0 kmh 30.02 in1016.6 mb 0.00 in0.0 mm 0.00 in0.0 mm 0.01 in0.3 mm
10:16 AM 23.7°F-4.6°C 22.0°F-5.6°C 92% 3.8 mph ESE6.1 kmh ESE 6.5 mph10.5 kmh 30.03 in1016.9 mb 0.00 in0.0 mm 0.00 in0.0 mm 0.01 in0.3 mm
10:15 AM 23.7°F-4.6°C 22.0°F-5.6°C 93% 2.3 mph SE3.7 kmh SE 3.9 mph6.3 kmh 30.02 in1016.6 mb 0.00 in0.0 mm 0.00 in0.0 mm 0.01 in0.3 mm
10:14 AM 23.9°F-4.5°C 22.0°F-5.6°C 93% 2.2 mph ENE3.5 kmh ENE 3.5 mph5.6 kmh 30.03 in1016.9 mb 0.00 in0.0 mm 0.00 in0.0 mm 0.01 in0.3 mm
10:13 AM 23.7°F-4.6°C 22.0°F-5.6°C 93% 4.0 mph E6.4 kmh E 6.4 mph10.3 kmh 30.03 in1016.9 mb 0.00 in0.0 mm 0.00 in0.0 mm 0.01 in0.3 mm
10:12 AM 23.7°F-4.6°C 22.0°F-5.6°C 92% 3.3 mph E5.3 kmh E 5.3 mph8.5 kmh 30.03 in1016.9 mb 0.00 in0.0 mm 0.00 in0.0 mm 0.01 in0.3 mm
10:11 AM 23.7°F-4.6°C 22.0°F-5.6°C 93% 3.4 mph SE5.5 kmh SE 5.6 mph9.0 kmh 30.03 in1016.9 mb 0.00 in0.0 mm 0.00 in0.0 mm 0.01 in0.3 mm
10:10 AM 23.7°F-4.6°C 22.0°F-5.6°C 93% 2.5 mph SE4.0 kmh SE 4.0 mph6.4 kmh 30.03 in1016.9 mb 0.00 in0.0 mm 0.00 in0.0 mm 0.01 in0.3 mm
10:09 AM 23.5°F-4.7°C 22.0°F-5.6°C 92% 2.7 mph E4.3 kmh E 4.5 mph7.2 kmh 30.03 in1016.9 mb 0.00 in0.0 mm 0.00 in0.0 mm 0.01 in0.3 mm
10:08 AM 23.5°F-4.7°C 22.0°F-5.6°C 92% 4.2 mph SE6.8 kmh SE 6.7 mph10.8 kmh 30.03 in1016.9 mb 0.00 in0.0 mm 0.00 in0.0 mm 0.01 in0.3 mm
10:07 AM 23.7°F-4.6°C 22.0°F-5.6°C 92% 4.3 mph SE6.9 kmh SE 7.3 mph11.7 kmh 30.03 in1016.9 mb 0.00 in0.0 mm 0.00 in0.0 mm 0.01 in0.3 mm
10:06 AM 23.7°F-4.6°C 22.0°F-5.6°C 93% 4.1 mph E6.6 kmh E 7.0 mph11.3 kmh 30.02 in1016.6 mb 0.00 in0.0 mm 0.00 in0.0 mm 0.01 in0.3 mm
10:05 AM 23.7°F-4.6°C 22.0°F-5.6°C 93% 3.5 mph SE5.6 kmh SE 5.7 mph9.2 kmh 30.02 in1016.6 mb 0.00 in0.0 mm 0.00 in0.0 mm 0.01 in0.3 mm
10:04 AM 23.7°F-4.6°C 22.0°F-5.6°C 93% 1.6 mph E2.6 kmh E 2.6 mph4.2 kmh 30.03 in1016.9 mb 0.00 in0.0 mm 0.00 in0.0 mm 0.01 in0.3 mm
10:03 AM 23.7°F-4.6°C 22.0°F-5.6°C 93% 3.0 mph ENE4.8 kmh ENE 5.0 mph8.0 kmh 30.03 in1016.9 mb 0.00 in0.0 mm 0.00 in0.0 mm 0.01 in0.3 mm
10:02 AM 23.7°F-4.6°C 22.0°F-5.6°C 93% 2.3 mph SE3.7 kmh SE 3.5 mph5.6 kmh 30.03 in1016.9 mb 0.00 in0.0 mm 0.00 in0.0 mm 0.01 in0.3 mm
10:01 AM 23.7°F-4.6°C 22.0°F-5.6°C 93% 3.4 mph SE5.5 kmh SE 5.3 mph8.5 kmh 30.03 in1016.9 mb 0.00 in0.0 mm 0.00 in0.0 mm 0.01 in0.3 mm
10:00 AM 23.5°F-4.7°C 22.0°F-5.6°C 93% 4.7 mph ESE7.6 kmh ESE 7.9 mph12.7 kmh 30.03 in1016.9 mb 0.00 in0.0 mm 0.00 in0.0 mm 0.01 in0.3 mm
09:59 AM 23.5°F-4.7°C 22.0°F-5.6°C 93% 3.3 mph ESE5.3 kmh ESE 5.3 mph8.5 kmh 30.03 in1016.9 mb 0.00 in0.0 mm 0.00 in0.0 mm 0.01 in0.3 mm
09:58 AM 23.5°F-4.7°C 22.0°F-5.6°C 93% 3.5 mph E5.6 kmh E 5.7 mph9.2 kmh 30.03 in1016.9 mb 0.00 in0.0 mm 0.00 in0.0 mm 0.01 in0.3 mm
09:57 AM 23.5°F-4.7°C 22.0°F-5.6°C 93% 2.4 mph SE3.9 kmh SE 3.8 mph6.1 kmh 30.03 in1016.9 mb 0.00 in0.0 mm 0.00 in0.0 mm 0.01 in0.3 mm
09:56 AM 23.5°F-4.7°C 22.0°F-5.6°C 93% 4.5 mph ESE7.2 kmh ESE 7.2 mph11.6 kmh 30.03 in1016.9 mb 0.00 in0.0 mm 0.00 in0.0 mm 0.01 in0.3 mm
09:55 AM 23.5°F-4.7°C 22.0°F-5.6°C 93% 4.3 mph SE6.9 kmh SE 6.9 mph11.1 kmh 30.03 in1016.9 mb 0.00 in0.0 mm 0.00 in0.0 mm 0.01 in0.3 mm
09:54 AM 23.5°F-4.7°C 22.0°F-5.6°C 93% 3.8 mph SE6.1 kmh SE 6.1 mph9.8 kmh 30.03 in1016.9 mb 0.00 in0.0 mm 0.00 in0.0 mm 0.01 in0.3 mm
09:53 AM 23.5°F-4.7°C 22.0°F-5.6°C 93% 5.0 mph SE8.0 kmh SE 8.0 mph12.9 kmh 30.03 in1016.9 mb 0.00 in0.0 mm 0.00 in0.0 mm 0.01 in0.3 mm
09:52 AM 23.5°F-4.7°C 22.0°F-5.6°C 93% 3.8 mph ESE6.1 kmh ESE 6.3 mph10.1 kmh 30.03 in1016.9 mb 0.00 in0.0 mm 0.00 in0.0 mm 0.01 in0.3 mm
09:51 AM 23.5°F-4.7°C 22.0°F-5.6°C 93% 3.9 mph ESE6.3 kmh ESE 6.4 mph10.3 kmh 30.03 in1016.9 mb 0.00 in0.0 mm 0.00 in0.0 mm 0.01 in0.3 mm
09:50 AM 23.5°F-4.7°C 22.0°F-5.6°C 93% 4.3 mph ESE6.9 kmh ESE 7.1 mph11.4 kmh 30.03 in1016.9 mb 0.00 in0.0 mm 0.00 in0.0 mm 0.01 in0.3 mm
09:49 AM 23.7°F-4.6°C 22.0°F-5.6°C 93% 4.0 mph E6.4 kmh E 6.6 mph10.6 kmh 30.03 in1016.9 mb 0.00 in0.0 mm 0.00 in0.0 mm 0.01 in0.3 mm
09:48 AM 23.5°F-4.7°C 22.0°F-5.6°C 93% 4.1 mph SE6.6 kmh SE 6.5 mph10.5 kmh 30.03 in1016.9 mb 0.00 in0.0 mm 0.00 in0.0 mm 0.01 in0.3 mm
09:47 AM 23.5°F-4.7°C 22.0°F-5.6°C 93% 3.2 mph SE5.1 kmh SE 5.3 mph8.5 kmh 30.03 in1016.9 mb 0.00 in0.0 mm 0.00 in0.0 mm 0.01 in0.3 mm
09:46 AM 23.5°F-4.7°C 22.0°F-5.6°C 93% 1.8 mph SE2.9 kmh SE 2.8 mph4.5 kmh 30.03 in1016.9 mb 0.00 in0.0 mm 0.00 in0.0 mm 0.01 in0.3 mm
09:45 AM 23.5°F-4.7°C 22.0°F-5.6°C 93% 4.3 mph SE6.9 kmh SE 7.1 mph11.4 kmh 30.03 in1016.9 mb 0.00 in0.0 mm 0.00 in0.0 mm 0.01 in0.3 mm
09:44 AM 23.7°F-4.6°C 22.0°F-5.6°C 93% 4.4 mph ESE7.1 kmh ESE 7.1 mph11.4 kmh 30.03 in1016.9 mb 0.00 in0.0 mm 0.00 in0.0 mm 0.01 in0.3 mm
09:43 AM 23.5°F-4.7°C 22.0°F-5.6°C 93% 3.7 mph ESE6.0 kmh ESE 6.1 mph9.8 kmh 30.03 in1016.9 mb 0.00 in0.0 mm 0.00 in0.0 mm 0.01 in0.3 mm
09:42 AM 23.5°F-4.7°C 22.0°F-5.6°C 93% 3.6 mph SE5.8 kmh SE 5.8 mph9.3 kmh 30.03 in1016.9 mb 0.00 in0.0 mm 0.00 in0.0 mm 0.01 in0.3 mm
09:41 AM 23.5°F-4.7°C 22.0°F-5.6°C 93% 2.5 mph SE4.0 kmh SE 4.0 mph6.4 kmh 30.03 in1016.9 mb 0.00 in0.0 mm 0.00 in0.0 mm 0.01 in0.3 mm
09:40 AM 23.5°F-4.7°C 22.0°F-5.6°C 93% 3.9 mph ESE6.3 kmh ESE 6.2 mph10.0 kmh 30.03 in1016.9 mb 0.00 in0.0 mm 0.00 in0.0 mm 0.01 in0.3 mm
09:39 AM 23.5°F-4.7°C 22.0°F-5.6°C 93% 3.0 mph E4.8 kmh E 4.7 mph7.6 kmh 30.03 in1016.9 mb 0.00 in0.0 mm 0.00 in0.0 mm 0.01 in0.3 mm
09:38 AM 23.5°F-4.7°C 22.0°F-5.6°C 93% 2.9 mph ENE4.7 kmh ENE 5.0 mph8.0 kmh 30.03 in1016.9 mb 0.00 in0.0 mm 0.00 in0.0 mm 0.01 in0.3 mm
09:37 AM 23.4°F-4.8°C 22.0°F-5.6°C 93% 3.1 mph ENE5.0 kmh ENE 5.2 mph8.4 kmh 30.03 in1016.9 mb 0.00 in0.0 mm 0.00 in0.0 mm 0.01 in0.3 mm
09:36 AM 23.5°F-4.7°C 22.0°F-5.6°C 93% 2.8 mph E4.5 kmh E 4.4 mph7.1 kmh 30.03 in1016.9 mb 0.00 in0.0 mm 0.00 in0.0 mm 0.01 in0.3 mm
09:35 AM 23.4°F-4.8°C 22.0°F-5.6°C 93% 2.7 mph NE4.3 kmh NE 4.2 mph6.8 kmh 30.03 in1016.9 mb 0.00 in0.0 mm 0.00 in0.0 mm 0.01 in0.3 mm
09:34 AM 23.4°F-4.8°C 22.0°F-5.6°C 93% 3.5 mph ESE5.6 kmh ESE 5.6 mph9.0 kmh 30.03 in1016.9 mb 0.00 in0.0 mm 0.00 in0.0 mm 0.01 in0.3 mm
09:33 AM 23.4°F-4.8°C 22.0°F-5.6°C 93% 3.6 mph E5.8 kmh E 5.9 mph9.5 kmh 30.03 in1016.9 mb 0.00 in0.0 mm 0.00 in0.0 mm 0.01 in0.3 mm
09:32 AM 23.4°F-4.8°C 22.0°F-5.6°C 93% 1.9 mph SE3.1 kmh SE 3.0 mph4.8 kmh 30.03 in1016.9 mb 0.00 in0.0 mm 0.00 in0.0 mm 0.01 in0.3 mm
09:31 AM 23.4°F-4.8°C 22.0°F-5.6°C 93% 2.8 mph SE4.5 kmh SE 4.4 mph7.1 kmh 30.03 in1016.9 mb 0.00 in0.0 mm 0.00 in0.0 mm 0.01 in0.3 mm
09:30 AM 23.4°F-4.8°C 22.0°F-5.6°C 93% 4.4 mph ESE7.1 kmh ESE 7.4 mph11.9 kmh 30.03 in1016.9 mb 0.00 in0.0 mm 0.00 in0.0 mm 0.01 in0.3 mm
09:29 AM 23.2°F-4.9°C 22.0°F-5.6°C 93% 3.6 mph ESE5.8 kmh ESE 6.1 mph9.8 kmh 30.03 in1016.9 mb 0.00 in0.0 mm 0.00 in0.0 mm 0.01 in0.3 mm
09:28 AM 23.2°F-4.9°C 22.0°F-5.6°C 93% 4.0 mph SE6.4 kmh SE 6.2 mph10.0 kmh 30.03 in1016.9 mb 0.00 in0.0 mm 0.00 in0.0 mm 0.01 in0.3 mm
09:27 AM 23.2°F-4.9°C 22.0°F-5.6°C 93% 5.0 mph ENE8.0 kmh ENE 8.1 mph13.0 kmh 30.03 in1016.9 mb 0.00 in0.0 mm 0.00 in0.0 mm 0.01 in0.3 mm
09:26 AM 23.2°F-4.9°C 22.0°F-5.6°C 93% 4.2 mph ESE6.8 kmh ESE 7.0 mph11.3 kmh 30.03 in1016.9 mb 0.00 in0.0 mm 0.00 in0.0 mm 0.01 in0.3 mm
09:25 AM 23.2°F-4.9°C 22.0°F-5.6°C 93% 3.7 mph SE6.0 kmh SE 6.0 mph9.7 kmh 30.03 in1016.9 mb 0.00 in0.0 mm 0.00 in0.0 mm 0.01 in0.3 mm
09:24 AM 23.2°F-4.9°C 22.0°F-5.6°C 93% 3.4 mph ENE5.5 kmh ENE 5.9 mph9.5 kmh 30.03 in1016.9 mb 0.00 in0.0 mm 0.00 in0.0 mm 0.01 in0.3 mm
09:23 AM 23.2°F-4.9°C 22.0°F-5.6°C 93% 2.4 mph E3.9 kmh E 4.0 mph6.4 kmh 30.03 in1016.9 mb 0.00 in0.0 mm 0.00 in0.0 mm 0.01 in0.3 mm
09:22 AM 23.2°F-4.9°C 22.0°F-5.6°C 93% 2.1 mph SE3.4 kmh SE 3.3 mph5.3 kmh 30.03 in1016.9 mb 0.00 in0.0 mm 0.00 in0.0 mm 0.01 in0.3 mm
09:21 AM 23.2°F-4.9°C 22.0°F-5.6°C 94% 3.2 mph SE5.1 kmh SE 5.1 mph8.2 kmh 30.03 in1016.9 mb 0.00 in0.0 mm 0.00 in0.0 mm 0.01 in0.3 mm
09:20 AM 23.2°F-4.9°C 22.0°F-5.6°C 94% 3.0 mph ESE4.8 kmh ESE 4.7 mph7.6 kmh 30.03 in1016.9 mb 0.00 in0.0 mm 0.00 in0.0 mm 0.01 in0.3 mm
09:19 AM 23.2°F-4.9°C 22.0°F-5.6°C 94% 5.1 mph SE8.2 kmh SE 8.1 mph13.0 kmh 30.03 in1016.9 mb 0.00 in0.0 mm 0.00 in0.0 mm 0.01 in0.3 mm
09:18 AM 23.2°F-4.9°C 22.0°F-5.6°C 93% 2.9 mph E4.7 kmh E 4.7 mph7.6 kmh 30.03 in1016.9 mb 0.00 in0.0 mm 0.00 in0.0 mm 0.01 in0.3 mm
09:17 AM 23.2°F-4.9°C 22.0°F-5.6°C 94% 3.7 mph E6.0 kmh E 5.9 mph9.5 kmh 30.03 in1016.9 mb 0.00 in0.0 mm 0.00 in0.0 mm 0.01 in0.3 mm
09:16 AM 23.2°F-4.9°C 22.0°F-5.6°C 94% 4.0 mph ESE6.4 kmh ESE 6.3 mph10.1 kmh 30.03 in1016.9 mb 0.00 in0.0 mm 0.00 in0.0 mm 0.01 in0.3 mm
09:15 AM 23.4°F-4.8°C 22.0°F-5.6°C 94% 4.1 mph ESE6.6 kmh ESE 6.7 mph10.8 kmh 30.03 in1016.9 mb 0.00 in0.0 mm 0.00 in0.0 mm 0.01 in0.3 mm
09:14 AM 23.4°F-4.8°C 22.0°F-5.6°C 94% 3.1 mph ESE5.0 kmh ESE 5.0 mph8.0 kmh 30.03 in1016.9 mb 0.00 in0.0 mm 0.00 in0.0 mm 0.01 in0.3 mm
09:13 AM 23.2°F-4.9°C 22.0°F-5.6°C 94% 2.8 mph E4.5 kmh E 4.6 mph7.4 kmh 30.03 in1016.9 mb 0.00 in0.0 mm 0.00 in0.0 mm 0.01 in0.3 mm
09:12 AM 23.2°F-4.9°C 22.0°F-5.6°C 94% 1.2 mph SE1.9 kmh SE 1.9 mph3.1 kmh 30.03 in1016.9 mb 0.00 in0.0 mm 0.00 in0.0 mm 0.01 in0.3 mm
09:11 AM 23.2°F-4.9°C 22.0°F-5.6°C 94% 3.1 mph SE5.0 kmh SE 5.1 mph8.2 kmh 30.03 in1016.9 mb 0.00 in0.0 mm 0.00 in0.0 mm 0.01 in0.3 mm
09:10 AM 23.2°F-4.9°C 22.0°F-5.6°C 94% 2.9 mph SE4.7 kmh SE 4.6 mph7.4 kmh 30.03 in1016.9 mb 0.00 in0.0 mm 0.00 in0.0 mm 0.01 in0.3 mm
09:09 AM 23.2°F-4.9°C 22.0°F-5.6°C 94% 2.7 mph SE4.3 kmh SE 4.4 mph7.1 kmh 30.03 in1016.9 mb 0.00 in0.0 mm 0.00 in0.0 mm 0.01 in0.3 mm
09:08 AM 23.2°F-4.9°C 22.0°F-5.6°C 94% 3.4 mph ESE5.5 kmh ESE 5.5 mph8.9 kmh 30.03 in1016.9 mb 0.00 in0.0 mm 0.00 in0.0 mm 0.01 in0.3 mm
09:07 AM 23.4°F-4.8°C 22.0°F-5.6°C 94% 2.1 mph SE3.4 kmh SE 3.4 mph5.5 kmh 30.03 in1016.9 mb 0.00 in0.0 mm 0.00 in0.0 mm 0.01 in0.3 mm
09:06 AM 23.4°F-4.8°C 22.0°F-5.6°C 94% 3.0 mph SE4.8 kmh SE 4.8 mph7.7 kmh 30.03 in1016.9 mb 0.00 in0.0 mm 0.00 in0.0 mm 0.01 in0.3 mm
09:05 AM 23.4°F-4.8°C 22.0°F-5.6°C 94% 2.7 mph SE4.3 kmh SE 4.6 mph7.4 kmh 30.03 in1016.9 mb 0.00 in0.0 mm 0.00 in0.0 mm 0.01 in0.3 mm
09:04 AM 23.5°F-4.7°C 22.0°F-5.6°C 94% 3.3 mph ESE5.3 kmh ESE 5.3 mph8.5 kmh 30.03 in1016.9 mb 0.00 in0.0 mm 0.00 in0.0 mm 0.01 in0.3 mm
09:03 AM 23.5°F-4.7°C 22.0°F-5.6°C 94% 2.5 mph E4.0 kmh E 4.2 mph6.8 kmh 30.03 in1016.9 mb 0.00 in0.0 mm 0.00 in0.0 mm 0.01 in0.3 mm
09:02 AM 23.4°F-4.8°C 22.0°F-5.6°C 94% 4.3 mph E6.9 kmh E 7.1 mph11.4 kmh 30.04 in1017.3 mb 0.00 in0.0 mm 0.00 in0.0 mm 0.01 in0.3 mm
09:01 AM 23.4°F-4.8°C 22.0°F-5.6°C 94% 5.2 mph E8.4 kmh E 8.7 mph14.0 kmh 30.04 in1017.3 mb 0.00 in0.0 mm 0.00 in0.0 mm 0.01 in0.3 mm
09:00 AM 23.4°F-4.8°C 22.0°F-5.6°C 94% 4.7 mph ENE7.6 kmh ENE 7.5 mph12.1 kmh 30.04 in1017.3 mb 0.00 in0.0 mm 0.00 in0.0 mm 0.01 in0.3 mm
08:59 AM 23.5°F-4.7°C 22.0°F-5.6°C 94% 5.2 mph ENE8.4 kmh ENE 8.7 mph14.0 kmh 30.04 in1017.3 mb 0.00 in0.0 mm 0.00 in0.0 mm 0.01 in0.3 mm
08:58 AM 23.5°F-4.7°C 22.0°F-5.6°C 94% 2.7 mph ENE4.3 kmh ENE 4.3 mph6.9 kmh 30.04 in1017.3 mb 0.00 in0.0 mm 0.00 in0.0 mm 0.01 in0.3 mm
08:57 AM 23.4°F-4.8°C 22.0°F-5.6°C 94% 2.7 mph ENE4.3 kmh ENE 4.2 mph6.8 kmh 30.04 in1017.3 mb 0.01 in0.3 mm 0.00 in0.0 mm 0.01 in0.3 mm
08:56 AM 23.4°F-4.8°C 22.0°F-5.6°C 94% 4.6 mph NE7.4 kmh NE 7.4 mph11.9 kmh 30.04 in1017.3 mb 0.01 in0.3 mm 0.00 in0.0 mm 0.01 in0.3 mm
08:55 AM 23.4°F-4.8°C 22.0°F-5.6°C 94% 3.0 mph NNE4.8 kmh NNE 4.8 mph7.7 kmh 30.04 in1017.3 mb 0.01 in0.3 mm 0.00 in0.0 mm 0.01 in0.3 mm
08:54 AM 23.4°F-4.8°C 22.0°F-5.6°C 94% 3.4 mph E5.5 kmh E 5.5 mph8.9 kmh 30.04 in1017.3 mb 0.01 in0.3 mm 0.00 in0.0 mm 0.01 in0.3 mm
08:53 AM 23.4°F-4.8°C 22.0°F-5.6°C 94% 3.7 mph ENE6.0 kmh ENE 6.2 mph10.0 kmh 30.03 in1016.9 mb 0.01 in0.3 mm 0.00 in0.0 mm 0.01 in0.3 mm
08:52 AM 23.4°F-4.8°C 22.0°F-5.6°C 94% 2.6 mph ESE4.2 kmh ESE 4.4 mph7.1 kmh 30.04 in1017.3 mb 0.01 in0.3 mm 0.00 in0.0 mm 0.01 in0.3 mm
08:51 AM 23.4°F-4.8°C 22.0°F-5.6°C 94% 2.8 mph ESE4.5 kmh ESE 4.4 mph7.1 kmh 30.04 in1017.3 mb 0.01 in0.3 mm 0.00 in0.0 mm 0.01 in0.3 mm
08:50 AM 23.4°F-4.8°C 22.0°F-5.6°C 94% 3.1 mph ENE5.0 kmh ENE 5.0 mph8.0 kmh 30.04 in1017.3 mb 0.01 in0.3 mm 0.00 in0.0 mm 0.01 in0.3 mm
08:49 AM 23.4°F-4.8°C 22.0°F-5.6°C 94% 4.2 mph ENE6.8 kmh ENE 6.9 mph11.1 kmh 30.04 in1017.3 mb 0.01 in0.3 mm 0.00 in0.0 mm 0.01 in0.3 mm
08:48 AM 23.4°F-4.8°C 22.0°F-5.6°C 94% 3.5 mph ENE5.6 kmh ENE 5.6 mph9.0 kmh 30.04 in1017.3 mb 0.01 in0.3 mm 0.00 in0.0 mm 0.01 in0.3 mm
08:47 AM 23.4°F-4.8°C 22.0°F-5.6°C 94% 4.3 mph ENE6.9 kmh ENE 7.2 mph11.6 kmh 30.04 in1017.3 mb 0.01 in0.3 mm 0.00 in0.0 mm 0.01 in0.3 mm
08:46 AM 23.4°F-4.8°C 22.0°F-5.6°C 94% 3.0 mph NE4.8 kmh NE 4.9 mph7.9 kmh 30.04 in1017.3 mb 0.01 in0.3 mm 0.00 in0.0 mm 0.01 in0.3 mm
08:44 AM 23.2°F-4.9°C 22.0°F-5.6°C 94% 2.7 mph E4.3 kmh E 4.6 mph7.4 kmh 30.04 in1017.3 mb 0.01 in0.3 mm 0.00 in0.0 mm 0.01 in0.3 mm
08:43 AM 23.2°F-4.9°C 22.0°F-5.6°C 94% 2.2 mph E3.5 kmh E 3.4 mph5.5 kmh 30.04 in1017.3 mb 0.01 in0.3 mm 0.00 in0.0 mm 0.01 in0.3 mm
08:42 AM 23.2°F-4.9°C 22.0°F-5.6°C 94% 2.6 mph ESE4.2 kmh ESE 4.0 mph6.4 kmh 30.04 in1017.3 mb 0.01 in0.3 mm 0.00 in0.0 mm 0.01 in0.3 mm
08:41 AM 23.2°F-4.9°C 22.0°F-5.6°C 94% 3.8 mph NNE6.1 kmh NNE 6.1 mph9.8 kmh 30.04 in1017.3 mb 0.01 in0.3 mm 0.00 in0.0 mm 0.01 in0.3 mm
08:40 AM 23.2°F-4.9°C 22.0°F-5.6°C 94% 3.8 mph ENE6.1 kmh ENE 6.5 mph10.5 kmh 30.04 in1017.3 mb 0.01 in0.3 mm 0.00 in0.0 mm 0.01 in0.3 mm
08:39 AM 23.4°F-4.8°C 22.0°F-5.6°C 94% 2.9 mph ESE4.7 kmh ESE 4.6 mph7.4 kmh 30.04 in1017.3 mb 0.01 in0.3 mm 0.00 in0.0 mm 0.01 in0.3 mm
08:38 AM 23.2°F-4.9°C 22.0°F-5.6°C 94% 3.3 mph E5.3 kmh E 5.2 mph8.4 kmh 30.04 in1017.3 mb 0.01 in0.3 mm 0.00 in0.0 mm 0.01 in0.3 mm
08:37 AM 23.2°F-4.9°C 22.0°F-5.6°C 94% 4.8 mph E7.7 kmh E 8.6 mph13.8 kmh 30.04 in1017.3 mb 0.01 in0.3 mm 0.00 in0.0 mm 0.01 in0.3 mm
08:36 AM 23.4°F-4.8°C 22.0°F-5.6°C 94% 3.5 mph ESE5.6 kmh ESE 5.9 mph9.5 kmh 30.04 in1017.3 mb 0.01 in0.3 mm 0.00 in0.0 mm 0.01 in0.3 mm
08:35 AM 23.4°F-4.8°C 22.0°F-5.6°C 94% 2.8 mph SE4.5 kmh SE 4.3 mph6.9 kmh 30.04 in1017.3 mb 0.01 in0.3 mm 0.00 in0.0 mm 0.01 in0.3 mm
08:34 AM 23.4°F-4.8°C 22.0°F-5.6°C 95% 2.2 mph ENE3.5 kmh ENE 3.7 mph6.0 kmh 30.04 in1017.3 mb 0.01 in0.3 mm 0.00 in0.0 mm 0.01 in0.3 mm
08:33 AM 23.2°F-4.9°C 22.0°F-5.6°C 94% 2.4 mph E3.9 kmh E 4.0 mph6.4 kmh 30.04 in1017.3 mb 0.01 in0.3 mm 0.00 in0.0 mm 0.01 in0.3 mm
08:32 AM 23.2°F-4.9°C 22.0°F-5.6°C 95% 3.2 mph NE5.1 kmh NE 5.3 mph8.5 kmh 30.04 in1017.3 mb 0.01 in0.3 mm 0.00 in0.0 mm 0.01 in0.3 mm
08:31 AM 23.4°F-4.8°C 22.0°F-5.6°C 95% 2.0 mph E3.2 kmh E 3.1 mph5.0 kmh 30.04 in1017.3 mb 0.01 in0.3 mm 0.00 in0.0 mm 0.01 in0.3 mm
08:30 AM 23.2°F-4.9°C 22.0°F-5.6°C 94% 2.6 mph E4.2 kmh E 4.3 mph6.9 kmh 30.04 in1017.3 mb 0.01 in0.3 mm 0.00 in0.0 mm 0.01 in0.3 mm
08:29 AM 23.0°F-5.0°C 22.0°F-5.6°C 94% 2.5 mph E4.0 kmh E 4.0 mph6.4 kmh 30.04 in1017.3 mb 0.01 in0.3 mm 0.00 in0.0 mm 0.01 in0.3 mm
08:28 AM 23.2°F-4.9°C 22.0°F-5.6°C 95% 3.0 mph E4.8 kmh E 4.7 mph7.6 kmh 30.04 in1017.3 mb 0.01 in0.3 mm 0.00 in0.0 mm 0.01 in0.3 mm
08:27 AM 23.2°F-4.9°C 22.0°F-5.6°C 94% 3.9 mph ENE6.3 kmh ENE 6.5 mph10.5 kmh 30.04 in1017.3 mb 0.01 in0.3 mm 0.00 in0.0 mm 0.01 in0.3 mm
08:26 AM 23.2°F-4.9°C 22.0°F-5.6°C 94% 2.5 mph NE4.0 kmh NE 4.1 mph6.6 kmh 30.04 in1017.3 mb 0.01 in0.3 mm 0.00 in0.0 mm 0.01 in0.3 mm
08:25 AM 23.2°F-4.9°C 22.0°F-5.6°C 94% 2.2 mph NE3.5 kmh NE 3.5 mph5.6 kmh 30.04 in1017.3 mb 0.01 in0.3 mm 0.00 in0.0 mm 0.01 in0.3 mm
08:24 AM 23.2°F-4.9°C 22.0°F-5.6°C 94% 2.2 mph E3.5 kmh E 3.4 mph5.5 kmh 30.04 in1017.3 mb 0.01 in0.3 mm 0.00 in0.0 mm 0.01 in0.3 mm
08:23 AM 23.2°F-4.9°C 22.0°F-5.6°C 95% 3.2 mph NE5.1 kmh NE 5.3 mph8.5 kmh 30.04 in1017.3 mb 0.01 in0.3 mm 0.00 in0.0 mm 0.01 in0.3 mm
08:22 AM 23.0°F-5.0°C 22.0°F-5.6°C 94% 4.3 mph ENE6.9 kmh ENE 7.0 mph11.3 kmh 30.04 in1017.3 mb 0.01 in0.3 mm 0.00 in0.0 mm 0.01 in0.3 mm
08:21 AM 23.0°F-5.0°C 22.0°F-5.6°C 94% 3.3 mph E5.3 kmh E 5.2 mph8.4 kmh 30.04 in1017.3 mb 0.01 in0.3 mm 0.00 in0.0 mm 0.01 in0.3 mm
08:20 AM 23.0°F-5.0°C 22.0°F-5.6°C 94% 3.0 mph ESE4.8 kmh ESE 4.8 mph7.7 kmh 30.04 in1017.3 mb 0.01 in0.3 mm 0.00 in0.0 mm 0.01 in0.3 mm
08:19 AM 23.0°F-5.0°C 22.0°F-5.6°C 94% 2.4 mph ENE3.9 kmh ENE 3.9 mph6.3 kmh 30.04 in1017.3 mb 0.01 in0.3 mm 0.00 in0.0 mm 0.01 in0.3 mm
08:18 AM 23.0°F-5.0°C 22.0°F-5.6°C 94% 2.5 mph ENE4.0 kmh ENE 3.9 mph6.3 kmh 30.04 in1017.3 mb 0.01 in0.3 mm 0.00 in0.0 mm 0.01 in0.3 mm
08:17 AM 23.0°F-5.0°C 22.0°F-5.6°C 94% 3.2 mph ENE5.1 kmh ENE 5.3 mph8.5 kmh 30.04 in1017.3 mb 0.01 in0.3 mm 0.00 in0.0 mm 0.01 in0.3 mm
08:16 AM 23.0°F-5.0°C 22.0°F-5.6°C 95% 4.5 mph E7.2 kmh E 7.3 mph11.7 kmh 30.04 in1017.3 mb 0.01 in0.3 mm 0.00 in0.0 mm 0.01 in0.3 mm
08:15 AM 23.0°F-5.0°C 22.0°F-5.6°C 94% 4.2 mph NE6.8 kmh NE 7.1 mph11.4 kmh 30.04 in1017.3 mb 0.01 in0.3 mm 0.00 in0.0 mm 0.01 in0.3 mm
08:14 AM 23.0°F-5.0°C 22.0°F-5.6°C 94% 2.4 mph E3.9 kmh E 3.8 mph6.1 kmh 30.04 in1017.3 mb 0.01 in0.3 mm 0.00 in0.0 mm 0.01 in0.3 mm
08:13 AM 23.0°F-5.0°C 22.0°F-5.6°C 95% 1.9 mph NNE3.1 kmh NNE 3.1 mph5.0 kmh 30.04 in1017.3 mb 0.01 in0.3 mm 0.00 in0.0 mm 0.01 in0.3 mm
08:12 AM 22.8°F-5.1°C 21.0°F-6.1°C 94% 1.4 mph E2.3 kmh E 2.2 mph3.5 kmh 30.04 in1017.3 mb 0.01 in0.3 mm 0.00 in0.0 mm 0.01 in0.3 mm
08:11 AM 22.8°F-5.1°C 22.0°F-5.6°C 95% 3.0 mph NE4.8 kmh NE 5.0 mph8.0 kmh 30.04 in1017.3 mb 0.01 in0.3 mm 0.00 in0.0 mm 0.01 in0.3 mm
08:10 AM 22.8°F-5.1°C 22.0°F-5.6°C 95% 3.5 mph ENE5.6 kmh ENE 5.7 mph9.2 kmh 30.04 in1017.3 mb 0.01 in0.3 mm 0.00 in0.0 mm 0.01 in0.3 mm
08:09 AM 22.8°F-5.1°C 22.0°F-5.6°C 95% 4.4 mph NE7.1 kmh NE 7.4 mph11.9 kmh 30.04 in1017.3 mb 0.01 in0.3 mm 0.00 in0.0 mm 0.01 in0.3 mm
08:08 AM 22.8°F-5.1°C 22.0°F-5.6°C 95% 2.8 mph E4.5 kmh E 4.5 mph7.2 kmh 30.04 in1017.3 mb 0.01 in0.3 mm 0.00 in0.0 mm 0.01 in0.3 mm
08:07 AM 22.8°F-5.1°C 22.0°F-5.6°C 95% 3.5 mph E5.6 kmh E 5.8 mph9.3 kmh 30.04 in1017.3 mb 0.01 in0.3 mm 0.00 in0.0 mm 0.01 in0.3 mm
08:06 AM 22.8°F-5.1°C 21.0°F-6.1°C 95% 3.3 mph ENE5.3 kmh ENE 5.1 mph8.2 kmh 30.04 in1017.3 mb 0.01 in0.3 mm 0.00 in0.0 mm 0.01 in0.3 mm
08:05 AM 22.6°F-5.2°C 21.0°F-6.1°C 95% 5.4 mph ENE8.7 kmh ENE 8.5 mph13.7 kmh 30.04 in1017.3 mb 0.01 in0.3 mm 0.00 in0.0 mm 0.01 in0.3 mm
08:04 AM 22.6°F-5.2°C 21.0°F-6.1°C 95% 5.1 mph E8.2 kmh E 8.2 mph13.2 kmh 30.04 in1017.3 mb 0.01 in0.3 mm 0.00 in0.0 mm 0.01 in0.3 mm
08:03 AM 22.8°F-5.1°C 21.0°F-6.1°C 95% 4.6 mph ENE7.4 kmh ENE 7.3 mph11.7 kmh 30.04 in1017.3 mb 0.01 in0.3 mm 0.00 in0.0 mm 0.01 in0.3 mm
08:02 AM 22.6°F-5.2°C 21.0°F-6.1°C 95% 4.2 mph E6.8 kmh E 6.7 mph10.8 kmh 30.04 in1017.3 mb 0.01 in0.3 mm 0.00 in0.0 mm 0.01 in0.3 mm
08:01 AM 22.8°F-5.1°C 21.0°F-6.1°C 95% 4.4 mph ENE7.1 kmh ENE 7.2 mph11.6 kmh 30.04 in1017.3 mb 0.01 in0.3 mm 0.00 in0.0 mm 0.01 in0.3 mm
08:00 AM 22.6°F-5.2°C 21.0°F-6.1°C 95% 4.1 mph 6.6 kmh 7.0 mph11.3 kmh 30.04 in1017.3 mb 0.01 in0.3 mm 0.00 in0.0 mm 0.01 in0.3 mm
07:59 AM 22.6°F-5.2°C 21.0°F-6.1°C 95% 4.5 mph NE7.2 kmh NE 7.1 mph11.4 kmh 30.04 in1017.3 mb 0.01 in0.3 mm 0.00 in0.0 mm 0.01 in0.3 mm
07:58 AM 22.6°F-5.2°C 21.0°F-6.1°C 95% 4.0 mph NE6.4 kmh NE 6.4 mph10.3 kmh 30.04 in1017.3 mb 0.01 in0.3 mm 0.60 in15.2 mm 0.01 in0.3 mm
07:57 AM 22.6°F-5.2°C 21.0°F-6.1°C 95% 5.0 mph NE8.0 kmh NE 11.0 mph17.7 kmh 30.04 in1017.3 mb 0.00 in0.0 mm 0.00 in0.0 mm 0.01 in0.3 mm
07:56 AM 22.6°F-5.2°C 21.0°F-6.1°C 95% 3.6 mph E5.8 kmh E 5.8 mph9.3 kmh 30.04 in1017.3 mb 0.00 in0.0 mm 0.00 in0.0 mm 0.01 in0.3 mm
07:55 AM 22.5°F-5.3°C 21.0°F-6.1°C 95% 4.0 mph ENE6.4 kmh ENE 6.5 mph10.5 kmh 30.04 in1017.3 mb 0.00 in0.0 mm 0.00 in0.0 mm 0.01 in0.3 mm
07:54 AM 22.5°F-5.3°C 21.0°F-6.1°C 95% 3.7 mph NE6.0 kmh NE 5.8 mph9.3 kmh 30.04 in1017.3 mb 0.00 in0.0 mm 0.00 in0.0 mm 0.00 in0.0 mm
07:53 AM 22.6°F-5.2°C 21.0°F-6.1°C 95% 3.8 mph ENE6.1 kmh ENE 6.0 mph9.7 kmh 30.04 in1017.3 mb 0.00 in0.0 mm 0.00 in0.0 mm 0.00 in0.0 mm
07:52 AM 22.6°F-5.2°C 21.0°F-6.1°C 95% 5.3 mph NE8.5 kmh NE 8.4 mph13.5 kmh 30.04 in1017.3 mb 0.00 in0.0 mm 0.00 in0.0 mm 0.00 in0.0 mm
07:51 AM 22.5°F-5.3°C 21.0°F-6.1°C 95% 3.5 mph NE5.6 kmh NE 5.9 mph9.5 kmh 30.04 in1017.3 mb 0.00 in0.0 mm 0.00 in0.0 mm 0.00 in0.0 mm
07:50 AM 22.5°F-5.3°C 21.0°F-6.1°C 94% 5.2 mph NE8.4 kmh NE 8.7 mph14.0 kmh 30.04 in1017.3 mb 0.00 in0.0 mm 0.00 in0.0 mm 0.00 in0.0 mm
07:49 AM 22.3°F-5.4°C 21.0°F-6.1°C 94% 3.8 mph NE6.1 kmh NE 6.1 mph9.8 kmh 30.04 in1017.3 mb 0.00 in0.0 mm 0.00 in0.0 mm 0.00 in0.0 mm
07:48 AM 22.3°F-5.4°C 21.0°F-6.1°C 94% 3.9 mph ENE6.3 kmh ENE 6.2 mph10.0 kmh 30.04 in1017.3 mb 0.00 in0.0 mm 0.00 in0.0 mm 0.00 in0.0 mm
07:47 AM 22.3°F-5.4°C 21.0°F-6.1°C 94% 3.5 mph E5.6 kmh E 5.5 mph8.9 kmh 30.04 in1017.3 mb 0.00 in0.0 mm 0.00 in0.0 mm 0.00 in0.0 mm
07:46 AM 22.3°F-5.4°C 21.0°F-6.1°C 94% 4.3 mph ENE6.9 kmh ENE 6.9 mph11.1 kmh 30.04 in1017.3 mb 0.00 in0.0 mm 0.00 in0.0 mm 0.00 in0.0 mm
07:45 AM 22.3°F-5.4°C 21.0°F-6.1°C 94% 3.4 mph ENE5.5 kmh ENE 5.2 mph8.4 kmh 30.04 in1017.3 mb 0.00 in0.0 mm 0.00 in0.0 mm 0.00 in0.0 mm
07:44 AM 22.3°F-5.4°C 21.0°F-6.1°C 94% 3.8 mph ENE6.1 kmh ENE 6.1 mph9.8 kmh 30.04 in1017.3 mb 0.00 in0.0 mm 0.00 in0.0 mm 0.00 in0.0 mm
07:43 AM 22.3°F-5.4°C 21.0°F-6.1°C 94% 4.9 mph E7.9 kmh E 8.1 mph13.0 kmh 30.04 in1017.3 mb 0.00 in0.0 mm 0.00 in0.0 mm 0.00 in0.0 mm
07:42 AM 22.1°F-5.5°C 21.0°F-6.1°C 94% 3.4 mph ENE5.5 kmh ENE 5.6 mph9.0 kmh 30.04 in1017.3 mb 0.00 in0.0 mm 0.00 in0.0 mm 0.00 in0.0 mm
07:41 AM 22.1°F-5.5°C 21.0°F-6.1°C 94% 3.5 mph NE5.6 kmh NE 5.5 mph8.9 kmh 30.04 in1017.3 mb 0.00 in0.0 mm 0.00 in0.0 mm 0.00 in0.0 mm
07:40 AM 22.1°F-5.5°C 20.0°F-6.7°C 94% 2.8 mph NE4.5 kmh NE 4.5 mph7.2 kmh 30.04 in1017.3 mb 0.00 in0.0 mm 0.00 in0.0 mm 0.00 in0.0 mm
07:39 AM 22.1°F-5.5°C 20.0°F-6.7°C 94% 2.1 mph NNE3.4 kmh NNE 3.3 mph5.3 kmh 30.04 in1017.3 mb 0.00 in0.0 mm 0.00 in0.0 mm 0.00 in0.0 mm
07:38 AM 22.1°F-5.5°C 20.0°F-6.7°C 94% 3.2 mph NE5.1 kmh NE 4.9 mph7.9 kmh 30.04 in1017.3 mb 0.00 in0.0 mm 0.00 in0.0 mm 0.00 in0.0 mm
07:37 AM 22.1°F-5.5°C 20.0°F-6.7°C 94% 3.0 mph NE4.8 kmh NE 4.8 mph7.7 kmh 30.04 in1017.3 mb 0.00 in0.0 mm 0.00 in0.0 mm 0.00 in0.0 mm
07:36 AM 21.9°F-5.6°C 20.0°F-6.7°C 94% 2.3 mph 3.7 kmh 3.6 mph5.8 kmh 30.04 in1017.3 mb 0.00 in0.0 mm 0.00 in0.0 mm 0.00 in0.0 mm
07:35 AM 21.9°F-5.6°C 20.0°F-6.7°C 94% 3.0 mph N4.8 kmh N 4.7 mph7.6 kmh 30.04 in1017.3 mb 0.00 in0.0 mm 0.00 in0.0 mm 0.00 in0.0 mm
07:34 AM 22.1°F-5.5°C 21.0°F-6.1°C 94% 3.2 mph NNE5.1 kmh NNE 5.1 mph8.2 kmh 30.04 in1017.3 mb 0.00 in0.0 mm 0.00 in0.0 mm 0.00 in0.0 mm
07:33 AM 21.9°F-5.6°C 20.0°F-6.7°C 94% 3.1 mph ENE5.0 kmh ENE 5.0 mph8.0 kmh 30.04 in1017.3 mb 0.00 in0.0 mm 0.00 in0.0 mm 0.00 in0.0 mm
07:32 AM 21.9°F-5.6°C 20.0°F-6.7°C 94% 2.0 mph N3.2 kmh N 3.1 mph5.0 kmh 30.04 in1017.3 mb 0.00 in0.0 mm 0.00 in0.0 mm 0.00 in0.0 mm
07:31 AM 21.9°F-5.6°C 20.0°F-6.7°C 94% 3.1 mph NNE5.0 kmh NNE 5.0 mph8.0 kmh 30.04 in1017.3 mb 0.00 in0.0 mm 0.00 in0.0 mm 0.00 in0.0 mm
07:30 AM 21.9°F-5.6°C 20.0°F-6.7°C 94% 3.0 mph 4.8 kmh 4.8 mph7.7 kmh 30.04 in1017.3 mb 0.00 in0.0 mm 0.00 in0.0 mm 0.00 in0.0 mm
07:29 AM 21.7°F-5.7°C 20.0°F-6.7°C 94% 2.3 mph NNE3.7 kmh NNE 3.7 mph6.0 kmh 30.04 in1017.3 mb 0.00 in0.0 mm 0.00 in0.0 mm 0.00 in0.0 mm
07:28 AM 21.7°F-5.7°C 20.0°F-6.7°C 94% 2.0 mph N3.2 kmh N 3.2 mph5.1 kmh 30.04 in1017.3 mb 0.00 in0.0 mm 0.00 in0.0 mm 0.00 in0.0 mm
07:27 AM 21.7°F-5.7°C 20.0°F-6.7°C 94% 3.9 mph NNE6.3 kmh NNE 6.1 mph9.8 kmh 30.04 in1017.3 mb 0.00 in0.0 mm 0.00 in0.0 mm 0.00 in0.0 mm
07:26 AM 21.7°F-5.7°C 20.0°F-6.7°C 95% 4.0 mph N6.4 kmh N 6.7 mph10.8 kmh 30.04 in1017.3 mb 0.00 in0.0 mm 0.00 in0.0 mm 0.00 in0.0 mm
07:25 AM 21.7°F-5.7°C 20.0°F-6.7°C 94% 2.0 mph ENE3.2 kmh ENE 2.9 mph4.7 kmh 30.04 in1017.3 mb 0.00 in0.0 mm 0.00 in0.0 mm 0.00 in0.0 mm
07:24 AM 21.7°F-5.7°C 20.0°F-6.7°C 94% 1.8 mph E2.9 kmh E 2.9 mph4.7 kmh 30.04 in1017.3 mb 0.00 in0.0 mm 0.00 in0.0 mm 0.00 in0.0 mm
07:23 AM 21.7°F-5.7°C 20.0°F-6.7°C 94% 2.1 mph ENE3.4 kmh ENE 3.4 mph5.5 kmh 30.04 in1017.3 mb 0.00 in0.0 mm 0.00 in0.0 mm 0.00 in0.0 mm
07:22 AM 21.7°F-5.7°C 20.0°F-6.7°C 94% 2.1 mph E3.4 kmh E 3.3 mph5.3 kmh 30.04 in1017.3 mb 0.00 in0.0 mm 0.00 in0.0 mm 0.00 in0.0 mm
07:21 AM 21.7°F-5.7°C 20.0°F-6.7°C 94% 3.2 mph E5.1 kmh E 5.1 mph8.2 kmh 30.04 in1017.3 mb 0.00 in0.0 mm 0.00 in0.0 mm 0.00 in0.0 mm
07:20 AM 21.7°F-5.7°C 20.0°F-6.7°C 94% 2.9 mph N4.7 kmh N 4.6 mph7.4 kmh 30.04 in1017.3 mb 0.00 in0.0 mm 0.00 in0.0 mm 0.00 in0.0 mm
07:19 AM 21.9°F-5.6°C 20.0°F-6.7°C 94% 3.5 mph NNE5.6 kmh NNE 5.7 mph9.2 kmh 30.04 in1017.3 mb 0.00 in0.0 mm 0.00 in0.0 mm 0.00 in0.0 mm
07:18 AM 21.9°F-5.6°C 20.0°F-6.7°C 95% 3.1 mph NNE5.0 kmh NNE 4.9 mph7.9 kmh 30.04 in1017.3 mb 0.00 in0.0 mm 0.00 in0.0 mm 0.00 in0.0 mm
07:17 AM 21.7°F-5.7°C 20.0°F-6.7°C 95% 3.2 mph NE5.1 kmh NE 4.9 mph7.9 kmh 30.04 in1017.3 mb 0.00 in0.0 mm 0.00 in0.0 mm 0.00 in0.0 mm
07:16 AM 21.9°F-5.6°C 21.0°F-6.1°C 95% 1.3 mph 2.1 kmh 2.2 mph3.5 kmh 30.04 in1017.3 mb 0.00 in0.0 mm 0.00 in0.0 mm 0.00 in0.0 mm
07:15 AM 21.7°F-5.7°C 20.0°F-6.7°C 95% 1.3 mph N2.1 kmh N 2.0 mph3.2 kmh 30.04 in1017.3 mb 0.00 in0.0 mm 0.00 in0.0 mm 0.00 in0.0 mm
07:14 AM 21.7°F-5.7°C 20.0°F-6.7°C 95% 2.4 mph ENE3.9 kmh ENE 3.9 mph6.3 kmh 30.03 in1016.9 mb 0.00 in0.0 mm 0.00 in0.0 mm 0.00 in0.0 mm
07:13 AM 21.7°F-5.7°C 20.0°F-6.7°C 95% 2.3 mph SE3.7 kmh SE 3.7 mph6.0 kmh 30.04 in1017.3 mb 0.00 in0.0 mm 0.00 in0.0 mm 0.00 in0.0 mm
07:12 AM 21.9°F-5.6°C 21.0°F-6.1°C 95% 1.3 mph SE2.1 kmh SE 2.0 mph3.2 kmh 30.04 in1017.3 mb 0.00 in0.0 mm 0.00 in0.0 mm 0.00 in0.0 mm
07:11 AM 21.7°F-5.7°C 20.0°F-6.7°C 95% 1.9 mph SE3.1 kmh SE 3.0 mph4.8 kmh 30.04 in1017.3 mb 0.00 in0.0 mm 0.00 in0.0 mm 0.00 in0.0 mm
07:10 AM 21.6°F-5.8°C 20.0°F-6.7°C 95% 3.4 mph E5.5 kmh E 5.3 mph8.5 kmh 30.04 in1017.3 mb 0.00 in0.0 mm 0.00 in0.0 mm 0.00 in0.0 mm
07:09 AM 21.6°F-5.8°C 20.0°F-6.7°C 95% 3.3 mph NNE5.3 kmh NNE 5.2 mph8.4 kmh 30.04 in1017.3 mb 0.00 in0.0 mm 0.00 in0.0 mm 0.00 in0.0 mm
07:08 AM 21.7°F-5.7°C 20.0°F-6.7°C 95% 2.7 mph 4.3 kmh 4.3 mph6.9 kmh 30.04 in1017.3 mb 0.00 in0.0 mm 0.00 in0.0 mm 0.00 in0.0 mm
07:07 AM 21.6°F-5.8°C 20.0°F-6.7°C 95% 3.0 mph NE4.8 kmh NE 4.8 mph7.7 kmh 30.04 in1017.3 mb 0.00 in0.0 mm 0.00 in0.0 mm 0.00 in0.0 mm
07:06 AM 21.6°F-5.8°C 20.0°F-6.7°C 95% 3.7 mph N6.0 kmh N 6.0 mph9.7 kmh 30.04 in1017.3 mb 0.00 in0.0 mm 0.00 in0.0 mm 0.00 in0.0 mm
07:05 AM 21.6°F-5.8°C 20.0°F-6.7°C 95% 2.5 mph NNE4.0 kmh NNE 3.9 mph6.3 kmh 30.04 in1017.3 mb 0.00 in0.0 mm 0.00 in0.0 mm 0.00 in0.0 mm
07:04 AM 21.6°F-5.8°C 20.0°F-6.7°C 95% 3.5 mph ENE5.6 kmh ENE 5.6 mph9.0 kmh 30.04 in1017.3 mb 0.00 in0.0 mm 0.00 in0.0 mm 0.00 in0.0 mm
07:03 AM 21.6°F-5.8°C 20.0°F-6.7°C 95% 2.8 mph NE4.5 kmh NE 4.5 mph7.2 kmh 30.04 in1017.3 mb 0.00 in0.0 mm 0.00 in0.0 mm 0.00 in0.0 mm
07:02 AM 21.6°F-5.8°C 20.0°F-6.7°C 95% 1.8 mph N2.9 kmh N 2.8 mph4.5 kmh 30.04 in1017.3 mb 0.00 in0.0 mm 0.00 in0.0 mm 0.00 in0.0 mm
07:01 AM 21.6°F-5.8°C 20.0°F-6.7°C 95% 2.3 mph SE3.7 kmh SE 3.7 mph6.0 kmh 30.04 in1017.3 mb 0.00 in0.0 mm 0.00 in0.0 mm 0.00 in0.0 mm
07:00 AM 21.6°F-5.8°C 20.0°F-6.7°C 95% 1.7 mph SE2.7 kmh SE 2.6 mph4.2 kmh 30.04 in1017.3 mb 0.00 in0.0 mm 0.00 in0.0 mm 0.00 in0.0 mm
06:59 AM 21.6°F-5.8°C 20.0°F-6.7°C 95% 2.5 mph E4.0 kmh E 4.1 mph6.6 kmh 30.04 in1017.3 mb 0.00 in0.0 mm 0.00 in0.0 mm 0.00 in0.0 mm
06:58 AM 21.7°F-5.7°C 20.0°F-6.7°C 95% 1.4 mph SE2.3 kmh SE 2.1 mph3.4 kmh 30.04 in1017.3 mb 0.00 in0.0 mm 0.00 in0.0 mm 0.00 in0.0 mm
06:57 AM 21.6°F-5.8°C 20.0°F-6.7°C 95% 1.1 mph E1.8 kmh E 1.7 mph2.7 kmh 30.04 in1017.3 mb 0.00 in0.0 mm 0.00 in0.0 mm 0.00 in0.0 mm
06:56 AM 21.6°F-5.8°C 20.0°F-6.7°C 95% 0.8 mph SE1.3 kmh SE 1.4 mph2.3 kmh 30.04 in1017.3 mb 0.00 in0.0 mm 0.00 in0.0 mm 0.00 in0.0 mm
06:55 AM 21.6°F-5.8°C 20.0°F-6.7°C 95% 2.3 mph N3.7 kmh N 3.6 mph5.8 kmh 30.04 in1017.3 mb 0.00 in0.0 mm 0.00 in0.0 mm 0.00 in0.0 mm
06:54 AM 21.6°F-5.8°C 20.0°F-6.7°C 95% 2.5 mph NNE4.0 kmh NNE 3.9 mph6.3 kmh 30.04 in1017.3 mb 0.00 in0.0 mm 0.00 in0.0 mm 0.00 in0.0 mm
06:53 AM 21.6°F-5.8°C 20.0°F-6.7°C 94% 1.0 mph 1.6 kmh 1.6 mph2.6 kmh 30.04 in1017.3 mb 0.00 in0.0 mm 0.00 in0.0 mm 0.00 in0.0 mm
06:52 AM 21.6°F-5.8°C 20.0°F-6.7°C 95% 1.6 mph NNE2.6 kmh NNE 2.6 mph4.2 kmh 30.04 in1017.3 mb 0.00 in0.0 mm 0.00 in0.0 mm 0.00 in0.0 mm
06:51 AM 21.6°F-5.8°C 20.0°F-6.7°C 95% 1.8 mph NNE2.9 kmh NNE 2.8 mph4.5 kmh 30.04 in1017.3 mb 0.00 in0.0 mm 0.00 in0.0 mm 0.00 in0.0 mm
06:50 AM 21.6°F-5.8°C 20.0°F-6.7°C 94% 2.0 mph NE3.2 kmh NE 3.2 mph5.1 kmh 30.04 in1017.3 mb 0.00 in0.0 mm 0.00 in0.0 mm 0.00 in0.0 mm
06:49 AM 21.4°F-5.9°C 20.0°F-6.7°C 94% 2.8 mph 4.5 kmh 4.5 mph7.2 kmh 30.04 in1017.3 mb 0.00 in0.0 mm 0.00 in0.0 mm 0.00 in0.0 mm
06:48 AM 21.4°F-5.9°C 20.0°F-6.7°C 95% 4.2 mph 6.8 kmh 6.7 mph10.8 kmh 30.04 in1017.3 mb 0.00 in0.0 mm 0.00 in0.0 mm 0.00 in0.0 mm
06:47 AM 21.4°F-5.9°C 20.0°F-6.7°C 95% 3.4 mph N5.5 kmh N 5.3 mph8.5 kmh 30.04 in1017.3 mb 0.00 in0.0 mm 0.00 in0.0 mm 0.00 in0.0 mm
06:46 AM 21.2°F-6.0°C 20.0°F-6.7°C 95% 2.6 mph N4.2 kmh N 4.3 mph6.9 kmh 30.04 in1017.3 mb 0.00 in0.0 mm 0.00 in0.0 mm 0.00 in0.0 mm
06:45 AM 21.4°F-5.9°C 20.0°F-6.7°C 95% 1.3 mph E2.1 kmh E 2.0 mph3.2 kmh 30.04 in1017.3 mb 0.00 in0.0 mm 0.00 in0.0 mm 0.00 in0.0 mm
06:44 AM 21.2°F-6.0°C 20.0°F-6.7°C 95% 1.6 mph ESE2.6 kmh ESE 2.5 mph4.0 kmh 30.04 in1017.3 mb 0.00 in0.0 mm 0.00 in0.0 mm 0.00 in0.0 mm
06:43 AM 21.2°F-6.0°C 20.0°F-6.7°C 95% 0.8 mph SE1.3 kmh SE 1.3 mph2.1 kmh 30.04 in1017.3 mb 0.00 in0.0 mm 0.00 in0.0 mm 0.00 in0.0 mm
06:42 AM 21.2°F-6.0°C 20.0°F-6.7°C 95% 2.3 mph ENE3.7 kmh ENE 3.6 mph5.8 kmh 30.04 in1017.3 mb 0.00 in0.0 mm 0.00 in0.0 mm 0.00 in0.0 mm
06:41 AM 21.2°F-6.0°C 20.0°F-6.7°C 95% 3.1 mph ENE5.0 kmh ENE 5.0 mph8.0 kmh 30.04 in1017.3 mb 0.00 in0.0 mm 0.00 in0.0 mm 0.00 in0.0 mm
06:40 AM 21.2°F-6.0°C 20.0°F-6.7°C 95% 1.7 mph ENE2.7 kmh ENE 2.8 mph4.5 kmh 30.05 in1017.6 mb 0.00 in0.0 mm 0.00 in0.0 mm 0.00 in0.0 mm
06:39 AM 21.0°F-6.1°C 20.0°F-6.7°C 95% 1.8 mph NE2.9 kmh NE 2.9 mph4.7 kmh 30.05 in1017.6 mb 0.00 in0.0 mm 0.00 in0.0 mm 0.00 in0.0 mm
06:38 AM 21.0°F-6.1°C 20.0°F-6.7°C 95% 2.5 mph E4.0 kmh E 3.9 mph6.3 kmh 30.05 in1017.6 mb 0.00 in0.0 mm 0.00 in0.0 mm 0.00 in0.0 mm
06:37 AM 21.0°F-6.1°C 20.0°F-6.7°C 95% 2.5 mph E4.0 kmh E 4.1 mph6.6 kmh 30.05 in1017.6 mb 0.00 in0.0 mm 0.00 in0.0 mm 0.00 in0.0 mm
06:36 AM 21.0°F-6.1°C 20.0°F-6.7°C 95% 3.0 mph 4.8 kmh 4.8 mph7.7 kmh 30.05 in1017.6 mb 0.00 in0.0 mm 0.00 in0.0 mm 0.00 in0.0 mm
06:35 AM 21.0°F-6.1°C 20.0°F-6.7°C 95% 4.6 mph N7.4 kmh N 7.5 mph12.1 kmh 30.05 in1017.6 mb 0.00 in0.0 mm 0.00 in0.0 mm 0.00 in0.0 mm
06:34 AM 21.0°F-6.1°C 20.0°F-6.7°C 95% 4.1 mph 6.6 kmh 6.8 mph10.9 kmh 30.05 in1017.6 mb 0.00 in0.0 mm 0.00 in0.0 mm 0.00 in0.0 mm
06:33 AM 21.0°F-6.1°C 20.0°F-6.7°C 95% 2.0 mph 3.2 kmh 3.3 mph5.3 kmh 30.05 in1017.6 mb 0.00 in0.0 mm 0.00 in0.0 mm 0.00 in0.0 mm
06:32 AM 21.0°F-6.1°C 20.0°F-6.7°C 95% 1.0 mph 1.6 kmh 1.6 mph2.6 kmh 30.05 in1017.6 mb 0.00 in0.0 mm 0.00 in0.0 mm 0.00 in0.0 mm
06:31 AM 21.0°F-6.1°C 20.0°F-6.7°C 95% 3.0 mph N4.8 kmh N 4.9 mph7.9 kmh 30.05 in1017.6 mb 0.00 in0.0 mm 0.00 in0.0 mm 0.00 in0.0 mm
06:30 AM 20.8°F-6.2°C 20.0°F-6.7°C 95% 2.3 mph N3.7 kmh N 3.7 mph6.0 kmh 30.05 in1017.6 mb 0.00 in0.0 mm 0.00 in0.0 mm 0.00 in0.0 mm
06:29 AM 20.8°F-6.2°C 20.0°F-6.7°C 95% 2.3 mph NE3.7 kmh NE 3.6 mph5.8 kmh 30.05 in1017.6 mb 0.00 in0.0 mm 0.00 in0.0 mm 0.00 in0.0 mm
06:28 AM 20.8°F-6.2°C 20.0°F-6.7°C 95% 2.2 mph NE3.5 kmh NE 3.7 mph6.0 kmh 30.05 in1017.6 mb 0.00 in0.0 mm 0.00 in0.0 mm 0.00 in0.0 mm
06:27 AM 20.8°F-6.2°C 20.0°F-6.7°C 95% 2.5 mph NE4.0 kmh NE 4.2 mph6.8 kmh 30.05 in1017.6 mb 0.00 in0.0 mm 0.00 in0.0 mm 0.00 in0.0 mm
06:26 AM 21.0°F-6.1°C 20.0°F-6.7°C 95% 3.2 mph NNE5.1 kmh NNE 5.2 mph8.4 kmh 30.05 in1017.6 mb 0.00 in0.0 mm 0.00 in0.0 mm 0.00 in0.0 mm
06:25 AM 20.8°F-6.2°C 20.0°F-6.7°C 95% 2.1 mph E3.4 kmh E 3.2 mph5.1 kmh 30.05 in1017.6 mb 0.00 in0.0 mm 0.00 in0.0 mm 0.00 in0.0 mm
06:24 AM 20.8°F-6.2°C 20.0°F-6.7°C 95% 2.7 mph N4.3 kmh N 4.3 mph6.9 kmh 30.05 in1017.6 mb 0.00 in0.0 mm 0.00 in0.0 mm 0.00 in0.0 mm
06:23 AM 20.8°F-6.2°C 20.0°F-6.7°C 95% 4.0 mph N6.4 kmh N 6.7 mph10.8 kmh 30.05 in1017.6 mb 0.00 in0.0 mm 0.00 in0.0 mm 0.00 in0.0 mm
06:22 AM 20.8°F-6.2°C 20.0°F-6.7°C 95% 2.9 mph NE4.7 kmh NE 4.6 mph7.4 kmh 30.05 in1017.6 mb 0.00 in0.0 mm 0.00 in0.0 mm 0.00 in0.0 mm
06:20 AM 20.8°F-6.2°C 20.0°F-6.7°C 95% 3.4 mph 5.5 kmh 5.6 mph9.0 kmh 30.05 in1017.6 mb 0.00 in0.0 mm 0.00 in0.0 mm 0.00 in0.0 mm
06:19 AM 20.8°F-6.2°C 20.0°F-6.7°C 95% 3.5 mph NE5.6 kmh NE 5.8 mph9.3 kmh 30.05 in1017.6 mb 0.00 in0.0 mm 0.00 in0.0 mm 0.00 in0.0 mm
06:18 AM 20.8°F-6.2°C 20.0°F-6.7°C 95% 3.7 mph 6.0 kmh 5.9 mph9.5 kmh 30.05 in1017.6 mb 0.00 in0.0 mm 0.00 in0.0 mm 0.00 in0.0 mm
06:17 AM 20.8°F-6.2°C 20.0°F-6.7°C 95% 4.7 mph 7.6 kmh 7.7 mph12.4 kmh 30.05 in1017.6 mb 0.00 in0.0 mm 0.00 in0.0 mm 0.00 in0.0 mm
06:16 AM 20.7°F-6.3°C 19.0°F-7.2°C 95% 4.7 mph 7.6 kmh 7.6 mph12.2 kmh 30.05 in1017.6 mb 0.00 in0.0 mm 0.00 in0.0 mm 0.00 in0.0 mm
06:15 AM 20.8°F-6.2°C 20.0°F-6.7°C 95% 4.2 mph 6.8 kmh 6.9 mph11.1 kmh 30.05 in1017.6 mb 0.00 in0.0 mm 0.00 in0.0 mm 0.00 in0.0 mm
06:14 AM 20.7°F-6.3°C 19.0°F-7.2°C 95% 4.2 mph 6.8 kmh 6.5 mph10.5 kmh 30.05 in1017.6 mb 0.00 in0.0 mm 0.00 in0.0 mm 0.00 in0.0 mm
06:13 AM 20.8°F-6.2°C 20.0°F-6.7°C 95% 6.4 mph 10.3 kmh 10.4 mph16.7 kmh 30.05 in1017.6 mb 0.00 in0.0 mm 0.00 in0.0 mm 0.00 in0.0 mm
06:12 AM 20.8°F-6.2°C 20.0°F-6.7°C 95% 3.8 mph N6.1 kmh N 6.0 mph9.7 kmh 30.05 in1017.6 mb 0.00 in0.0 mm 0.00 in0.0 mm 0.00 in0.0 mm
06:11 AM 20.8°F-6.2°C 20.0°F-6.7°C 95% 4.2 mph 6.8 kmh 6.5 mph10.5 kmh 30.05 in1017.6 mb 0.00 in0.0 mm 0.00 in0.0 mm 0.00 in0.0 mm
06:10 AM 20.7°F-6.3°C 19.0°F-7.2°C 95% 4.1 mph 6.6 kmh 6.4 mph10.3 kmh 30.05 in1017.6 mb 0.00 in0.0 mm 0.00 in0.0 mm 0.00 in0.0 mm
06:09 AM 20.7°F-6.3°C 19.0°F-7.2°C 95% 5.4 mph 8.7 kmh 8.8 mph14.2 kmh 30.05 in1017.6 mb 0.00 in0.0 mm 0.00 in0.0 mm 0.00 in0.0 mm
06:08 AM 20.7°F-6.3°C 19.0°F-7.2°C 95% 4.7 mph 7.6 kmh 7.3 mph11.7 kmh 30.05 in1017.6 mb 0.00 in0.0 mm 0.00 in0.0 mm 0.00 in0.0 mm
06:07 AM 20.7°F-6.3°C 19.0°F-7.2°C 95% 5.1 mph 8.2 kmh 8.0 mph12.9 kmh 30.05 in1017.6 mb 0.00 in0.0 mm 0.00 in0.0 mm 0.00 in0.0 mm
06:06 AM 20.7°F-6.3°C 19.0°F-7.2°C 95% 5.3 mph 8.5 kmh 8.5 mph13.7 kmh 30.05 in1017.6 mb 0.00 in0.0 mm 0.00 in0.0 mm 0.00 in0.0 mm
06:05 AM 20.7°F-6.3°C 19.0°F-7.2°C 95% 3.1 mph 5.0 kmh 4.9 mph7.9 kmh 30.05 in1017.6 mb 0.00 in0.0 mm 0.00 in0.0 mm 0.00 in0.0 mm
06:04 AM 20.5°F-6.4°C 19.0°F-7.2°C 94% 5.1 mph 8.2 kmh 8.4 mph13.5 kmh 30.05 in1017.6 mb 0.00 in0.0 mm 0.00 in0.0 mm 0.00 in0.0 mm
06:03 AM 20.7°F-6.3°C 19.0°F-7.2°C 94% 1.9 mph 3.1 kmh 3.3 mph5.3 kmh 30.05 in1017.6 mb 0.00 in0.0 mm 0.00 in0.0 mm 0.00 in0.0 mm
06:02 AM 20.5°F-6.4°C 19.0°F-7.2°C 94% 2.8 mph 4.5 kmh 4.4 mph7.1 kmh 30.05 in1017.6 mb 0.00 in0.0 mm 0.00 in0.0 mm 0.00 in0.0 mm
06:01 AM 20.7°F-6.3°C 19.0°F-7.2°C 95% 4.0 mph 6.4 kmh 6.3 mph10.1 kmh 30.05 in1017.6 mb 0.00 in0.0 mm 0.00 in0.0 mm 0.00 in0.0 mm
06:00 AM 20.5°F-6.4°C 19.0°F-7.2°C 94% 1.6 mph N2.6 kmh N 2.6 mph4.2 kmh 30.05 in1017.6 mb 0.00 in0.0 mm 0.00 in0.0 mm 0.00 in0.0 mm
05:59 AM 20.5°F-6.4°C 19.0°F-7.2°C 94% 3.0 mph 4.8 kmh 4.7 mph7.6 kmh 30.05 in1017.6 mb 0.00 in0.0 mm 0.00 in0.0 mm 0.00 in0.0 mm
05:58 AM 20.5°F-6.4°C 19.0°F-7.2°C 95% 2.7 mph 4.3 kmh 4.1 mph6.6 kmh 30.05 in1017.6 mb 0.00 in0.0 mm 0.00 in0.0 mm 0.00 in0.0 mm
05:57 AM 20.5°F-6.4°C 19.0°F-7.2°C 95% 3.3 mph 5.3 kmh 5.3 mph8.5 kmh 30.05 in1017.6 mb 0.00 in0.0 mm 0.00 in0.0 mm 0.00 in0.0 mm
05:56 AM 20.3°F-6.5°C 19.0°F-7.2°C 95% 3.1 mph 5.0 kmh 4.9 mph7.9 kmh 30.05 in1017.6 mb 0.00 in0.0 mm 0.00 in0.0 mm 0.00 in0.0 mm
05:55 AM 20.3°F-6.5°C 19.0°F-7.2°C 95% 4.4 mph 7.1 kmh 7.0 mph11.3 kmh 30.05 in1017.6 mb 0.00 in0.0 mm 0.00 in0.0 mm 0.00 in0.0 mm
05:54 AM 20.5°F-6.4°C 19.0°F-7.2°C 95% 6.1 mph 9.8 kmh 9.8 mph15.8 kmh 30.05 in1017.6 mb 0.00 in0.0 mm 0.00 in0.0 mm 0.00 in0.0 mm
05:53 AM 20.7°F-6.3°C 19.0°F-7.2°C 95% 4.5 mph 7.2 kmh 7.0 mph11.3 kmh 30.05 in1017.6 mb 0.00 in0.0 mm 0.00 in0.0 mm 0.00 in0.0 mm
05:52 AM 20.3°F-6.5°C 19.0°F-7.2°C 95% 3.4 mph N5.5 kmh N 5.4 mph8.7 kmh 30.05 in1017.6 mb 0.00 in0.0 mm 0.00 in0.0 mm 0.00 in0.0 mm
05:51 AM 20.3°F-6.5°C 19.0°F-7.2°C 95% 3.1 mph 5.0 kmh 4.8 mph7.7 kmh 30.06 in1017.9 mb 0.00 in0.0 mm 0.00 in0.0 mm 0.00 in0.0 mm
05:50 AM 20.3°F-6.5°C 19.0°F-7.2°C 95% 3.9 mph 6.3 kmh 6.1 mph9.8 kmh 30.06 in1017.9 mb 0.00 in0.0 mm 0.00 in0.0 mm 0.00 in0.0 mm
05:49 AM 20.3°F-6.5°C 19.0°F-7.2°C 95% 4.2 mph N6.8 kmh N 6.7 mph10.8 kmh 30.06 in1017.9 mb 0.00 in0.0 mm 0.00 in0.0 mm 0.00 in0.0 mm
05:48 AM 20.3°F-6.5°C 19.0°F-7.2°C 95% 4.2 mph 6.8 kmh 6.7 mph10.8 kmh 30.06 in1017.9 mb 0.00 in0.0 mm 0.00 in0.0 mm 0.00 in0.0 mm
05:47 AM 20.3°F-6.5°C 19.0°F-7.2°C 95% 4.7 mph 7.6 kmh 7.5 mph12.1 kmh 30.05 in1017.6 mb 0.00 in0.0 mm 0.00 in0.0 mm 0.00 in0.0 mm
05:46 AM 20.3°F-6.5°C 19.0°F-7.2°C 95% 4.3 mph 6.9 kmh 6.9 mph11.1 kmh 30.06 in1017.9 mb 0.00 in0.0 mm 0.00 in0.0 mm 0.00 in0.0 mm
05:45 AM 20.3°F-6.5°C 19.0°F-7.2°C 95% 4.7 mph 7.6 kmh 7.8 mph12.6 kmh 30.06 in1017.9 mb 0.00 in0.0 mm 0.00 in0.0 mm 0.00 in0.0 mm
05:44 AM 20.3°F-6.5°C 19.0°F-7.2°C 95% 3.5 mph 5.6 kmh 5.4 mph8.7 kmh 30.05 in1017.6 mb 0.00 in0.0 mm 0.00 in0.0 mm 0.00 in0.0 mm
05:43 AM 20.3°F-6.5°C 19.0°F-7.2°C 95% 4.0 mph 6.4 kmh 6.4 mph10.3 kmh 30.06 in1017.9 mb 0.00 in0.0 mm 0.00 in0.0 mm 0.00 in0.0 mm
05:42 AM 20.3°F-6.5°C 19.0°F-7.2°C 95% 1.4 mph 2.3 kmh 2.2 mph3.5 kmh 30.06 in1017.9 mb 0.00 in0.0 mm 0.00 in0.0 mm 0.00 in0.0 mm
05:41 AM 20.3°F-6.5°C 19.0°F-7.2°C 95% 2.7 mph N4.3 kmh N 4.2 mph6.8 kmh 30.05 in1017.6 mb 0.00 in0.0 mm 0.00 in0.0 mm 0.00 in0.0 mm
05:40 AM 20.1°F-6.6°C 19.0°F-7.2°C 95% 2.5 mph N4.0 kmh N 4.0 mph6.4 kmh 30.05 in1017.6 mb 0.00 in0.0 mm 0.00 in0.0 mm 0.00 in0.0 mm
05:39 AM 20.3°F-6.5°C 19.0°F-7.2°C 95% 3.0 mph N4.8 kmh N 4.7 mph7.6 kmh 30.05 in1017.6 mb 0.00 in0.0 mm 0.00 in0.0 mm 0.00 in0.0 mm
05:38 AM 20.1°F-6.6°C 19.0°F-7.2°C 95% 3.8 mph N6.1 kmh N 6.0 mph9.7 kmh 30.05 in1017.6 mb 0.00 in0.0 mm 0.00 in0.0 mm 0.00 in0.0 mm
05:37 AM 20.1°F-6.6°C 19.0°F-7.2°C 95% 2.7 mph 4.3 kmh 4.2 mph6.8 kmh 30.06 in1017.9 mb 0.00 in0.0 mm 0.00 in0.0 mm 0.00 in0.0 mm
05:36 AM 20.1°F-6.6°C 19.0°F-7.2°C 95% 3.0 mph NNE4.8 kmh NNE 4.9 mph7.9 kmh 30.05 in1017.6 mb 0.00 in0.0 mm 0.00 in0.0 mm 0.00 in0.0 mm
05:35 AM 20.1°F-6.6°C 19.0°F-7.2°C 95% 3.9 mph 6.3 kmh 6.1 mph9.8 kmh 30.06 in1017.9 mb 0.00 in0.0 mm 0.00 in0.0 mm 0.00 in0.0 mm
05:34 AM 20.1°F-6.6°C 19.0°F-7.2°C 95% 3.7 mph N6.0 kmh N 5.8 mph9.3 kmh 30.06 in1017.9 mb 0.00 in0.0 mm 0.00 in0.0 mm 0.00 in0.0 mm
05:33 AM 20.1°F-6.6°C 19.0°F-7.2°C 95% 6.1 mph N9.8 kmh N 9.5 mph15.3 kmh 30.06 in1017.9 mb 0.00 in0.0 mm 0.00 in0.0 mm 0.00 in0.0 mm
05:32 AM 20.1°F-6.6°C 19.0°F-7.2°C 95% 4.4 mph 7.1 kmh 7.2 mph11.6 kmh 30.06 in1017.9 mb 0.00 in0.0 mm 0.00 in0.0 mm 0.00 in0.0 mm
05:31 AM 19.9°F-6.7°C 19.0°F-7.2°C 95% 4.1 mph 6.6 kmh 6.4 mph10.3 kmh 30.06 in1017.9 mb 0.00 in0.0 mm 0.00 in0.0 mm 0.00 in0.0 mm
05:30 AM 20.1°F-6.6°C 19.0°F-7.2°C 95% 5.0 mph 8.0 kmh 8.1 mph13.0 kmh 30.06 in1017.9 mb 0.00 in0.0 mm 0.00 in0.0 mm 0.00 in0.0 mm
05:29 AM 20.1°F-6.6°C 19.0°F-7.2°C 95% 4.6 mph 7.4 kmh 7.8 mph12.6 kmh 30.06 in1017.9 mb 0.00 in0.0 mm 0.00 in0.0 mm 0.00 in0.0 mm
05:28 AM 19.9°F-6.7°C 19.0°F-7.2°C 95% 2.6 mph 4.2 kmh 4.0 mph6.4 kmh 30.06 in1017.9 mb 0.00 in0.0 mm 0.00 in0.0 mm 0.00 in0.0 mm
05:27 AM 19.9°F-6.7°C 19.0°F-7.2°C 95% 3.1 mph 5.0 kmh 4.8 mph7.7 kmh 30.06 in1017.9 mb 0.00 in0.0 mm 0.00 in0.0 mm 0.00 in0.0 mm
05:26 AM 19.9°F-6.7°C 19.0°F-7.2°C 95% 3.9 mph 6.3 kmh 6.2 mph10.0 kmh 30.06 in1017.9 mb 0.00 in0.0 mm 0.00 in0.0 mm 0.00 in0.0 mm
05:25 AM 19.9°F-6.7°C 19.0°F-7.2°C 95% 3.7 mph 6.0 kmh 6.0 mph9.7 kmh 30.06 in1017.9 mb 0.00 in0.0 mm 0.00 in0.0 mm 0.00 in0.0 mm
05:24 AM 19.9°F-6.7°C 19.0°F-7.2°C 95% 4.0 mph 6.4 kmh 6.4 mph10.3 kmh 30.06 in1017.9 mb 0.00 in0.0 mm 0.00 in0.0 mm 0.00 in0.0 mm
05:23 AM 19.8°F-6.8°C 19.0°F-7.2°C 95% 3.3 mph NE5.3 kmh NE 5.2 mph8.4 kmh 30.06 in1017.9 mb 0.00 in0.0 mm 0.00 in0.0 mm 0.00 in0.0 mm
05:22 AM 19.8°F-6.8°C 19.0°F-7.2°C 95% 3.3 mph 5.3 kmh 5.3 mph8.5 kmh 30.06 in1017.9 mb 0.00 in0.0 mm 0.00 in0.0 mm 0.00 in0.0 mm
05:21 AM 19.8°F-6.8°C 19.0°F-7.2°C 95% 2.1 mph 3.4 kmh 3.3 mph5.3 kmh 30.06 in1017.9 mb 0.00 in0.0 mm 0.00 in0.0 mm 0.00 in0.0 mm
05:20 AM 19.6°F-6.9°C 18.0°F-7.8°C 95% 4.1 mph N6.6 kmh N 6.6 mph10.6 kmh 30.06 in1017.9 mb 0.00 in0.0 mm 0.00 in0.0 mm 0.00 in0.0 mm
05:19 AM 19.8°F-6.8°C 19.0°F-7.2°C 95% 1.3 mph N2.1 kmh N 2.0 mph3.2 kmh 30.06 in1017.9 mb 0.00 in0.0 mm 0.00 in0.0 mm 0.00 in0.0 mm
05:18 AM 19.8°F-6.8°C 19.0°F-7.2°C 95% 3.0 mph NE4.8 kmh NE 4.7 mph7.6 kmh 30.06 in1017.9 mb 0.00 in0.0 mm 0.00 in0.0 mm 0.00 in0.0 mm
05:17 AM 19.8°F-6.8°C 19.0°F-7.2°C 95% 3.0 mph 4.8 kmh 4.7 mph7.6 kmh 30.06 in1017.9 mb 0.00 in0.0 mm 0.00 in0.0 mm 0.00 in0.0 mm
05:16 AM 19.6°F-6.9°C 18.0°F-7.8°C 95% 2.6 mph 4.2 kmh 4.2 mph6.8 kmh 30.06 in1017.9 mb 0.00 in0.0 mm 0.00 in0.0 mm 0.00 in0.0 mm
05:15 AM 19.6°F-6.9°C 18.0°F-7.8°C 95% 1.8 mph 2.9 kmh 2.9 mph4.7 kmh 30.06 in1017.9 mb 0.00 in0.0 mm 0.00 in0.0 mm 0.00 in0.0 mm
05:14 AM 19.6°F-6.9°C 18.0°F-7.8°C 95% 3.1 mph 5.0 kmh 4.7 mph7.6 kmh 30.06 in1017.9 mb 0.00 in0.0 mm 0.00 in0.0 mm 0.00 in0.0 mm
05:13 AM 19.6°F-6.9°C 18.0°F-7.8°C 95% 4.1 mph 6.6 kmh 6.4 mph10.3 kmh 30.06 in1017.9 mb 0.00 in0.0 mm 0.00 in0.0 mm 0.00 in0.0 mm
05:12 AM 19.4°F-7.0°C 18.0°F-7.8°C 95% 2.8 mph 4.5 kmh 4.4 mph7.1 kmh 30.06 in1017.9 mb 0.00 in0.0 mm 0.00 in0.0 mm 0.00 in0.0 mm
05:11 AM 19.4°F-7.0°C 18.0°F-7.8°C 95% 3.3 mph N5.3 kmh N 5.0 mph8.0 kmh 30.06 in1017.9 mb 0.00 in0.0 mm 0.00 in0.0 mm 0.00 in0.0 mm
05:10 AM 19.6°F-6.9°C 18.0°F-7.8°C 95% 3.7 mph N6.0 kmh N 5.7 mph9.2 kmh 30.06 in1017.9 mb 0.00 in0.0 mm 0.00 in0.0 mm 0.00 in0.0 mm
05:09 AM 19.4°F-7.0°C 18.0°F-7.8°C 94% 4.5 mph 7.2 kmh 7.2 mph11.6 kmh 30.06 in1017.9 mb 0.00 in0.0 mm 0.00 in0.0 mm 0.00 in0.0 mm
05:08 AM 19.4°F-7.0°C 18.0°F-7.8°C 94% 3.1 mph 5.0 kmh 4.8 mph7.7 kmh 30.06 in1017.9 mb 0.00 in0.0 mm 0.00 in0.0 mm 0.00 in0.0 mm
05:07 AM 19.4°F-7.0°C 18.0°F-7.8°C 94% 3.1 mph 5.0 kmh 5.0 mph8.0 kmh 30.06 in1017.9 mb 0.00 in0.0 mm 0.00 in0.0 mm 0.00 in0.0 mm
05:06 AM 19.4°F-7.0°C 18.0°F-7.8°C 94% 2.9 mph 4.7 kmh 4.6 mph7.4 kmh 30.06 in1017.9 mb 0.00 in0.0 mm 0.00 in0.0 mm 0.00 in0.0 mm
05:05 AM 19.4°F-7.0°C 18.0°F-7.8°C 94% 2.0 mph 3.2 kmh 3.2 mph5.1 kmh 30.06 in1017.9 mb 0.00 in0.0 mm 0.00 in0.0 mm 0.00 in0.0 mm
05:04 AM 19.4°F-7.0°C 18.0°F-7.8°C 94% 1.9 mph 3.1 kmh 3.0 mph4.8 kmh 30.06 in1017.9 mb 0.00 in0.0 mm 0.00 in0.0 mm 0.00 in0.0 mm
05:03 AM 19.2°F-7.1°C 18.0°F-7.8°C 94% 1.1 mph 1.8 kmh 1.8 mph2.9 kmh 30.06 in1017.9 mb 0.00 in0.0 mm 0.00 in0.0 mm 0.00 in0.0 mm
05:02 AM 19.2°F-7.1°C 18.0°F-7.8°C 94% 2.1 mph 3.4 kmh 3.2 mph5.1 kmh 30.06 in1017.9 mb 0.00 in0.0 mm 0.00 in0.0 mm 0.00 in0.0 mm
05:01 AM 19.2°F-7.1°C 18.0°F-7.8°C 94% 4.0 mph N6.4 kmh N 6.0 mph9.7 kmh 30.06 in1017.9 mb 0.00 in0.0 mm 0.00 in0.0 mm 0.00 in0.0 mm
04:59 AM 19.2°F-7.1°C 18.0°F-7.8°C 94% 2.6 mph 4.2 kmh 4.1 mph6.6 kmh 30.07 in1018.3 mb 0.00 in0.0 mm 0.00 in0.0 mm 0.00 in0.0 mm
04:58 AM 19.2°F-7.1°C 18.0°F-7.8°C 94% 1.4 mph 2.3 kmh 2.1 mph3.4 kmh 30.06 in1017.9 mb 0.00 in0.0 mm 0.00 in0.0 mm 0.00 in0.0 mm
04:57 AM 19.2°F-7.1°C 18.0°F-7.8°C 94% 1.8 mph 2.9 kmh 2.8 mph4.5 kmh 30.07 in1018.3 mb 0.00 in0.0 mm 0.00 in0.0 mm 0.00 in0.0 mm
04:56 AM 19.2°F-7.1°C 18.0°F-7.8°C 94% 2.2 mph 3.5 kmh 3.6 mph5.8 kmh 30.06 in1017.9 mb 0.00 in0.0 mm 0.00 in0.0 mm 0.00 in0.0 mm
04:55 AM 19.2°F-7.1°C 18.0°F-7.8°C 94% 2.8 mph 4.5 kmh 4.4 mph7.1 kmh 30.07 in1018.3 mb 0.00 in0.0 mm 0.00 in0.0 mm 0.00 in0.0 mm
04:54 AM 19.2°F-7.1°C 18.0°F-7.8°C 94% 3.2 mph N5.1 kmh N 5.2 mph8.4 kmh 30.07 in1018.3 mb 0.00 in0.0 mm 0.00 in0.0 mm 0.00 in0.0 mm
04:53 AM 19.0°F-7.2°C 17.0°F-8.3°C 94% 3.3 mph 5.3 kmh 5.3 mph8.5 kmh 30.07 in1018.3 mb 0.00 in0.0 mm 0.00 in0.0 mm 0.00 in0.0 mm
04:52 AM 19.2°F-7.1°C 18.0°F-7.8°C 94% 3.8 mph 6.1 kmh 6.1 mph9.8 kmh 30.07 in1018.3 mb 0.00 in0.0 mm 0.00 in0.0 mm 0.00 in0.0 mm
04:51 AM 19.2°F-7.1°C 18.0°F-7.8°C 94% 4.2 mph N6.8 kmh N 6.9 mph11.1 kmh 30.07 in1018.3 mb 0.00 in0.0 mm 0.00 in0.0 mm 0.00 in0.0 mm
04:50 AM 19.2°F-7.1°C 18.0°F-7.8°C 94% 3.8 mph 6.1 kmh 6.1 mph9.8 kmh 30.07 in1018.3 mb 0.00 in0.0 mm 0.00 in0.0 mm 0.00 in0.0 mm
04:49 AM 19.2°F-7.1°C 18.0°F-7.8°C 94% 4.6 mph 7.4 kmh 7.2 mph11.6 kmh 30.07 in1018.3 mb 0.00 in0.0 mm 0.00 in0.0 mm 0.00 in0.0 mm
04:48 AM 19.2°F-7.1°C 18.0°F-7.8°C 94% 4.1 mph 6.6 kmh 6.7 mph10.8 kmh 30.07 in1018.3 mb 0.00 in0.0 mm 0.00 in0.0 mm 0.00 in0.0 mm
04:47 AM 19.2°F-7.1°C 18.0°F-7.8°C 94% 4.0 mph 6.4 kmh 6.4 mph10.3 kmh 30.07 in1018.3 mb 0.00 in0.0 mm 0.00 in0.0 mm 0.00 in0.0 mm
04:46 AM 19.4°F-7.0°C 18.0°F-7.8°C 94% 3.5 mph 5.6 kmh 5.8 mph9.3 kmh 30.07 in1018.3 mb 0.00 in0.0 mm 0.00 in0.0 mm 0.00 in0.0 mm
04:45 AM 19.2°F-7.1°C 18.0°F-7.8°C 94% 2.5 mph 4.0 kmh 4.0 mph6.4 kmh 30.07 in1018.3 mb 0.00 in0.0 mm 0.00 in0.0 mm 0.00 in0.0 mm
04:44 AM 19.4°F-7.0°C 18.0°F-7.8°C 94% 2.5 mph N4.0 kmh N 3.8 mph6.1 kmh 30.07 in1018.3 mb 0.00 in0.0 mm 0.00 in0.0 mm 0.00 in0.0 mm
04:43 AM 19.2°F-7.1°C 18.0°F-7.8°C 94% 2.3 mph 3.7 kmh 3.6 mph5.8 kmh 30.07 in1018.3 mb 0.00 in0.0 mm 0.00 in0.0 mm 0.00 in0.0 mm
04:42 AM 19.4°F-7.0°C 18.0°F-7.8°C 94% 3.6 mph 5.8 kmh 5.7 mph9.2 kmh 30.07 in1018.3 mb 0.00 in0.0 mm 0.00 in0.0 mm 0.00 in0.0 mm
04:41 AM 19.4°F-7.0°C 18.0°F-7.8°C 94% 3.0 mph 4.8 kmh 5.0 mph8.0 kmh 30.07 in1018.3 mb 0.00 in0.0 mm 0.00 in0.0 mm 0.00 in0.0 mm
04:40 AM 19.4°F-7.0°C 18.0°F-7.8°C 94% 1.4 mph 2.3 kmh 2.4 mph3.9 kmh 30.07 in1018.3 mb 0.00 in0.0 mm 0.00 in0.0 mm 0.00 in0.0 mm
04:39 AM 19.4°F-7.0°C 18.0°F-7.8°C 94% 3.0 mph 4.8 kmh 4.8 mph7.7 kmh 30.07 in1018.3 mb 0.00 in0.0 mm 0.00 in0.0 mm 0.00 in0.0 mm
04:38 AM 19.4°F-7.0°C 18.0°F-7.8°C 94% 3.5 mph 5.6 kmh 5.8 mph9.3 kmh 30.07 in1018.3 mb 0.00 in0.0 mm 0.00 in0.0 mm 0.00 in0.0 mm
04:37 AM 19.4°F-7.0°C 18.0°F-7.8°C 94% 4.2 mph 6.8 kmh 6.9 mph11.1 kmh 30.07 in1018.3 mb 0.00 in0.0 mm 0.00 in0.0 mm 0.00 in0.0 mm
04:36 AM 19.2°F-7.1°C 18.0°F-7.8°C 94% 2.3 mph 3.7 kmh 3.6 mph5.8 kmh 30.07 in1018.3 mb 0.00 in0.0 mm 0.00 in0.0 mm 0.00 in0.0 mm
04:35 AM 19.4°F-7.0°C 18.0°F-7.8°C 94% 3.0 mph 4.8 kmh 4.8 mph7.7 kmh 30.07 in1018.3 mb 0.00 in0.0 mm 0.00 in0.0 mm 0.00 in0.0 mm
04:34 AM 19.4°F-7.0°C 18.0°F-7.8°C 95% 4.4 mph 7.1 kmh 7.1 mph11.4 kmh 30.07 in1018.3 mb 0.00 in0.0 mm 0.00 in0.0 mm 0.00 in0.0 mm
04:33 AM 19.2°F-7.1°C 18.0°F-7.8°C 95% 3.4 mph 5.5 kmh 5.5 mph8.9 kmh 30.07 in1018.3 mb 0.00 in0.0 mm 0.00 in0.0 mm 0.00 in0.0 mm
04:32 AM 19.2°F-7.1°C 18.0°F-7.8°C 95% 3.0 mph 4.8 kmh 4.6 mph7.4 kmh 30.07 in1018.3 mb 0.00 in0.0 mm 0.00 in0.0 mm 0.00 in0.0 mm
04:31 AM 19.2°F-7.1°C 18.0°F-7.8°C 94% 2.7 mph 4.3 kmh 4.3 mph6.9 kmh 30.07 in1018.3 mb 0.00 in0.0 mm 0.00 in0.0 mm 0.00 in0.0 mm
04:30 AM 19.2°F-7.1°C 18.0°F-7.8°C 95% 4.1 mph 6.6 kmh 6.5 mph10.5 kmh 30.07 in1018.3 mb 0.00 in0.0 mm 0.00 in0.0 mm 0.00 in0.0 mm
04:29 AM 19.2°F-7.1°C 18.0°F-7.8°C 95% 2.9 mph N4.7 kmh N 4.5 mph7.2 kmh 30.07 in1018.3 mb 0.00 in0.0 mm 0.00 in0.0 mm 0.00 in0.0 mm
04:28 AM 19.0°F-7.2°C 18.0°F-7.8°C 95% 3.8 mph 6.1 kmh 6.1 mph9.8 kmh 30.08 in1018.6 mb 0.00 in0.0 mm 0.00 in0.0 mm 0.00 in0.0 mm
04:27 AM 19.0°F-7.2°C 18.0°F-7.8°C 95% 3.6 mph 5.8 kmh 5.9 mph9.5 kmh 30.08 in1018.6 mb 0.00 in0.0 mm 0.00 in0.0 mm 0.00 in0.0 mm
04:26 AM 19.0°F-7.2°C 18.0°F-7.8°C 95% 2.3 mph 3.7 kmh 3.5 mph5.6 kmh 30.08 in1018.6 mb 0.00 in0.0 mm 0.00 in0.0 mm 0.00 in0.0 mm
04:25 AM 19.0°F-7.2°C 18.0°F-7.8°C 95% 2.8 mph 4.5 kmh 4.5 mph7.2 kmh 30.08 in1018.6 mb 0.00 in0.0 mm 0.00 in0.0 mm 0.00 in0.0 mm
04:24 AM 19.0°F-7.2°C 18.0°F-7.8°C 94% 4.0 mph 6.4 kmh 6.3 mph10.1 kmh 30.08 in1018.6 mb 0.00 in0.0 mm 0.00 in0.0 mm 0.00 in0.0 mm
04:23 AM 19.0°F-7.2°C 18.0°F-7.8°C 95% 3.4 mph 5.5 kmh 5.4 mph8.7 kmh 30.08 in1018.6 mb 0.00 in0.0 mm 0.00 in0.0 mm 0.00 in0.0 mm
04:22 AM 19.0°F-7.2°C 18.0°F-7.8°C 95% 3.7 mph 6.0 kmh 5.8 mph9.3 kmh 30.08 in1018.6 mb 0.00 in0.0 mm 0.00 in0.0 mm 0.00 in0.0 mm
04:21 AM 19.0°F-7.2°C 18.0°F-7.8°C 95% 4.1 mph N6.6 kmh N 6.6 mph10.6 kmh 30.07 in1018.3 mb 0.00 in0.0 mm 0.00 in0.0 mm 0.00 in0.0 mm
04:20 AM 18.9°F-7.3°C 18.0°F-7.8°C 95% 1.8 mph NE2.9 kmh NE 3.1 mph5.0 kmh 30.08 in1018.6 mb 0.00 in0.0 mm 0.00 in0.0 mm 0.00 in0.0 mm
04:19 AM 19.0°F-7.2°C 18.0°F-7.8°C 95% 4.1 mph 6.6 kmh 6.7 mph10.8 kmh 30.08 in1018.6 mb 0.00 in0.0 mm 0.00 in0.0 mm 0.00 in0.0 mm
04:18 AM 19.0°F-7.2°C 18.0°F-7.8°C 95% 4.1 mph 6.6 kmh 6.7 mph10.8 kmh 30.08 in1018.6 mb 0.00 in0.0 mm 0.00 in0.0 mm 0.00 in0.0 mm
04:17 AM 18.9°F-7.3°C 18.0°F-7.8°C 95% 4.4 mph 7.1 kmh 7.2 mph11.6 kmh 30.08 in1018.6 mb 0.00 in0.0 mm 0.00 in0.0 mm 0.00 in0.0 mm
04:16 AM 19.0°F-7.2°C 18.0°F-7.8°C 94% 4.9 mph 7.9 kmh 7.8 mph12.6 kmh 30.08 in1018.6 mb 0.00 in0.0 mm 0.00 in0.0 mm 0.00 in0.0 mm
04:15 AM 18.9°F-7.3°C 17.0°F-8.3°C 94% 3.7 mph 6.0 kmh 5.8 mph9.3 kmh 30.08 in1018.6 mb 0.00 in0.0 mm 0.00 in0.0 mm 0.00 in0.0 mm
04:14 AM 18.9°F-7.3°C 17.0°F-8.3°C 94% 3.8 mph 6.1 kmh 6.1 mph9.8 kmh 30.08 in1018.6 mb 0.00 in0.0 mm 0.00 in0.0 mm 0.00 in0.0 mm
04:13 AM 19.0°F-7.2°C 18.0°F-7.8°C 94% 3.7 mph N6.0 kmh N 5.8 mph9.3 kmh 30.08 in1018.6 mb 0.00 in0.0 mm 0.00 in0.0 mm 0.00 in0.0 mm
04:12 AM 18.9°F-7.3°C 17.0°F-8.3°C 94% 3.1 mph 5.0 kmh 5.2 mph8.4 kmh 30.08 in1018.6 mb 0.00 in0.0 mm 0.00 in0.0 mm 0.00 in0.0 mm
04:11 AM 18.9°F-7.3°C 17.0°F-8.3°C 94% 3.5 mph 5.6 kmh 5.6 mph9.0 kmh 30.08 in1018.6 mb 0.00 in0.0 mm 0.00 in0.0 mm 0.00 in0.0 mm
04:10 AM 18.7°F-7.4°C 17.0°F-8.3°C 94% 3.5 mph 5.6 kmh 5.6 mph9.0 kmh 30.08 in1018.6 mb 0.00 in0.0 mm 0.00 in0.0 mm 0.00 in0.0 mm
04:09 AM 18.7°F-7.4°C 17.0°F-8.3°C 94% 3.1 mph N5.0 kmh N 4.7 mph7.6 kmh 30.08 in1018.6 mb 0.00 in0.0 mm 0.00 in0.0 mm 0.00 in0.0 mm
04:08 AM 18.7°F-7.4°C 17.0°F-8.3°C 94% 3.5 mph 5.6 kmh 5.4 mph8.7 kmh 30.08 in1018.6 mb 0.00 in0.0 mm 0.00 in0.0 mm 0.00 in0.0 mm
04:07 AM 18.7°F-7.4°C 17.0°F-8.3°C 94% 5.6 mph 9.0 kmh 8.7 mph14.0 kmh 30.08 in1018.6 mb 0.00 in0.0 mm 0.00 in0.0 mm 0.00 in0.0 mm
04:06 AM 18.7°F-7.4°C 17.0°F-8.3°C 94% 3.9 mph N6.3 kmh N 6.3 mph10.1 kmh 30.08 in1018.6 mb 0.00 in0.0 mm 0.00 in0.0 mm 0.00 in0.0 mm
04:05 AM 18.7°F-7.4°C 17.0°F-8.3°C 94% 2.6 mph N4.2 kmh N 3.9 mph6.3 kmh 30.08 in1018.6 mb 0.00 in0.0 mm 0.00 in0.0 mm 0.00 in0.0 mm
04:04 AM 18.7°F-7.4°C 17.0°F-8.3°C 94% 3.8 mph 6.1 kmh 6.1 mph9.8 kmh 30.08 in1018.6 mb 0.00 in0.0 mm 0.00 in0.0 mm 0.00 in0.0 mm
04:03 AM 18.7°F-7.4°C 17.0°F-8.3°C 94% 5.7 mph 9.2 kmh 9.1 mph14.6 kmh 30.08 in1018.6 mb 0.00 in0.0 mm 0.00 in0.0 mm 0.00 in0.0 mm
04:02 AM 18.7°F-7.4°C 17.0°F-8.3°C 94% 5.8 mph 9.3 kmh 10.0 mph16.1 kmh 30.08 in1018.6 mb 0.00 in0.0 mm 0.00 in0.0 mm 0.00 in0.0 mm
04:01 AM 18.7°F-7.4°C 17.0°F-8.3°C 94% 1.7 mph N2.7 kmh N 2.7 mph4.3 kmh 30.08 in1018.6 mb 0.00 in0.0 mm 0.00 in0.0 mm 0.00 in0.0 mm
04:00 AM 18.7°F-7.4°C 17.0°F-8.3°C 94% 3.0 mph 4.8 kmh 4.8 mph7.7 kmh 30.08 in1018.6 mb 0.00 in0.0 mm 0.00 in0.0 mm 0.00 in0.0 mm
03:59 AM 18.5°F-7.5°C 17.0°F-8.3°C 94% 2.1 mph N3.4 kmh N 3.2 mph5.1 kmh 30.08 in1018.6 mb 0.00 in0.0 mm 0.00 in0.0 mm 0.00 in0.0 mm
03:58 AM 18.5°F-7.5°C 17.0°F-8.3°C 94% 5.1 mph 8.2 kmh 8.1 mph13.0 kmh 30.08 in1018.6 mb 0.00 in0.0 mm 0.00 in0.0 mm 0.00 in0.0 mm
03:57 AM 18.5°F-7.5°C 17.0°F-8.3°C 94% 6.0 mph 9.7 kmh 9.6 mph15.4 kmh 30.08 in1018.6 mb 0.00 in0.0 mm 0.00 in0.0 mm 0.00 in0.0 mm
03:56 AM 18.5°F-7.5°C 17.0°F-8.3°C 94% 5.8 mph 9.3 kmh 9.1 mph14.6 kmh 30.08 in1018.6 mb 0.00 in0.0 mm 0.00 in0.0 mm 0.00 in0.0 mm
03:55 AM 18.5°F-7.5°C 17.0°F-8.3°C 94% 6.6 mph 10.6 kmh 10.5 mph16.9 kmh 30.08 in1018.6 mb 0.00 in0.0 mm 0.00 in0.0 mm 0.00 in0.0 mm
03:54 AM 18.5°F-7.5°C 17.0°F-8.3°C 94% 4.3 mph N6.9 kmh N 6.9 mph11.1 kmh 30.08 in1018.6 mb 0.00 in0.0 mm 0.00 in0.0 mm 0.00 in0.0 mm
03:53 AM 18.5°F-7.5°C 17.0°F-8.3°C 94% 2.6 mph 4.2 kmh 4.1 mph6.6 kmh 30.08 in1018.6 mb 0.00 in0.0 mm 0.00 in0.0 mm 0.00 in0.0 mm
03:52 AM 18.5°F-7.5°C 17.0°F-8.3°C 94% 2.8 mph 4.5 kmh 4.5 mph7.2 kmh 30.09 in1019.0 mb 0.00 in0.0 mm 0.00 in0.0 mm 0.00 in0.0 mm
03:51 AM 18.5°F-7.5°C 17.0°F-8.3°C 94% 4.4 mph 7.1 kmh 7.0 mph11.3 kmh 30.08 in1018.6 mb 0.00 in0.0 mm 0.00 in0.0 mm 0.00 in0.0 mm
03:50 AM 18.3°F-7.6°C 17.0°F-8.3°C 94% 2.9 mph 4.7 kmh 4.5 mph7.2 kmh 30.09 in1019.0 mb 0.00 in0.0 mm 0.00 in0.0 mm 0.00 in0.0 mm
03:49 AM 18.5°F-7.5°C 17.0°F-8.3°C 94% 2.4 mph N3.9 kmh N 3.9 mph6.3 kmh 30.08 in1018.6 mb 0.00 in0.0 mm 0.00 in0.0 mm 0.00 in0.0 mm
03:48 AM 18.5°F-7.5°C 17.0°F-8.3°C 94% 3.2 mph 5.1 kmh 5.0 mph8.0 kmh 30.09 in1019.0 mb 0.00 in0.0 mm 0.00 in0.0 mm 0.00 in0.0 mm
03:47 AM 18.5°F-7.5°C 17.0°F-8.3°C 94% 3.2 mph 5.1 kmh 5.1 mph8.2 kmh 30.09 in1019.0 mb 0.00 in0.0 mm 0.00 in0.0 mm 0.00 in0.0 mm
03:46 AM 18.5°F-7.5°C 17.0°F-8.3°C 94% 4.6 mph 7.4 kmh 7.3 mph11.7 kmh 30.09 in1019.0 mb 0.00 in0.0 mm 0.00 in0.0 mm 0.00 in0.0 mm
03:45 AM 18.5°F-7.5°C 17.0°F-8.3°C 95% 3.8 mph 6.1 kmh 6.1 mph9.8 kmh 30.09 in1019.0 mb 0.00 in0.0 mm 0.00 in0.0 mm 0.00 in0.0 mm
03:44 AM 18.5°F-7.5°C 17.0°F-8.3°C 94% 3.0 mph NNE4.8 kmh NNE 5.0 mph8.0 kmh 30.09 in1019.0 mb 0.00 in0.0 mm 0.00 in0.0 mm 0.00 in0.0 mm
03:43 AM 18.9°F-7.3°C 17.0°F-8.3°C 94% 2.9 mph 4.7 kmh 4.8 mph7.7 kmh 30.09 in1019.0 mb 0.00 in0.0 mm 0.00 in0.0 mm 0.00 in0.0 mm
03:42 AM 18.9°F-7.3°C 17.0°F-8.3°C 94% 2.9 mph NNE4.7 kmh NNE 4.5 mph7.2 kmh 30.09 in1019.0 mb 0.00 in0.0 mm 0.00 in0.0 mm 0.00 in0.0 mm
03:41 AM 18.9°F-7.3°C 17.0°F-8.3°C 94% 4.8 mph N7.7 kmh N 7.6 mph12.2 kmh 30.09 in1019.0 mb 0.00 in0.0 mm 0.00 in0.0 mm 0.00 in0.0 mm
03:40 AM 19.0°F-7.2°C 18.0°F-7.8°C 94% 6.1 mph 9.8 kmh 10.0 mph16.1 kmh 30.09 in1019.0 mb 0.00 in0.0 mm 0.00 in0.0 mm 0.00 in0.0 mm
03:39 AM 19.2°F-7.1°C 18.0°F-7.8°C 94% 6.6 mph 10.6 kmh 10.4 mph16.7 kmh 30.09 in1019.0 mb 0.00 in0.0 mm 0.00 in0.0 mm 0.00 in0.0 mm
03:38 AM 19.4°F-7.0°C 18.0°F-7.8°C 94% 5.0 mph 8.0 kmh 8.0 mph12.9 kmh 30.09 in1019.0 mb 0.00 in0.0 mm 0.00 in0.0 mm 0.00 in0.0 mm
03:37 AM 19.2°F-7.1°C 18.0°F-7.8°C 94% 4.3 mph N6.9 kmh N 6.9 mph11.1 kmh 30.09 in1019.0 mb 0.00 in0.0 mm 0.00 in0.0 mm 0.00 in0.0 mm
03:36 AM 19.2°F-7.1°C 18.0°F-7.8°C 94% 2.5 mph 4.0 kmh 4.1 mph6.6 kmh 30.09 in1019.0 mb 0.00 in0.0 mm 0.00 in0.0 mm 0.00 in0.0 mm
03:35 AM 19.2°F-7.1°C 18.0°F-7.8°C 94% 2.2 mph N3.5 kmh N 3.4 mph5.5 kmh 30.09 in1019.0 mb 0.00 in0.0 mm 0.00 in0.0 mm 0.00 in0.0 mm
03:34 AM 19.2°F-7.1°C 18.0°F-7.8°C 94% 1.5 mph 2.4 kmh 2.4 mph3.9 kmh 30.09 in1019.0 mb 0.00 in0.0 mm 0.00 in0.0 mm 0.00 in0.0 mm
03:33 AM 19.2°F-7.1°C 18.0°F-7.8°C 94% 1.9 mph 3.1 kmh 3.0 mph4.8 kmh 30.09 in1019.0 mb 0.00 in0.0 mm 0.00 in0.0 mm 0.00 in0.0 mm
03:32 AM 19.2°F-7.1°C 18.0°F-7.8°C 94% 3.1 mph 5.0 kmh 4.8 mph7.7 kmh 30.09 in1019.0 mb 0.00 in0.0 mm 0.00 in0.0 mm 0.00 in0.0 mm
03:31 AM 19.2°F-7.1°C 18.0°F-7.8°C 94% 2.9 mph 4.7 kmh 4.7 mph7.6 kmh 30.09 in1019.0 mb 0.00 in0.0 mm 0.00 in0.0 mm 0.00 in0.0 mm
03:30 AM 19.2°F-7.1°C 18.0°F-7.8°C 94% 3.6 mph 5.8 kmh 5.5 mph8.9 kmh 30.09 in1019.0 mb 0.00 in0.0 mm 0.00 in0.0 mm 0.00 in0.0 mm
03:29 AM 19.2°F-7.1°C 18.0°F-7.8°C 94% 3.6 mph N5.8 kmh N 5.7 mph9.2 kmh 30.09 in1019.0 mb 0.00 in0.0 mm 0.00 in0.0 mm 0.00 in0.0 mm
03:28 AM 19.2°F-7.1°C 18.0°F-7.8°C 94% 2.7 mph 4.3 kmh 4.3 mph6.9 kmh 30.09 in1019.0 mb 0.00 in0.0 mm 0.00 in0.0 mm 0.00 in0.0 mm
03:27 AM 19.2°F-7.1°C 18.0°F-7.8°C 94% 3.3 mph 5.3 kmh 4.9 mph7.9 kmh 30.09 in1019.0 mb 0.00 in0.0 mm 0.00 in0.0 mm 0.00 in0.0 mm
03:26 AM 19.2°F-7.1°C 18.0°F-7.8°C 94% 2.6 mph 4.2 kmh 3.9 mph6.3 kmh 30.09 in1019.0 mb 0.00 in0.0 mm 0.00 in0.0 mm 0.00 in0.0 mm
03:25 AM 19.2°F-7.1°C 18.0°F-7.8°C 94% 3.5 mph 5.6 kmh 5.4 mph8.7 kmh 30.09 in1019.0 mb 0.00 in0.0 mm 0.00 in0.0 mm 0.00 in0.0 mm
03:24 AM 19.2°F-7.1°C 18.0°F-7.8°C 94% 2.8 mph N4.5 kmh N 4.4 mph7.1 kmh 30.09 in1019.0 mb 0.00 in0.0 mm 0.00 in0.0 mm 0.00 in0.0 mm
03:23 AM 19.2°F-7.1°C 18.0°F-7.8°C 94% 2.0 mph 3.2 kmh 3.2 mph5.1 kmh 30.09 in1019.0 mb 0.00 in0.0 mm 0.00 in0.0 mm 0.00 in0.0 mm
03:22 AM 19.2°F-7.1°C 18.0°F-7.8°C 94% 2.0 mph 3.2 kmh 3.2 mph5.1 kmh 30.09 in1019.0 mb 0.00 in0.0 mm 0.00 in0.0 mm 0.00 in0.0 mm
03:21 AM 19.0°F-7.2°C 18.0°F-7.8°C 94% 2.1 mph 3.4 kmh 3.4 mph5.5 kmh 30.09 in1019.0 mb 0.00 in0.0 mm 0.00 in0.0 mm 0.00 in0.0 mm
03:20 AM 19.2°F-7.1°C 18.0°F-7.8°C 94% 1.6 mph 2.6 kmh 2.6 mph4.2 kmh 30.09 in1019.0 mb 0.00 in0.0 mm 0.00 in0.0 mm 0.00 in0.0 mm
03:19 AM 19.2°F-7.1°C 18.0°F-7.8°C 94% 2.9 mph 4.7 kmh 4.7 mph7.6 kmh 30.09 in1019.0 mb 0.00 in0.0 mm 0.00 in0.0 mm 0.00 in0.0 mm
03:18 AM 19.2°F-7.1°C 18.0°F-7.8°C 94% 3.5 mph 5.6 kmh 5.5 mph8.9 kmh 30.09 in1019.0 mb 0.00 in0.0 mm 0.00 in0.0 mm 0.00 in0.0 mm
03:17 AM 19.0°F-7.2°C 17.0°F-8.3°C 93% 2.0 mph 3.2 kmh 3.2 mph5.1 kmh 30.09 in1019.0 mb 0.00 in0.0 mm 0.00 in0.0 mm 0.00 in0.0 mm
03:16 AM 19.2°F-7.1°C 18.0°F-7.8°C 94% 2.0 mph 3.2 kmh 3.3 mph5.3 kmh 30.09 in1019.0 mb 0.00 in0.0 mm 0.00 in0.0 mm 0.00 in0.0 mm
03:15 AM 19.2°F-7.1°C 18.0°F-7.8°C 94% 2.1 mph 3.4 kmh 3.2 mph5.1 kmh 30.09 in1019.0 mb 0.00 in0.0 mm 0.00 in0.0 mm 0.00 in0.0 mm
03:14 AM 19.2°F-7.1°C 18.0°F-7.8°C 94% 2.3 mph 3.7 kmh 3.5 mph5.6 kmh 30.09 in1019.0 mb 0.00 in0.0 mm 0.00 in0.0 mm 0.00 in0.0 mm
03:13 AM 19.2°F-7.1°C 18.0°F-7.8°C 94% 2.2 mph N3.5 kmh N 3.5 mph5.6 kmh 30.10 in1019.3 mb 0.00 in0.0 mm 0.00 in0.0 mm 0.00 in0.0 mm
03:12 AM 19.2°F-7.1°C 18.0°F-7.8°C 94% 2.0 mph 3.2 kmh 3.1 mph5.0 kmh 30.10 in1019.3 mb 0.00 in0.0 mm 0.00 in0.0 mm 0.00 in0.0 mm
03:11 AM 19.2°F-7.1°C 18.0°F-7.8°C 95% 3.8 mph 6.1 kmh 6.1 mph9.8 kmh 30.10 in1019.3 mb 0.00 in0.0 mm 0.00 in0.0 mm 0.00 in0.0 mm
03:10 AM 19.2°F-7.1°C 18.0°F-7.8°C 95% 3.1 mph 5.0 kmh 4.9 mph7.9 kmh 30.10 in1019.3 mb 0.00 in0.0 mm 0.00 in0.0 mm 0.00 in0.0 mm
03:09 AM 19.4°F-7.0°C 18.0°F-7.8°C 95% 3.3 mph N5.3 kmh N 5.1 mph8.2 kmh 30.10 in1019.3 mb 0.00 in0.0 mm 0.00 in0.0 mm 0.00 in0.0 mm
03:08 AM 19.2°F-7.1°C 18.0°F-7.8°C 95% 4.0 mph N6.4 kmh N 6.4 mph10.3 kmh 30.10 in1019.3 mb 0.00 in0.0 mm 0.00 in0.0 mm 0.00 in0.0 mm
03:07 AM 19.0°F-7.2°C 18.0°F-7.8°C 95% 2.7 mph 4.3 kmh 4.4 mph7.1 kmh 30.10 in1019.3 mb 0.00 in0.0 mm 0.00 in0.0 mm 0.00 in0.0 mm
03:06 AM 19.0°F-7.2°C 18.0°F-7.8°C 95% 3.9 mph 6.3 kmh 6.2 mph10.0 kmh 30.10 in1019.3 mb 0.00 in0.0 mm 0.00 in0.0 mm 0.00 in0.0 mm
03:05 AM 19.2°F-7.1°C 18.0°F-7.8°C 95% 4.4 mph 7.1 kmh 7.2 mph11.6 kmh 30.10 in1019.3 mb 0.00 in0.0 mm 0.00 in0.0 mm 0.00 in0.0 mm
03:04 AM 19.0°F-7.2°C 18.0°F-7.8°C 94% 4.1 mph NNE6.6 kmh NNE 6.6 mph10.6 kmh 30.10 in1019.3 mb 0.00 in0.0 mm 0.00 in0.0 mm 0.00 in0.0 mm
03:03 AM 19.0°F-7.2°C 18.0°F-7.8°C 94% 6.0 mph N9.7 kmh N 9.6 mph15.4 kmh 30.10 in1019.3 mb 0.00 in0.0 mm 0.00 in0.0 mm 0.00 in0.0 mm
03:02 AM 19.2°F-7.1°C 18.0°F-7.8°C 94% 2.8 mph 4.5 kmh 4.4 mph7.1 kmh 30.10 in1019.3 mb 0.00 in0.0 mm 0.00 in0.0 mm 0.00 in0.0 mm
03:01 AM 19.0°F-7.2°C 18.0°F-7.8°C 94% 2.8 mph 4.5 kmh 4.3 mph6.9 kmh 30.10 in1019.3 mb 0.00 in0.0 mm 0.00 in0.0 mm 0.00 in0.0 mm
03:00 AM 18.9°F-7.3°C 17.0°F-8.3°C 94% 1.9 mph 3.1 kmh 3.0 mph4.8 kmh 30.10 in1019.3 mb 0.00 in0.0 mm 0.00 in0.0 mm 0.00 in0.0 mm
02:59 AM 19.0°F-7.2°C 18.0°F-7.8°C 94% 3.5 mph 5.6 kmh 5.5 mph8.9 kmh 30.10 in1019.3 mb 0.00 in0.0 mm 0.00 in0.0 mm 0.00 in0.0 mm
02:58 AM 19.0°F-7.2°C 18.0°F-7.8°C 94% 2.3 mph ENE3.7 kmh ENE 3.8 mph6.1 kmh 30.10 in1019.3 mb 0.00 in0.0 mm 0.00 in0.0 mm 0.00 in0.0 mm
02:57 AM 19.0°F-7.2°C 18.0°F-7.8°C 94% 4.6 mph N7.4 kmh N 7.1 mph11.4 kmh 30.10 in1019.3 mb 0.00 in0.0 mm 0.00 in0.0 mm 0.00 in0.0 mm
02:56 AM 19.0°F-7.2°C 18.0°F-7.8°C 94% 3.4 mph 5.5 kmh 5.2 mph8.4 kmh 30.10 in1019.3 mb 0.00 in0.0 mm 0.00 in0.0 mm 0.00 in0.0 mm
02:55 AM 19.0°F-7.2°C 18.0°F-7.8°C 94% 4.0 mph N6.4 kmh N 6.5 mph10.5 kmh 30.10 in1019.3 mb 0.00 in0.0 mm 0.00 in0.0 mm 0.00 in0.0 mm
02:54 AM 18.9°F-7.3°C 17.0°F-8.3°C 94% 2.5 mph 4.0 kmh 4.0 mph6.4 kmh 30.10 in1019.3 mb 0.00 in0.0 mm 0.00 in0.0 mm 0.00 in0.0 mm
02:53 AM 18.9°F-7.3°C 17.0°F-8.3°C 94% 2.4 mph 3.9 kmh 3.8 mph6.1 kmh 30.10 in1019.3 mb 0.00 in0.0 mm 0.00 in0.0 mm 0.00 in0.0 mm
02:52 AM 18.9°F-7.3°C 17.0°F-8.3°C 94% 1.0 mph N1.6 kmh N 1.7 mph2.7 kmh 30.10 in1019.3 mb 0.00 in0.0 mm 0.00 in0.0 mm 0.00 in0.0 mm
02:51 AM 18.9°F-7.3°C 17.0°F-8.3°C 94% 2.1 mph 3.4 kmh 3.3 mph5.3 kmh 30.10 in1019.3 mb 0.00 in0.0 mm 0.00 in0.0 mm 0.00 in0.0 mm
02:50 AM 18.9°F-7.3°C 17.0°F-8.3°C 94% 2.1 mph 3.4 kmh 3.3 mph5.3 kmh 30.10 in1019.3 mb 0.00 in0.0 mm 0.00 in0.0 mm 0.00 in0.0 mm
02:49 AM 18.7°F-7.4°C 17.0°F-8.3°C 94% 2.6 mph 4.2 kmh 4.1 mph6.6 kmh 30.10 in1019.3 mb 0.00 in0.0 mm 0.00 in0.0 mm 0.00 in0.0 mm
02:48 AM 18.9°F-7.3°C 17.0°F-8.3°C 94% 4.4 mph NNE7.1 kmh NNE 7.1 mph11.4 kmh 30.10 in1019.3 mb 0.00 in0.0 mm 0.00 in0.0 mm 0.00 in0.0 mm
02:47 AM 18.7°F-7.4°C 17.0°F-8.3°C 93% 2.3 mph 3.7 kmh 3.7 mph6.0 kmh 30.10 in1019.3 mb 0.00 in0.0 mm 0.00 in0.0 mm 0.00 in0.0 mm
02:46 AM 18.7°F-7.4°C 17.0°F-8.3°C 93% 0.6 mph 1.0 kmh 1.0 mph1.6 kmh 30.10 in1019.3 mb 0.00 in0.0 mm 0.00 in0.0 mm 0.00 in0.0 mm
02:45 AM 18.9°F-7.3°C 17.0°F-8.3°C 93% 1.2 mph E1.9 kmh E 1.9 mph3.1 kmh 30.10 in1019.3 mb 0.00 in0.0 mm 0.00 in0.0 mm 0.00 in0.0 mm
02:44 AM 18.9°F-7.3°C 17.0°F-8.3°C 93% 3.4 mph 5.5 kmh 5.4 mph8.7 kmh 30.10 in1019.3 mb 0.00 in0.0 mm 0.00 in0.0 mm 0.00 in0.0 mm
02:43 AM 19.2°F-7.1°C 18.0°F-7.8°C 94% 5.2 mph NNE8.4 kmh NNE 8.1 mph13.0 kmh 30.10 in1019.3 mb 0.00 in0.0 mm 0.00 in0.0 mm 0.00 in0.0 mm
02:42 AM 19.2°F-7.1°C 18.0°F-7.8°C 94% 4.1 mph 6.6 kmh 6.5 mph10.5 kmh 30.10 in1019.3 mb 0.00 in0.0 mm 0.00 in0.0 mm 0.00 in0.0 mm
02:41 AM 19.0°F-7.2°C 17.0°F-8.3°C 94% 3.7 mph 6.0 kmh 6.0 mph9.7 kmh 30.10 in1019.3 mb 0.00 in0.0 mm 0.00 in0.0 mm 0.00 in0.0 mm
02:40 AM 19.0°F-7.2°C 17.0°F-8.3°C 94% 4.4 mph 7.1 kmh 6.9 mph11.1 kmh 30.10 in1019.3 mb 0.00 in0.0 mm 0.00 in0.0 mm 0.00 in0.0 mm
02:39 AM 18.9°F-7.3°C 17.0°F-8.3°C 94% 3.3 mph 5.3 kmh 5.1 mph8.2 kmh 30.10 in1019.3 mb 0.00 in0.0 mm 0.00 in0.0 mm 0.00 in0.0 mm
02:38 AM 19.0°F-7.2°C 18.0°F-7.8°C 94% 1.3 mph N2.1 kmh N 2.2 mph3.5 kmh 30.10 in1019.3 mb 0.00 in0.0 mm 0.00 in0.0 mm 0.00 in0.0 mm
02:37 AM 19.0°F-7.2°C 18.0°F-7.8°C 94% 3.6 mph 5.8 kmh 5.7 mph9.2 kmh 30.10 in1019.3 mb 0.00 in0.0 mm 0.00 in0.0 mm 0.00 in0.0 mm
02:36 AM 19.0°F-7.2°C 18.0°F-7.8°C 94% 4.2 mph N6.8 kmh N 6.6 mph10.6 kmh 30.10 in1019.3 mb 0.00 in0.0 mm 0.00 in0.0 mm 0.00 in0.0 mm
02:35 AM 18.9°F-7.3°C 17.0°F-8.3°C 94% 3.7 mph 6.0 kmh 5.9 mph9.5 kmh 30.10 in1019.3 mb 0.00 in0.0 mm 0.00 in0.0 mm 0.00 in0.0 mm
02:34 AM 18.9°F-7.3°C 17.0°F-8.3°C 94% 3.3 mph 5.3 kmh 5.1 mph8.2 kmh 30.10 in1019.3 mb 0.00 in0.0 mm 0.00 in0.0 mm 0.00 in0.0 mm
02:33 AM 18.9°F-7.3°C 17.0°F-8.3°C 94% 3.0 mph 4.8 kmh 4.8 mph7.7 kmh 30.10 in1019.3 mb 0.00 in0.0 mm 0.00 in0.0 mm 0.00 in0.0 mm
02:32 AM 18.9°F-7.3°C 17.0°F-8.3°C 94% 5.0 mph N8.0 kmh N 8.4 mph13.5 kmh 30.10 in1019.3 mb 0.00 in0.0 mm 0.00 in0.0 mm 0.00 in0.0 mm
02:31 AM 18.9°F-7.3°C 17.0°F-8.3°C 94% 4.0 mph N6.4 kmh N 6.4 mph10.3 kmh 30.10 in1019.3 mb 0.00 in0.0 mm 0.00 in0.0 mm 0.00 in0.0 mm
02:30 AM 18.9°F-7.3°C 17.0°F-8.3°C 94% 3.8 mph N6.1 kmh N 6.1 mph9.8 kmh 30.10 in1019.3 mb 0.00 in0.0 mm 0.00 in0.0 mm 0.00 in0.0 mm
02:29 AM 18.9°F-7.3°C 17.0°F-8.3°C 94% 4.1 mph N6.6 kmh N 6.5 mph10.5 kmh 30.10 in1019.3 mb 0.00 in0.0 mm 0.00 in0.0 mm 0.00 in0.0 mm
02:28 AM 18.9°F-7.3°C 17.0°F-8.3°C 94% 3.6 mph N5.8 kmh N 5.8 mph9.3 kmh 30.11 in1019.6 mb 0.00 in0.0 mm 0.00 in0.0 mm 0.00 in0.0 mm
02:27 AM 18.9°F-7.3°C 17.0°F-8.3°C 94% 4.4 mph NNE7.1 kmh NNE 7.2 mph11.6 kmh 30.11 in1019.6 mb 0.00 in0.0 mm 0.00 in0.0 mm 0.00 in0.0 mm
02:26 AM 18.9°F-7.3°C 17.0°F-8.3°C 94% 3.8 mph 6.1 kmh 5.8 mph9.3 kmh 30.11 in1019.6 mb 0.00 in0.0 mm 0.00 in0.0 mm 0.00 in0.0 mm
02:25 AM 18.9°F-7.3°C 17.0°F-8.3°C 94% 5.2 mph N8.4 kmh N 8.2 mph13.2 kmh 30.11 in1019.6 mb 0.00 in0.0 mm 0.00 in0.0 mm 0.00 in0.0 mm
02:24 AM 18.9°F-7.3°C 17.0°F-8.3°C 94% 1.9 mph 3.1 kmh 3.0 mph4.8 kmh 30.11 in1019.6 mb 0.00 in0.0 mm 0.00 in0.0 mm 0.00 in0.0 mm
02:23 AM 18.7°F-7.4°C 17.0°F-8.3°C 94% 0.2 mph 0.3 kmh 0.3 mph0.5 kmh 30.11 in1019.6 mb 0.00 in0.0 mm 0.00 in0.0 mm 0.00 in0.0 mm
02:22 AM 18.7°F-7.4°C 17.0°F-8.3°C 94% 1.5 mph 2.4 kmh 2.2 mph3.5 kmh 30.11 in1019.6 mb 0.00 in0.0 mm 0.00 in0.0 mm 0.00 in0.0 mm
02:21 AM 18.7°F-7.4°C 17.0°F-8.3°C 95% 3.3 mph 5.3 kmh 5.1 mph8.2 kmh 30.11 in1019.6 mb 0.00 in0.0 mm 0.00 in0.0 mm 0.00 in0.0 mm
02:20 AM 18.7°F-7.4°C 17.0°F-8.3°C 94% 4.6 mph 7.4 kmh 7.1 mph11.4 kmh 30.11 in1019.6 mb 0.00 in0.0 mm 0.00 in0.0 mm 0.00 in0.0 mm
02:19 AM 18.7°F-7.4°C 17.0°F-8.3°C 95% 4.0 mph 6.4 kmh 6.3 mph10.1 kmh 30.11 in1019.6 mb 0.00 in0.0 mm 0.00 in0.0 mm 0.00 in0.0 mm
02:18 AM 18.5°F-7.5°C 17.0°F-8.3°C 94% 3.9 mph 6.3 kmh 6.2 mph10.0 kmh 30.11 in1019.6 mb 0.00 in0.0 mm 0.00 in0.0 mm 0.00 in0.0 mm
02:17 AM 18.5°F-7.5°C 17.0°F-8.3°C 94% 4.8 mph N7.7 kmh N 7.4 mph11.9 kmh 30.11 in1019.6 mb 0.00 in0.0 mm 0.00 in0.0 mm 0.00 in0.0 mm
02:16 AM 18.5°F-7.5°C 17.0°F-8.3°C 95% 4.1 mph N6.6 kmh N 6.6 mph10.6 kmh 30.11 in1019.6 mb 0.00 in0.0 mm 0.00 in0.0 mm 0.00 in0.0 mm
02:15 AM 18.5°F-7.5°C 17.0°F-8.3°C 95% 1.8 mph NNE2.9 kmh NNE 2.8 mph4.5 kmh 30.11 in1019.6 mb 0.00 in0.0 mm 0.00 in0.0 mm 0.00 in0.0 mm
02:14 AM 18.7°F-7.4°C 17.0°F-8.3°C 95% 2.8 mph NNE4.5 kmh NNE 4.4 mph7.1 kmh 30.11 in1019.6 mb 0.00 in0.0 mm 0.00 in0.0 mm 0.00 in0.0 mm
02:13 AM 18.7°F-7.4°C 17.0°F-8.3°C 94% 1.1 mph NNE1.8 kmh NNE 1.7 mph2.7 kmh 30.11 in1019.6 mb 0.00 in0.0 mm 0.00 in0.0 mm 0.00 in0.0 mm
02:12 AM 18.5°F-7.5°C 17.0°F-8.3°C 95% 1.4 mph ENE2.3 kmh ENE 2.2 mph3.5 kmh 30.11 in1019.6 mb 0.00 in0.0 mm 0.00 in0.0 mm 0.00 in0.0 mm
02:11 AM 18.5°F-7.5°C 17.0°F-8.3°C 94% 1.5 mph NNE2.4 kmh NNE 2.4 mph3.9 kmh 30.11 in1019.6 mb 0.00 in0.0 mm 0.00 in0.0 mm 0.00 in0.0 mm
02:10 AM 18.5°F-7.5°C 17.0°F-8.3°C 94% 2.4 mph N3.9 kmh N 3.9 mph6.3 kmh 30.11 in1019.6 mb 0.00 in0.0 mm 0.00 in0.0 mm 0.00 in0.0 mm
02:09 AM 18.5°F-7.5°C 17.0°F-8.3°C 94% 2.2 mph NE3.5 kmh NE 3.5 mph5.6 kmh 30.11 in1019.6 mb 0.00 in0.0 mm 0.00 in0.0 mm 0.00 in0.0 mm
02:08 AM 18.7°F-7.4°C 17.0°F-8.3°C 94% 1.1 mph NNE1.8 kmh NNE 1.6 mph2.6 kmh 30.11 in1019.6 mb 0.00 in0.0 mm 0.00 in0.0 mm 0.00 in0.0 mm
02:07 AM 18.9°F-7.3°C 17.0°F-8.3°C 93% 2.8 mph N4.5 kmh N 4.5 mph7.2 kmh 30.11 in1019.6 mb 0.00 in0.0 mm 0.00 in0.0 mm 0.00 in0.0 mm
02:06 AM 45.1°F7.3°C 43.0°F6.1°C 94% 3.1 mph 5.0 kmh 4.8 mph7.7 kmh 30.12 in1020.0 mb 0.00 in0.0 mm 0.00 in0.0 mm 0.00 in0.0 mm
02:05 AM 18.7°F-7.4°C 17.0°F-8.3°C 94% 3.0 mph 4.8 kmh 4.7 mph7.6 kmh 30.11 in1019.6 mb 0.00 in0.0 mm 0.00 in0.0 mm 0.00 in0.0 mm
02:04 AM 18.7°F-7.4°C 17.0°F-8.3°C 94% 2.3 mph 3.7 kmh 3.5 mph5.6 kmh 30.11 in1019.6 mb 0.00 in0.0 mm 0.00 in0.0 mm 0.00 in0.0 mm
02:03 AM 18.7°F-7.4°C 17.0°F-8.3°C 94% 1.8 mph 2.9 kmh 2.8 mph4.5 kmh 30.11 in1019.6 mb 0.00 in0.0 mm 0.00 in0.0 mm 0.00 in0.0 mm
02:02 AM 18.7°F-7.4°C 17.0°F-8.3°C 94% 3.0 mph 4.8 kmh 4.8 mph7.7 kmh 30.11 in1019.6 mb 0.00 in0.0 mm 0.00 in0.0 mm 0.00 in0.0 mm
02:01 AM 18.7°F-7.4°C 17.0°F-8.3°C 94% 2.6 mph 4.2 kmh 4.1 mph6.6 kmh 30.11 in1019.6 mb 0.00 in0.0 mm 0.00 in0.0 mm 0.00 in0.0 mm
02:00 AM 18.7°F-7.4°C 17.0°F-8.3°C 94% 4.6 mph 7.4 kmh 7.2 mph11.6 kmh 30.11 in1019.6 mb 0.00 in0.0 mm 0.00 in0.0 mm 0.00 in0.0 mm
01:59 AM 18.7°F-7.4°C 17.0°F-8.3°C 94% 4.1 mph 6.6 kmh 6.5 mph10.5 kmh 30.11 in1019.6 mb 0.00 in0.0 mm 0.00 in0.0 mm 0.00 in0.0 mm
01:58 AM 18.5°F-7.5°C 17.0°F-8.3°C 94% 5.0 mph 8.0 kmh 8.0 mph12.9 kmh 30.11 in1019.6 mb 0.00 in0.0 mm 0.00 in0.0 mm 0.00 in0.0 mm
01:57 AM 18.5°F-7.5°C 17.0°F-8.3°C 94% 2.2 mph 3.5 kmh 3.5 mph5.6 kmh 30.11 in1019.6 mb 0.00 in0.0 mm 0.00 in0.0 mm 0.00 in0.0 mm
01:56 AM 18.5°F-7.5°C 17.0°F-8.3°C 94% 2.5 mph 4.0 kmh 3.9 mph6.3 kmh 30.11 in1019.6 mb 0.00 in0.0 mm 0.00 in0.0 mm 0.00 in0.0 mm
01:55 AM 18.5°F-7.5°C 17.0°F-8.3°C 94% 2.5 mph 4.0 kmh 4.0 mph6.4 kmh 30.11 in1019.6 mb 0.00 in0.0 mm 0.00 in0.0 mm 0.00 in0.0 mm
01:54 AM 18.5°F-7.5°C 17.0°F-8.3°C 94% 1.1 mph NE1.8 kmh NE 1.6 mph2.6 kmh 30.12 in1020.0 mb 0.00 in0.0 mm 0.00 in0.0 mm 0.00 in0.0 mm
01:53 AM 18.5°F-7.5°C 17.0°F-8.3°C 94% 1.1 mph NNE1.8 kmh NNE 1.7 mph2.7 kmh 30.11 in1019.6 mb 0.00 in0.0 mm 0.00 in0.0 mm 0.00 in0.0 mm
01:52 AM 18.5°F-7.5°C 17.0°F-8.3°C 94% 1.9 mph NNE3.1 kmh NNE 2.9 mph4.7 kmh 30.12 in1020.0 mb 0.00 in0.0 mm 0.00 in0.0 mm 0.00 in0.0 mm
01:51 AM 18.5°F-7.5°C 17.0°F-8.3°C 94% 0.2 mph 0.3 kmh 0.4 mph0.6 kmh 30.12 in1020.0 mb 0.00 in0.0 mm 0.00 in0.0 mm 0.00 in0.0 mm
01:50 AM 18.7°F-7.4°C 17.0°F-8.3°C 94% 1.2 mph 1.9 kmh 1.9 mph3.1 kmh 30.12 in1020.0 mb 0.00 in0.0 mm 0.00 in0.0 mm 0.00 in0.0 mm
01:49 AM 18.7°F-7.4°C 17.0°F-8.3°C 94% 0.1 mph E0.2 kmh E 0.2 mph0.3 kmh 30.12 in1020.0 mb 0.00 in0.0 mm 0.00 in0.0 mm 0.00 in0.0 mm
01:48 AM 18.7°F-7.4°C 17.0°F-8.3°C 94% 1.4 mph E2.3 kmh E 2.2 mph3.5 kmh 30.12 in1020.0 mb 0.00 in0.0 mm 0.00 in0.0 mm 0.00 in0.0 mm
01:47 AM 18.7°F-7.4°C 17.0°F-8.3°C 94% 0.2 mph 0.3 kmh 0.3 mph0.5 kmh 30.12 in1020.0 mb 0.00 in0.0 mm 0.00 in0.0 mm 0.00 in0.0 mm
01:46 AM 18.7°F-7.4°C 17.0°F-8.3°C 94% 1.3 mph NE2.1 kmh NE 2.0 mph3.2 kmh 30.12 in1020.0 mb 0.00 in0.0 mm 0.00 in0.0 mm 0.00 in0.0 mm
01:45 AM 18.7°F-7.4°C 17.0°F-8.3°C 94% 1.5 mph ENE2.4 kmh ENE 2.4 mph3.9 kmh 30.12 in1020.0 mb 0.00 in0.0 mm 0.00 in0.0 mm 0.00 in0.0 mm
01:44 AM 18.7°F-7.4°C 17.0°F-8.3°C 94% 2.1 mph 3.4 kmh 3.5 mph5.6 kmh 30.12 in1020.0 mb 0.00 in0.0 mm 0.00 in0.0 mm 0.00 in0.0 mm
01:43 AM 18.9°F-7.3°C 17.0°F-8.3°C 94% 2.6 mph 4.2 kmh 4.1 mph6.6 kmh 30.12 in1020.0 mb 0.00 in0.0 mm 0.00 in0.0 mm 0.00 in0.0 mm
01:42 AM 18.9°F-7.3°C 17.0°F-8.3°C 94% 1.4 mph 2.3 kmh 2.3 mph3.7 kmh 30.12 in1020.0 mb 0.00 in0.0 mm 0.00 in0.0 mm 0.00 in0.0 mm
01:41 AM 18.9°F-7.3°C 17.0°F-8.3°C 94% 2.1 mph 3.4 kmh 3.3 mph5.3 kmh 30.12 in1020.0 mb 0.00 in0.0 mm 0.00 in0.0 mm 0.00 in0.0 mm
01:40 AM 18.9°F-7.3°C 17.0°F-8.3°C 94% 2.4 mph NNE3.9 kmh NNE 3.9 mph6.3 kmh 30.12 in1020.0 mb 0.00 in0.0 mm 0.00 in0.0 mm 0.00 in0.0 mm
01:39 AM 18.9°F-7.3°C 17.0°F-8.3°C 94% 2.3 mph NNE3.7 kmh NNE 3.5 mph5.6 kmh 30.12 in1020.0 mb 0.00 in0.0 mm 0.00 in0.0 mm 0.00 in0.0 mm
01:38 AM 18.9°F-7.3°C 17.0°F-8.3°C 94% 3.0 mph 4.8 kmh 4.7 mph7.6 kmh 30.12 in1020.0 mb 0.00 in0.0 mm 0.00 in0.0 mm 0.00 in0.0 mm
01:37 AM 18.9°F-7.3°C 17.0°F-8.3°C 94% 2.5 mph 4.0 kmh 3.9 mph6.3 kmh 30.12 in1020.0 mb 0.00 in0.0 mm 0.00 in0.0 mm 0.00 in0.0 mm
01:35 AM 18.9°F-7.3°C 17.0°F-8.3°C 94% 2.3 mph 3.7 kmh 3.5 mph5.6 kmh 30.12 in1020.0 mb 0.00 in0.0 mm 0.00 in0.0 mm 0.00 in0.0 mm
01:34 AM 18.9°F-7.3°C 17.0°F-8.3°C 94% 2.3 mph 3.7 kmh 3.7 mph6.0 kmh 30.12 in1020.0 mb 0.00 in0.0 mm 0.00 in0.0 mm 0.00 in0.0 mm
01:33 AM 19.0°F-7.2°C 18.0°F-7.8°C 94% 2.6 mph 4.2 kmh 4.1 mph6.6 kmh 30.12 in1020.0 mb 0.00 in0.0 mm 0.00 in0.0 mm 0.00 in0.0 mm
01:32 AM 19.2°F-7.1°C 18.0°F-7.8°C 94% 3.8 mph 6.1 kmh 5.9 mph9.5 kmh 30.12 in1020.0 mb 0.00 in0.0 mm 0.00 in0.0 mm 0.00 in0.0 mm
01:31 AM 19.2°F-7.1°C 18.0°F-7.8°C 94% 3.4 mph 5.5 kmh 5.5 mph8.9 kmh 30.12 in1020.0 mb 0.00 in0.0 mm 0.00 in0.0 mm 0.00 in0.0 mm
01:30 AM 19.2°F-7.1°C 18.0°F-7.8°C 94% 4.7 mph 7.6 kmh 7.5 mph12.1 kmh 30.12 in1020.0 mb 0.00 in0.0 mm 0.00 in0.0 mm 0.00 in0.0 mm
01:29 AM 19.0°F-7.2°C 18.0°F-7.8°C 94% 3.8 mph N6.1 kmh N 6.1 mph9.8 kmh 30.12 in1020.0 mb 0.00 in0.0 mm 0.00 in0.0 mm 0.00 in0.0 mm
01:28 AM 19.2°F-7.1°C 18.0°F-7.8°C 94% 3.8 mph 6.1 kmh 5.9 mph9.5 kmh 30.12 in1020.0 mb 0.00 in0.0 mm 0.00 in0.0 mm 0.00 in0.0 mm
01:27 AM 19.2°F-7.1°C 18.0°F-7.8°C 94% 3.9 mph 6.3 kmh 6.2 mph10.0 kmh 30.12 in1020.0 mb 0.00 in0.0 mm 0.00 in0.0 mm 0.00 in0.0 mm
01:26 AM 19.2°F-7.1°C 18.0°F-7.8°C 95% 3.4 mph NNE5.5 kmh NNE 5.4 mph8.7 kmh 30.12 in1020.0 mb 0.00 in0.0 mm 0.00 in0.0 mm 0.00 in0.0 mm
01:25 AM 19.0°F-7.2°C 18.0°F-7.8°C 95% 2.9 mph 4.7 kmh 4.6 mph7.4 kmh 30.12 in1020.0 mb 0.00 in0.0 mm 0.00 in0.0 mm 0.00 in0.0 mm
01:24 AM 19.0°F-7.2°C 18.0°F-7.8°C 95% 2.1 mph 3.4 kmh 3.4 mph5.5 kmh 30.12 in1020.0 mb 0.00 in0.0 mm 0.00 in0.0 mm 0.00 in0.0 mm
01:23 AM 19.0°F-7.2°C 18.0°F-7.8°C 95% 1.4 mph E2.3 kmh E 2.2 mph3.5 kmh 30.12 in1020.0 mb 0.00 in0.0 mm 0.00 in0.0 mm 0.00 in0.0 mm
01:22 AM 19.0°F-7.2°C 18.0°F-7.8°C 95% 1.3 mph ENE2.1 kmh ENE 2.1 mph3.4 kmh 30.12 in1020.0 mb 0.00 in0.0 mm 0.00 in0.0 mm 0.00 in0.0 mm
01:21 AM 19.2°F-7.1°C 18.0°F-7.8°C 95% 2.1 mph NNE3.4 kmh NNE 3.3 mph5.3 kmh 30.12 in1020.0 mb 0.00 in0.0 mm 0.00 in0.0 mm 0.00 in0.0 mm
01:20 AM 19.2°F-7.1°C 18.0°F-7.8°C 95% 4.6 mph 7.4 kmh 7.4 mph11.9 kmh 30.12 in1020.0 mb 0.00 in0.0 mm 0.00 in0.0 mm 0.00 in0.0 mm
01:19 AM 19.2°F-7.1°C 18.0°F-7.8°C 95% 2.6 mph 4.2 kmh 4.2 mph6.8 kmh 30.12 in1020.0 mb 0.00 in0.0 mm 0.00 in0.0 mm 0.00 in0.0 mm
01:18 AM 19.0°F-7.2°C 18.0°F-7.8°C 95% 1.8 mph 2.9 kmh 2.9 mph4.7 kmh 30.12 in1020.0 mb 0.00 in0.0 mm 0.00 in0.0 mm 0.00 in0.0 mm
01:17 AM 19.0°F-7.2°C 18.0°F-7.8°C 95% 0.5 mph 0.8 kmh 0.8 mph1.3 kmh 30.12 in1020.0 mb 0.00 in0.0 mm 0.00 in0.0 mm 0.00 in0.0 mm
01:16 AM 19.0°F-7.2°C 18.0°F-7.8°C 95% 2.8 mph 4.5 kmh 4.3 mph6.9 kmh 30.12 in1020.0 mb 0.00 in0.0 mm 0.00 in0.0 mm 0.00 in0.0 mm
01:15 AM 19.0°F-7.2°C 18.0°F-7.8°C 95% 3.1 mph 5.0 kmh 4.9 mph7.9 kmh 30.12 in1020.0 mb 0.00 in0.0 mm 0.00 in0.0 mm 0.00 in0.0 mm
01:14 AM 19.0°F-7.2°C 18.0°F-7.8°C 95% 4.4 mph 7.1 kmh 6.9 mph11.1 kmh 30.12 in1020.0 mb 0.00 in0.0 mm 0.00 in0.0 mm 0.00 in0.0 mm
01:13 AM 19.0°F-7.2°C 18.0°F-7.8°C 95% 3.1 mph NNE5.0 kmh NNE 4.9 mph7.9 kmh 30.12 in1020.0 mb 0.00 in0.0 mm 0.00 in0.0 mm 0.00 in0.0 mm
01:12 AM 19.0°F-7.2°C 18.0°F-7.8°C 94% 5.2 mph NNE8.4 kmh NNE 8.0 mph12.9 kmh 30.12 in1020.0 mb 0.00 in0.0 mm 0.00 in0.0 mm 0.00 in0.0 mm
01:11 AM 19.0°F-7.2°C 18.0°F-7.8°C 94% 2.7 mph 4.3 kmh 4.3 mph6.9 kmh 30.12 in1020.0 mb 0.00 in0.0 mm 0.00 in0.0 mm 0.00 in0.0 mm
01:10 AM 19.0°F-7.2°C 18.0°F-7.8°C 94% 1.9 mph 3.1 kmh 3.0 mph4.8 kmh 30.12 in1020.0 mb 0.00 in0.0 mm 0.00 in0.0 mm 0.00 in0.0 mm
01:09 AM 19.0°F-7.2°C 18.0°F-7.8°C 95% 3.7 mph 6.0 kmh 5.8 mph9.3 kmh 30.12 in1020.0 mb 0.00 in0.0 mm 0.00 in0.0 mm 0.00 in0.0 mm
01:08 AM 19.0°F-7.2°C 18.0°F-7.8°C 95% 3.8 mph 6.1 kmh 5.9 mph9.5 kmh 30.12 in1020.0 mb 0.00 in0.0 mm 0.00 in0.0 mm 0.00 in0.0 mm
01:07 AM 19.2°F-7.1°C 18.0°F-7.8°C 95% 4.0 mph N6.4 kmh N 6.4 mph10.3 kmh 30.12 in1020.0 mb 0.00 in0.0 mm 0.00 in0.0 mm 0.00 in0.0 mm
01:06 AM 19.0°F-7.2°C 18.0°F-7.8°C 95% 3.1 mph 5.0 kmh 4.9 mph7.9 kmh 30.12 in1020.0 mb 0.00 in0.0 mm 0.00 in0.0 mm 0.00 in0.0 mm
01:05 AM 19.0°F-7.2°C 18.0°F-7.8°C 95% 4.1 mph NNE6.6 kmh NNE 6.5 mph10.5 kmh 30.12 in1020.0 mb 0.00 in0.0 mm 0.00 in0.0 mm 0.00 in0.0 mm
01:04 AM 18.9°F-7.3°C 18.0°F-7.8°C 95% 4.7 mph 7.6 kmh 7.3 mph11.7 kmh 30.12 in1020.0 mb 0.00 in0.0 mm 0.00 in0.0 mm 0.00 in0.0 mm
01:03 AM 19.2°F-7.1°C 18.0°F-7.8°C 95% 6.0 mph 9.7 kmh 9.6 mph15.4 kmh 30.12 in1020.0 mb 0.00 in0.0 mm 0.00 in0.0 mm 0.00 in0.0 mm
01:02 AM 19.2°F-7.1°C 18.0°F-7.8°C 95% 3.4 mph N5.5 kmh N 5.6 mph9.0 kmh 30.12 in1020.0 mb 0.00 in0.0 mm 0.00 in0.0 mm 0.00 in0.0 mm
01:01 AM 19.2°F-7.1°C 18.0°F-7.8°C 95% 2.5 mph 4.0 kmh 3.9 mph6.3 kmh 30.13 in1020.3 mb 0.00 in0.0 mm 0.00 in0.0 mm 0.00 in0.0 mm
01:00 AM 19.2°F-7.1°C 18.0°F-7.8°C 95% 3.4 mph N5.5 kmh N 5.5 mph8.9 kmh 30.13 in1020.3 mb 0.00 in0.0 mm 0.00 in0.0 mm 0.00 in0.0 mm
12:59 AM 19.2°F-7.1°C 18.0°F-7.8°C 95% 3.2 mph N5.1 kmh N 5.0 mph8.0 kmh 30.13 in1020.3 mb 0.00 in0.0 mm 0.00 in0.0 mm 0.00 in0.0 mm
12:58 AM 19.2°F-7.1°C 18.0°F-7.8°C 95% 6.1 mph N9.8 kmh N 9.9 mph15.9 kmh 30.13 in1020.3 mb 0.00 in0.0 mm 0.00 in0.0 mm 0.00 in0.0 mm
12:57 AM 19.2°F-7.1°C 18.0°F-7.8°C 95% 4.7 mph N7.6 kmh N 7.8 mph12.6 kmh 30.13 in1020.3 mb 0.00 in0.0 mm 0.00 in0.0 mm 0.00 in0.0 mm
12:56 AM 19.2°F-7.1°C 18.0°F-7.8°C 94% 3.7 mph N6.0 kmh N 5.9 mph9.5 kmh 30.13 in1020.3 mb 0.00 in0.0 mm 0.00 in0.0 mm 0.00 in0.0 mm
12:55 AM 19.4°F-7.0°C 18.0°F-7.8°C 94% 4.6 mph N7.4 kmh N 7.3 mph11.7 kmh 30.13 in1020.3 mb 0.00 in0.0 mm 0.00 in0.0 mm 0.00 in0.0 mm
12:54 AM 19.4°F-7.0°C 18.0°F-7.8°C 94% 6.1 mph NE9.8 kmh NE 10.2 mph16.4 kmh 30.13 in1020.3 mb 0.00 in0.0 mm 0.00 in0.0 mm 0.00 in0.0 mm
12:53 AM 19.4°F-7.0°C 18.0°F-7.8°C 94% 4.4 mph NE7.1 kmh NE 7.0 mph11.3 kmh 30.13 in1020.3 mb 0.00 in0.0 mm 0.00 in0.0 mm 0.00 in0.0 mm
12:52 AM 19.4°F-7.0°C 18.0°F-7.8°C 94% 4.0 mph N6.4 kmh N 6.4 mph10.3 kmh 30.13 in1020.3 mb 0.00 in0.0 mm 0.00 in0.0 mm 0.00 in0.0 mm
12:51 AM 19.4°F-7.0°C 18.0°F-7.8°C 94% 6.3 mph 10.1 kmh 10.3 mph16.6 kmh 30.13 in1020.3 mb 0.00 in0.0 mm 0.00 in0.0 mm 0.00 in0.0 mm
12:50 AM 19.6°F-6.9°C 18.0°F-7.8°C 94% 4.8 mph N7.7 kmh N 7.6 mph12.2 kmh 30.13 in1020.3 mb 0.00 in0.0 mm 0.00 in0.0 mm 0.00 in0.0 mm
12:49 AM 19.6°F-6.9°C 18.0°F-7.8°C 94% 4.1 mph NNE6.6 kmh NNE 6.8 mph10.9 kmh 30.13 in1020.3 mb 0.00 in0.0 mm 0.00 in0.0 mm 0.00 in0.0 mm
12:48 AM 19.6°F-6.9°C 18.0°F-7.8°C 94% 4.0 mph NE6.4 kmh NE 6.4 mph10.3 kmh 30.13 in1020.3 mb 0.00 in0.0 mm 0.00 in0.0 mm 0.00 in0.0 mm
12:47 AM 19.6°F-6.9°C 18.0°F-7.8°C 94% 4.7 mph 7.6 kmh 7.3 mph11.7 kmh 30.13 in1020.3 mb 0.00 in0.0 mm 0.00 in0.0 mm 0.00 in0.0 mm
12:46 AM 19.6°F-6.9°C 18.0°F-7.8°C 94% 3.0 mph 4.8 kmh 4.6 mph7.4 kmh 30.13 in1020.3 mb 0.00 in0.0 mm 0.00 in0.0 mm 0.00 in0.0 mm
12:45 AM 19.6°F-6.9°C 18.0°F-7.8°C 94% 4.0 mph N6.4 kmh N 6.1 mph9.8 kmh 30.13 in1020.3 mb 0.00 in0.0 mm 0.00 in0.0 mm 0.00 in0.0 mm
12:44 AM 19.8°F-6.8°C 18.0°F-7.8°C 94% 4.9 mph 7.9 kmh 7.6 mph12.2 kmh 30.13 in1020.3 mb 0.00 in0.0 mm 0.00 in0.0 mm 0.00 in0.0 mm
12:43 AM 19.8°F-6.8°C 18.0°F-7.8°C 94% 3.3 mph 5.3 kmh 5.2 mph8.4 kmh 30.13 in1020.3 mb 0.00 in0.0 mm 0.00 in0.0 mm 0.00 in0.0 mm
12:42 AM 19.8°F-6.8°C 18.0°F-7.8°C 94% 5.1 mph N8.2 kmh N 8.1 mph13.0 kmh 30.13 in1020.3 mb 0.00 in0.0 mm 0.00 in0.0 mm 0.00 in0.0 mm
12:41 AM 19.8°F-6.8°C 18.0°F-7.8°C 94% 3.3 mph N5.3 kmh N 5.2 mph8.4 kmh 30.13 in1020.3 mb 0.00 in0.0 mm 0.00 in0.0 mm 0.00 in0.0 mm
12:40 AM 19.8°F-6.8°C 18.0°F-7.8°C 94% 4.1 mph 6.6 kmh 6.9 mph11.1 kmh 30.13 in1020.3 mb 0.00 in0.0 mm 0.00 in0.0 mm 0.00 in0.0 mm
12:39 AM 19.8°F-6.8°C 18.0°F-7.8°C 94% 3.0 mph NNE4.8 kmh NNE 4.8 mph7.7 kmh 30.13 in1020.3 mb 0.00 in0.0 mm 0.00 in0.0 mm 0.00 in0.0 mm
12:38 AM 19.6°F-6.9°C 18.0°F-7.8°C 94% 4.9 mph N7.9 kmh N 7.7 mph12.4 kmh 30.13 in1020.3 mb 0.00 in0.0 mm 0.00 in0.0 mm 0.00 in0.0 mm
12:37 AM 19.8°F-6.8°C 18.0°F-7.8°C 94% 4.2 mph NNE6.8 kmh NNE 6.6 mph10.6 kmh 30.13 in1020.3 mb 0.00 in0.0 mm 0.00 in0.0 mm 0.00 in0.0 mm
12:36 AM 19.8°F-6.8°C 18.0°F-7.8°C 94% 2.0 mph NE3.2 kmh NE 3.1 mph5.0 kmh 30.13 in1020.3 mb 0.00 in0.0 mm 0.00 in0.0 mm 0.00 in0.0 mm
12:35 AM 19.8°F-6.8°C 18.0°F-7.8°C 94% 3.2 mph NNE5.1 kmh NNE 5.0 mph8.0 kmh 30.13 in1020.3 mb 0.00 in0.0 mm 0.00 in0.0 mm 0.00 in0.0 mm
12:34 AM 19.8°F-6.8°C 19.0°F-7.2°C 95% 4.7 mph NE7.6 kmh NE 7.6 mph12.2 kmh 30.13 in1020.3 mb 0.00 in0.0 mm 0.00 in0.0 mm 0.00 in0.0 mm
12:33 AM 19.8°F-6.8°C 19.0°F-7.2°C 95% 4.2 mph N6.8 kmh N 6.8 mph10.9 kmh 30.13 in1020.3 mb 0.00 in0.0 mm 0.00 in0.0 mm 0.00 in0.0 mm
12:32 AM 19.8°F-6.8°C 19.0°F-7.2°C 95% 3.8 mph NE6.1 kmh NE 5.9 mph9.5 kmh 30.13 in1020.3 mb 0.00 in0.0 mm 0.00 in0.0 mm 0.00 in0.0 mm
12:31 AM 19.9°F-6.7°C 19.0°F-7.2°C 95% 4.5 mph NE7.2 kmh NE 7.1 mph11.4 kmh 30.13 in1020.3 mb 0.00 in0.0 mm 0.00 in0.0 mm 0.00 in0.0 mm
12:30 AM 19.9°F-6.7°C 19.0°F-7.2°C 95% 5.4 mph N8.7 kmh N 8.9 mph14.3 kmh 30.13 in1020.3 mb 0.00 in0.0 mm 0.00 in0.0 mm 0.00 in0.0 mm
12:29 AM 19.8°F-6.8°C 19.0°F-7.2°C 95% 3.8 mph NE6.1 kmh NE 6.1 mph9.8 kmh 30.13 in1020.3 mb 0.00 in0.0 mm 0.00 in0.0 mm 0.00 in0.0 mm
12:28 AM 19.8°F-6.8°C 19.0°F-7.2°C 95% 3.4 mph NE5.5 kmh NE 5.6 mph9.0 kmh 30.13 in1020.3 mb 0.00 in0.0 mm 0.00 in0.0 mm 0.00 in0.0 mm
12:27 AM 19.9°F-6.7°C 19.0°F-7.2°C 95% 2.8 mph ENE4.5 kmh ENE 4.5 mph7.2 kmh 30.13 in1020.3 mb 0.00 in0.0 mm 0.00 in0.0 mm 0.00 in0.0 mm
12:26 AM 19.9°F-6.7°C 19.0°F-7.2°C 95% 1.5 mph NE2.4 kmh NE 2.5 mph4.0 kmh 30.13 in1020.3 mb 0.00 in0.0 mm 0.00 in0.0 mm 0.00 in0.0 mm
12:25 AM 19.9°F-6.7°C 19.0°F-7.2°C 95% 1.0 mph N1.6 kmh N 1.6 mph2.6 kmh 30.13 in1020.3 mb 0.00 in0.0 mm 0.00 in0.0 mm 0.00 in0.0 mm
12:24 AM 19.9°F-6.7°C 19.0°F-7.2°C 95% 1.6 mph NE2.6 kmh NE 2.4 mph3.9 kmh 30.13 in1020.3 mb 0.00 in0.0 mm 0.00 in0.0 mm 0.00 in0.0 mm
12:23 AM 19.9°F-6.7°C 19.0°F-7.2°C 95% 2.3 mph ENE3.7 kmh ENE 3.6 mph5.8 kmh 30.13 in1020.3 mb 0.00 in0.0 mm 0.00 in0.0 mm 0.00 in0.0 mm
12:22 AM 19.9°F-6.7°C 19.0°F-7.2°C 95% 3.0 mph 4.8 kmh 4.8 mph7.7 kmh 30.13 in1020.3 mb 0.00 in0.0 mm 0.00 in0.0 mm 0.00 in0.0 mm
12:21 AM 19.9°F-6.7°C 19.0°F-7.2°C 95% 2.5 mph 4.0 kmh 4.0 mph6.4 kmh 30.13 in1020.3 mb 0.00 in0.0 mm 0.00 in0.0 mm 0.00 in0.0 mm
12:20 AM 19.9°F-6.7°C 19.0°F-7.2°C 95% 2.0 mph 3.2 kmh 3.1 mph5.0 kmh 30.13 in1020.3 mb 0.00 in0.0 mm 0.00 in0.0 mm 0.00 in0.0 mm
12:19 AM 19.9°F-6.7°C 19.0°F-7.2°C 95% 3.3 mph NE5.3 kmh NE 5.5 mph8.9 kmh 30.13 in1020.3 mb 0.00 in0.0 mm 0.00 in0.0 mm 0.00 in0.0 mm
12:18 AM 20.1°F-6.6°C 19.0°F-7.2°C 95% 2.3 mph ENE3.7 kmh ENE 3.6 mph5.8 kmh 30.13 in1020.3 mb 0.00 in0.0 mm 0.00 in0.0 mm 0.00 in0.0 mm
12:17 AM 20.1°F-6.6°C 19.0°F-7.2°C 95% 2.4 mph ENE3.9 kmh ENE 3.8 mph6.1 kmh 30.13 in1020.3 mb 0.00 in0.0 mm 0.00 in0.0 mm 0.00 in0.0 mm
12:16 AM 20.1°F-6.6°C 19.0°F-7.2°C 95% 2.4 mph ENE3.9 kmh ENE 4.0 mph6.4 kmh 30.13 in1020.3 mb 0.00 in0.0 mm 0.00 in0.0 mm 0.00 in0.0 mm
12:15 AM 20.1°F-6.6°C 19.0°F-7.2°C 95% 2.7 mph ENE4.3 kmh ENE 4.2 mph6.8 kmh 30.13 in1020.3 mb 0.00 in0.0 mm 0.00 in0.0 mm 0.00 in0.0 mm
12:14 AM 20.1°F-6.6°C 19.0°F-7.2°C 95% 2.9 mph ESE4.7 kmh ESE 4.6 mph7.4 kmh 30.13 in1020.3 mb 0.00 in0.0 mm 0.00 in0.0 mm 0.00 in0.0 mm
12:13 AM 20.1°F-6.6°C 19.0°F-7.2°C 95% 1.5 mph N2.4 kmh N 2.4 mph3.9 kmh 30.13 in1020.3 mb 0.00 in0.0 mm 0.00 in0.0 mm 0.00 in0.0 mm
12:12 AM 20.3°F-6.5°C 19.0°F-7.2°C 95% 1.3 mph 2.1 kmh 2.0 mph3.2 kmh 30.13 in1020.3 mb 0.00 in0.0 mm 0.00 in0.0 mm 0.00 in0.0 mm
12:11 AM 20.1°F-6.6°C 19.0°F-7.2°C 95% 3.9 mph 6.3 kmh 6.1 mph9.8 kmh 30.13 in1020.3 mb 0.00 in0.0 mm 0.00 in0.0 mm 0.00 in0.0 mm
12:10 AM 20.1°F-6.6°C 19.0°F-7.2°C 96% 3.1 mph 5.0 kmh 4.9 mph7.9 kmh 30.13 in1020.3 mb 0.00 in0.0 mm 0.00 in0.0 mm 0.00 in0.0 mm
12:09 AM 20.1°F-6.6°C 19.0°F-7.2°C 96% 3.8 mph 6.1 kmh 6.1 mph9.8 kmh 30.13 in1020.3 mb 0.00 in0.0 mm 0.00 in0.0 mm 0.00 in0.0 mm
12:08 AM 20.1°F-6.6°C 19.0°F-7.2°C 96% 3.2 mph 5.1 kmh 5.0 mph8.0 kmh 30.13 in1020.3 mb 0.00 in0.0 mm 0.00 in0.0 mm 0.00 in0.0 mm
12:07 AM 20.1°F-6.6°C 19.0°F-7.2°C 96% 5.2 mph 8.4 kmh 8.3 mph13.4 kmh 30.13 in1020.3 mb 0.00 in0.0 mm 0.00 in0.0 mm 0.00 in0.0 mm
12:06 AM 20.1°F-6.6°C 19.0°F-7.2°C 96% 4.3 mph 6.9 kmh 6.7 mph10.8 kmh 30.13 in1020.3 mb 0.00 in0.0 mm 0.00 in0.0 mm 0.00 in0.0 mm
12:05 AM 20.1°F-6.6°C 19.0°F-7.2°C 96% 4.1 mph 6.6 kmh 6.5 mph10.5 kmh 30.13 in1020.3 mb 0.00 in0.0 mm 0.00 in0.0 mm 0.00 in0.0 mm
12:04 AM 20.1°F-6.6°C 19.0°F-7.2°C 96% 1.9 mph ENE3.1 kmh ENE 2.8 mph4.5 kmh 30.13 in1020.3 mb 0.00 in0.0 mm 0.00 in0.0 mm 0.00 in0.0 mm
12:03 AM 20.3°F-6.5°C 19.0°F-7.2°C 96% 5.8 mph N9.3 kmh N 9.5 mph15.3 kmh 30.13 in1020.3 mb 0.00 in0.0 mm 0.00 in0.0 mm 0.00 in0.0 mm
12:02 AM 20.1°F-6.6°C 19.0°F-7.2°C 96% 4.2 mph 6.8 kmh 6.7 mph10.8 kmh 30.13 in1020.3 mb 0.00 in0.0 mm 0.00 in0.0 mm 0.00 in0.0 mm
12:01 AM 20.1°F-6.6°C 19.0°F-7.2°C 96% 2.0 mph ENE3.2 kmh ENE 3.1 mph5.0 kmh 30.13 in1020.3 mb 0.00 in0.0 mm 0.00 in0.0 mm 0.00 in0.0 mm
12:00 AM 19.9°F-6.7°C 19.0°F-7.2°C 96% 1.5 mph SE2.4 kmh SE 2.5 mph4.0 kmh 30.13 in1020.3 mb 0.00 in0.0 mm 0.00 in0.0 mm 0.00 in0.0 mm